Provisional Data: Bowman Creek near Noxen, PA


Please select a monitoring station.
Please select start date.
Please select start date.

Toggle Unit: C/F Toggle Unit: C/F
Sample Time Temperature (C) Temperature (F) Specific Conductivity (mS/cm) pH   Turbidity (NTU+) DO (mg/L)
11/2/2022 12:00:00 AM 10.59 51.062 0.046 6.75 2.03 10.87
11/2/2022 12:15:00 AM 10.54 50.972 0.046 6.74 2.06 10.88
11/2/2022 12:30:00 AM 10.51 50.918 0.046 6.72 1.97 10.91
11/2/2022 12:45:00 AM 10.47 50.846 0.046 6.73 1.88 10.91
11/2/2022 1:00:00 AM 10.44 50.792 0.046 6.76 1.93 10.92
11/2/2022 1:15:00 AM 10.4 50.72 0.046 6.77 1.93 10.94
11/2/2022 1:30:00 AM 10.37 50.666 0.045 6.72 1.93 10.95
11/2/2022 1:45:00 AM 10.32 50.576 0.045 6.74 1.91 10.96
11/2/2022 2:00:00 AM 10.27 50.486 0.045 6.72 1.89 10.97
11/2/2022 2:15:00 AM 10.24 50.432 0.045 6.71 1.99 10.99
11/2/2022 2:30:00 AM 10.2 50.36 0.045 6.74 1.92 11
11/2/2022 2:45:00 AM 10.18 50.324 0.045 6.74 1.9 11.01
11/2/2022 3:00:00 AM 10.15 50.27 0.045 6.74 1.94 11.02
11/2/2022 3:15:00 AM 10.12 50.216 0.045 6.73 2.18 11.03
11/2/2022 3:30:00 AM 10.11 50.198 0.045 6.74 1.93 11.04
11/2/2022 3:45:00 AM 10.09 50.162 0.044 6.77 2.1 11.04
11/2/2022 4:00:00 AM 10.07 50.126 0.044 6.7 2.07 11.05
11/2/2022 4:15:00 AM 10.05 50.09 0.044 6.71 2.18 11.06
11/2/2022 4:30:00 AM 10.03 50.054 0.044 6.73 2.06 11.07
11/2/2022 4:45:00 AM 10.02 50.036 0.044 6.7 2.1 11.08
11/2/2022 5:00:00 AM 10.02 50.036 0.044 6.71 2.08 11.09
11/2/2022 5:15:00 AM 10.03 50.054 0.044 6.73 2.06 11.08
11/2/2022 5:30:00 AM 10.05 50.09 0.044 6.76 1.98 11.08
11/2/2022 5:45:00 AM 10.07 50.126 0.044 6.72 2.01 11.08
11/2/2022 6:00:00 AM 10.08 50.144 0.044 6.75 2.04 11.08
11/2/2022 6:15:00 AM 10.07 50.126 0.044 6.72 1.93 11.08
11/2/2022 6:30:00 AM 10.06 50.108 0.044 6.7 1.93 11.09
11/2/2022 6:45:00 AM 10.05 50.09 0.044 6.72 1.99 11.09
11/2/2022 7:00:00 AM 10.05 50.09 0.044 6.72 1.96 11.09
11/2/2022 7:15:00 AM 10.04 50.072 0.044 6.73 2 11.1
11/2/2022 7:30:00 AM 10.04 50.072 0.044 6.7 1.97 11.1
11/2/2022 7:45:00 AM 10.04 50.072 0.044 6.72 2.06 11.11
11/2/2022 8:00:00 AM 10.03 50.054 0.044 6.72 1.99 11.16
11/2/2022 8:15:00 AM 10.03 50.054 0.043 6.74 1.94 11.23
11/2/2022 8:30:00 AM 10.02 50.036 0.043 6.75 2.07 11.3
11/2/2022 8:45:00 AM 10.01 50.018 0.043 6.76 2.07 11.39
11/2/2022 9:00:00 AM 10 50 0.043 6.78 1.98 11.46
11/2/2022 9:15:00 AM 10 50 0.043 6.78 1.92 11.51
11/2/2022 9:30:00 AM 10 50 0.043 6.84 1.9 11.57
11/2/2022 9:45:00 AM 10 50 0.043 6.83 1.92 11.6
11/2/2022 10:00:00 AM 10.03 50.054 0.043 6.81 1.89 11.65
11/2/2022 10:15:00 AM 10.07 50.126 0.043 6.84 1.91 11.66
11/2/2022 10:30:00 AM 10.11 50.198 0.043 6.85 2.01 11.69
11/2/2022 10:45:00 AM 10.16 50.288 0.043 6.9 1.84 11.7
11/2/2022 11:00:00 AM 10.24 50.432 0.043 6.91 1.91 11.7
11/2/2022 11:15:00 AM 10.32 50.576 0.043 6.9 1.84 11.69
11/2/2022 11:30:00 AM 10.44 50.792 0.043 6.87 1.81 11.7
11/2/2022 11:45:00 AM 10.58 51.044 0.043 6.93 1.78 11.69
11/2/2022 12:00:00 PM 10.75 51.35 0.043 6.95 1.76 11.67
11/2/2022 12:15:00 PM 10.92 51.656 0.042 6.94 1.81 11.66
11/2/2022 12:30:00 PM 11.1 51.98 0.042 6.92 1.83 11.62
11/2/2022 12:45:00 PM 11.29 52.322 0.042 6.92 1.81 11.6
11/2/2022 1:00:00 PM 11.47 52.646 0.042 6.94 1.85 11.56
11/2/2022 1:15:00 PM 11.64 52.952 0.042 6.93 1.76 11.53
11/2/2022 1:30:00 PM 11.78 53.204 0.042 6.97 1.83 11.49
11/2/2022 1:45:00 PM 11.89 53.402 0.042 6.95 1.84 11.45
11/2/2022 2:00:00 PM 11.97 53.546 0.042 6.96 1.84 11.43
11/2/2022 2:15:00 PM 12.04 53.672 0.042 6.95 1.87 11.41
11/2/2022 2:30:00 PM 12.07 53.726 0.042 7 1.76 11.37
11/2/2022 2:45:00 PM 12.1 53.78 0.042 7 1.76 11.35
11/2/2022 3:00:00 PM 12.1 53.78 0.042 6.96 1.8 11.34
11/2/2022 3:15:00 PM 12.08 53.744 0.042 6.95 1.77 11.32
11/2/2022 3:30:00 PM 12.05 53.69 0.042 6.99 1.82 11.31
11/2/2022 3:45:00 PM 12 53.6 0.042 6.97 1.73 11.3
11/2/2022 4:00:00 PM 11.94 53.492 0.042 6.93 1.73 11.27
11/2/2022 4:15:00 PM 11.87 53.366 0.042 6.93 1.77 11.26
11/2/2022 4:30:00 PM 11.8 53.24 0.042 6.94 1.84 11.23
11/2/2022 4:45:00 PM 11.73 53.114 0.042 6.9 1.71 11.19
11/2/2022 5:00:00 PM 11.64 52.952 0.042 6.88 1.71 11.15
11/2/2022 5:15:00 PM 11.56 52.808 0.042 6.88 1.67 11.12
11/2/2022 5:30:00 PM 11.47 52.646 0.043 6.83 1.76 11.05
11/2/2022 5:45:00 PM 11.38 52.484 0.043 6.84 1.77 10.99
11/2/2022 6:00:00 PM 11.29 52.322 0.043 6.78 1.72 10.93
11/2/2022 6:15:00 PM 11.21 52.178 0.043 6.76 1.72 10.89
11/2/2022 6:30:00 PM 11.14 52.052 0.043 6.76 1.73 10.84
11/2/2022 6:45:00 PM 11.08 51.944 0.043 6.74 1.8 10.83
11/2/2022 7:00:00 PM 11.02 51.836 0.043 6.78 1.7 10.82
11/2/2022 7:15:00 PM 10.97 51.746 0.043 6.73 1.77 10.81
11/2/2022 7:30:00 PM 10.92 51.656 0.043 6.77 1.75 10.82
11/2/2022 7:45:00 PM 10.88 51.584 0.043 6.71 1.73 10.82
11/2/2022 8:00:00 PM 10.84 51.512 0.043 6.72 1.75 10.82
11/2/2022 8:15:00 PM 10.8 51.44 0.043 6.72 1.72 10.84
11/2/2022 8:30:00 PM 10.76 51.368 0.043 6.74 2.03 10.83
11/2/2022 8:45:00 PM 10.72 51.296 0.043 6.69 1.85 10.85
11/2/2022 9:00:00 PM 10.68 51.224 0.043 6.69 1.78 10.86
11/2/2022 9:15:00 PM 10.64 51.152 0.043 6.69 1.84 10.88
11/2/2022 9:30:00 PM 10.6 51.08 0.043 6.66 1.75 10.87
11/2/2022 9:45:00 PM 10.56 51.008 0.043 6.73 1.75 10.89
11/2/2022 10:00:00 PM 10.51 50.918 0.043 6.74 1.73 10.92
11/2/2022 10:15:00 PM 10.47 50.846 0.043 6.69 1.84 10.93
11/2/2022 10:30:00 PM 10.42 50.756 0.044 6.68 1.85 10.93
11/2/2022 10:45:00 PM 10.37 50.666 0.043 6.68 1.77 10.94
11/2/2022 11:00:00 PM 10.32 50.576 0.043 6.67 1.77 10.97
11/2/2022 11:15:00 PM 10.28 50.504 0.043 6.7 1.81 10.98
11/2/2022 11:30:00 PM 10.23 50.414 0.043 6.7 1.76 10.99
11/2/2022 11:45:00 PM 10.18 50.324 0.043 6.69 1.74 11.01
11/3/2022 12:00:00 AM 10.14 50.252 0.043 6.71 1.68 11.02
11/3/2022 12:15:00 AM 10.09 50.162 0.043 6.69 1.78 11.02
11/3/2022 12:30:00 AM 10.04 50.072 0.043 6.74 1.73 11.05
11/3/2022 12:45:00 AM 10 50 0.043 6.68 1.78 11.06
11/3/2022 1:00:00 AM 9.95 49.91 0.043 6.68 1.86 11.08
11/3/2022 1:15:00 AM 9.9 49.82 0.043 6.67 1.74 11.08
11/3/2022 1:30:00 AM 9.85 49.73 0.043 6.68 1.81 11.1
11/3/2022 1:45:00 AM 9.8 49.64 0.043 6.71 1.78 11.12
11/3/2022 2:00:00 AM 9.75 49.55 0.043 6.68 1.78 11.13
11/3/2022 2:15:00 AM 9.7 49.46 0.043 6.72 1.83 11.14
11/3/2022 2:30:00 AM 9.66 49.388 0.043 6.66 1.7 11.17
11/3/2022 2:45:00 AM 9.61 49.298 0.043 6.67 1.75 11.18
11/3/2022 3:00:00 AM 9.56 49.208 0.043 6.66 1.74 11.2
11/3/2022 3:15:00 AM 9.51 49.118 0.043 6.7 1.76 11.21
11/3/2022 3:30:00 AM 9.46 49.028 0.043 6.68 1.81 11.22
11/3/2022 3:45:00 AM 9.41 48.938 0.043 6.69 1.76 11.24
11/3/2022 4:00:00 AM 9.36 48.848 0.043 6.71 1.9 11.25
11/3/2022 4:15:00 AM 9.32 48.776 0.043 6.7 1.73 11.27
11/3/2022 4:30:00 AM 9.27 48.686 0.043 6.7 1.87 11.28
11/3/2022 4:45:00 AM 9.22 48.596 0.043 6.67 1.76 11.28
11/3/2022 5:00:00 AM 9.17 48.506 0.043 6.71 1.73 11.31
11/3/2022 5:15:00 AM 9.13 48.434 0.043 6.72 1.73 11.31
11/3/2022 5:30:00 AM 9.09 48.362 0.043 6.72 1.78 11.33
11/3/2022 5:45:00 AM 9.05 48.29 0.043 6.73 1.75 11.35
11/3/2022 6:00:00 AM 9.01 48.218 0.044 6.7 1.78 11.36
11/3/2022 6:15:00 AM 8.96 48.128 0.043 6.67 1.78 11.38
11/3/2022 6:30:00 AM 8.92 48.056 0.043 6.67 1.71 11.39
11/3/2022 6:45:00 AM 8.87 47.966 0.043 6.67 1.78 11.4
11/3/2022 7:00:00 AM 8.82 47.876 0.044 6.68 1.73 11.42
11/3/2022 7:15:00 AM 8.78 47.804 0.043 6.69 1.78 11.44
11/3/2022 7:30:00 AM 8.75 47.75 0.043 6.68 1.78 11.46
11/3/2022 7:45:00 AM 8.71 47.678 0.043 6.67 1.85 11.48
11/3/2022 8:00:00 AM 8.68 47.624 0.043 6.68 1.78 11.53
11/3/2022 8:15:00 AM 8.65 47.57 0.043 6.71 1.79 11.63
11/3/2022 8:30:00 AM 8.63 47.534 0.043 6.7 1.76 11.72
11/3/2022 8:45:00 AM 8.61 47.498 0.043 6.73 1.73 11.79
11/3/2022 9:00:00 AM 8.57 47.426 0.043 6.72 1.68 11.87
11/3/2022 9:15:00 AM 8.56 47.408 0.043 6.77 1.76 11.93
11/3/2022 9:30:00 AM 8.54 47.372 0.043 6.73 1.77 11.97
11/3/2022 9:45:00 AM 8.54 47.372 0.043 6.77 1.8 12.01
11/3/2022 10:00:00 AM 8.55 47.39 0.042 6.81 1.69 12.04
11/3/2022 10:15:00 AM 8.57 47.426 0.042 6.77 1.67 12.07
11/3/2022 10:30:00 AM 8.61 47.498 0.042 6.79 1.74 12.09
11/3/2022 10:45:00 AM 8.66 47.588 0.042 6.78 1.71 12.1
11/3/2022 11:00:00 AM 8.73 47.714 0.042 6.8 1.69 12.12
11/3/2022 11:15:00 AM 8.83 47.894 0.042 6.82 1.64 12.11
11/3/2022 11:30:00 AM 8.94 48.092 0.042 6.83 1.7 12.11
11/3/2022 11:45:00 AM 9.11 48.398 0.042 6.86 1.76 12.1
11/3/2022 12:00:00 PM 9.3 48.74 0.042 6.86 1.74 12.09
11/3/2022 12:15:00 PM 9.51 49.118 0.042 6.89 1.66 12.06
11/3/2022 12:30:00 PM 9.74 49.532 0.042 6.88 1.63 12.02
11/3/2022 12:45:00 PM 9.96 49.928 0.042 6.91 1.67 11.98
11/3/2022 1:00:00 PM 10.17 50.306 0.042 6.91 1.66 11.93
11/3/2022 1:15:00 PM 10.38 50.684 0.042 6.93 1.63 11.88
11/3/2022 1:30:00 PM 10.56 51.008 0.042 6.93 1.67 11.84
11/3/2022 1:45:00 PM 10.72 51.296 0.042 6.93 1.66 11.79
11/3/2022 2:00:00 PM 10.84 51.512 0.042 6.92 1.65 11.76
11/3/2022 2:15:00 PM 10.93 51.674 0.042 6.98 1.63 11.72
11/3/2022 2:30:00 PM 10.99 51.782 0.042 6.93 1.62 11.69
11/3/2022 2:45:00 PM 11.03 51.854 0.042 6.96 1.65 11.66
11/3/2022 3:00:00 PM 11.05 51.89 0.042 6.93 1.64 11.64
11/3/2022 3:15:00 PM 11.05 51.89 0.042 6.98 1.66 11.62
11/3/2022 3:30:00 PM 11.02 51.836 0.042 6.92 1.64 11.61
11/3/2022 3:45:00 PM 10.99 51.782 0.042 6.94 1.62 11.58
11/3/2022 4:00:00 PM 10.93 51.674 0.042 6.96 1.67 11.57
11/3/2022 4:15:00 PM 10.87 51.566 0.042 6.92 1.66 11.54
11/3/2022 4:30:00 PM 10.81 51.458 0.042 6.95 2.01 11.5
11/3/2022 4:45:00 PM 10.73 51.314 0.042 6.93 1.79 11.48
11/3/2022 5:00:00 PM 10.66 51.188 0.042 6.92 1.65 11.43
11/3/2022 5:15:00 PM 10.59 51.062 0.042 6.86 1.65 11.39
11/3/2022 5:30:00 PM 10.5 50.9 0.042 6.86 1.78 11.32
11/3/2022 5:45:00 PM 10.41 50.738 0.042 6.84 1.64 11.29
11/3/2022 6:00:00 PM 10.32 50.576 0.042 6.81 1.81 11.23
11/3/2022 6:15:00 PM 10.22 50.396 0.042 6.79 1.77 11.18
11/3/2022 6:30:00 PM 10.15 50.27 0.043 6.8 1.75 11.15
11/3/2022 6:45:00 PM 10.07 50.126 0.043 6.79 1.72 11.13
11/3/2022 7:00:00 PM 10.01 50.018 0.043 6.76 1.74 11.11
11/3/2022 7:15:00 PM 9.95 49.91 0.043 6.74 1.69 11.11
11/3/2022 7:30:00 PM 9.89 49.802 0.043 6.74 1.77 11.11
11/3/2022 7:45:00 PM 9.85 49.73 0.043 6.74 1.69 11.12
11/3/2022 8:00:00 PM 9.82 49.676 0.043 6.76 1.74 11.12
11/3/2022 8:15:00 PM 9.79 49.622 0.043 6.76 1.68 11.12
11/3/2022 8:30:00 PM 9.75 49.55 0.043 6.71 1.75 11.12
11/3/2022 8:45:00 PM 9.72 49.496 0.043 6.7 1.84 11.1
11/3/2022 9:00:00 PM 9.7 49.46 0.043 6.72 1.7 11.13
11/3/2022 9:15:00 PM 9.67 49.406 0.043 6.71 1.74 11.14
11/3/2022 9:30:00 PM 9.64 49.352 0.043 6.7 1.76 11.15
11/3/2022 9:45:00 PM 9.61 49.298 0.043 6.69 1.66 11.15
11/3/2022 10:00:00 PM 9.57 49.226 0.043 6.74 1.7 11.17
11/3/2022 10:15:00 PM 9.54 49.172 0.043 6.74 1.7 11.17
11/3/2022 10:30:00 PM 9.5 49.1 0.043 6.73 1.75 11.2
11/3/2022 10:45:00 PM 9.47 49.046 0.043 6.74 2.52 11.21
11/3/2022 11:00:00 PM 9.43 48.974 0.043 6.74 1.7 11.22
11/3/2022 11:15:00 PM 9.39 48.902 0.043 6.7 1.88 11.23
11/3/2022 11:30:00 PM 9.35 48.83 0.043 6.67 1.69 11.24
11/3/2022 11:45:00 PM 9.31 48.758 0.043 6.74 1.67 11.24
11/4/2022 12:00:00 AM 9.27 48.686 0.043 6.69 1.7 11.26
11/4/2022 12:15:00 AM 9.23 48.614 0.043 6.68 1.72 11.27
11/4/2022 12:30:00 AM 9.19 48.542 0.043 6.69 1.73 11.28
11/4/2022 12:45:00 AM 9.15 48.47 0.043 6.71 1.79 11.29
11/4/2022 1:00:00 AM 9.11 48.398 0.043 6.73 1.71 11.31
11/4/2022 1:15:00 AM 9.07 48.326 0.043 6.71 1.81 11.32
11/4/2022 1:30:00 AM 9.03 48.254 0.043 6.69 1.68 11.32
11/4/2022 1:45:00 AM 8.99 48.182 0.043 6.69 1.71 11.34
11/4/2022 2:00:00 AM 8.95 48.11 0.043 6.74 1.77 11.36
11/4/2022 2:15:00 AM 8.91 48.038 0.043 6.7 1.71 11.37
11/4/2022 2:30:00 AM 8.87 47.966 0.043 6.71 1.8 11.38
11/4/2022 2:45:00 AM 8.83 47.894 0.043 6.74 1.71 11.39
11/4/2022 3:00:00 AM 8.79 47.822 0.043 6.71 1.71 11.4
11/4/2022 3:15:00 AM 8.75 47.75 0.043 6.71 1.75 11.41
11/4/2022 3:30:00 AM 8.71 47.678 0.043 6.69 1.75 11.42
11/4/2022 3:45:00 AM 8.67 47.606 0.043 6.71 1.8 11.43
11/4/2022 4:00:00 AM 8.63 47.534 0.043 6.69 1.78 11.45
11/4/2022 4:15:00 AM 8.59 47.462 0.043 6.69 1.72 11.46
11/4/2022 4:30:00 AM 8.56 47.408 0.043 6.73 1.73 11.48
11/4/2022 4:45:00 AM 8.53 47.354 0.043 6.73 1.74 11.49
11/4/2022 5:00:00 AM 8.49 47.282 0.043 6.68 1.72 11.5
11/4/2022 5:15:00 AM 8.46 47.228 0.043 6.68 1.75 11.51
11/4/2022 5:30:00 AM 8.43 47.174 0.043 6.7 1.73 11.52
11/4/2022 5:45:00 AM 8.39 47.102 0.043 6.69 1.82 11.54
11/4/2022 6:00:00 AM 8.36 47.048 0.043 6.7 1.8 11.54
11/4/2022 6:15:00 AM 8.33 46.994 0.043 6.73 2.17 11.55
11/4/2022 6:30:00 AM 8.29 46.922 0.043 6.74 1.81 11.56
11/4/2022 6:45:00 AM 8.26 46.868 0.043 6.71 1.89 11.58
11/4/2022 7:00:00 AM 8.23 46.814 0.043 6.7 1.83 11.6
11/4/2022 7:15:00 AM 8.2 46.76 0.043 6.69 1.79 11.61
11/4/2022 7:30:00 AM 8.17 46.706 0.043 6.69 1.94 11.61
11/4/2022 7:45:00 AM 8.14 46.652 0.043 6.73 1.76 11.65
11/4/2022 8:00:00 AM 8.13 46.634 0.043 6.69 1.72 11.72
11/4/2022 8:15:00 AM 8.12 46.616 0.043 6.71 1.7 11.82
11/4/2022 8:30:00 AM 8.12 46.616 0.043 6.73 1.66 11.93
11/4/2022 8:45:00 AM 8.14 46.652 0.043 6.73 1.79 12.02
11/4/2022 9:00:00 AM 8.15 46.67 0.043 6.75 1.65 12.08
11/4/2022 9:15:00 AM 8.17 46.706 0.043 6.81 1.78 12.14
11/4/2022 9:30:00 AM 8.2 46.76 0.043 6.82 2.02 12.17
11/4/2022 9:45:00 AM 8.24 46.832 0.043 6.79 1.77 12.21
11/4/2022 10:00:00 AM 8.29 46.922 0.043 6.81 1.57 12.24
11/4/2022 10:15:00 AM 8.36 47.048 0.043 6.82 1.6 12.25
11/4/2022 10:30:00 AM 8.44 47.192 0.042 6.88 1.54 12.26
11/4/2022 10:45:00 AM 8.56 47.408 0.042 6.86 1.52 12.27
11/4/2022 11:00:00 AM 8.68 47.624 0.042 6.87 1.55 12.26
11/4/2022 11:15:00 AM 8.79 47.822 0.042 6.87 1.53 12.23
11/4/2022 11:30:00 AM 8.93 48.074 0.042 6.9 1.46 12.21
11/4/2022 11:45:00 AM 9.1 48.38 0.042 6.92 1.44 12.19
11/4/2022 12:00:00 PM 9.29 48.722 0.042 6.94 1.46 12.17
11/4/2022 12:15:00 PM 9.49 49.082 0.042 6.94 1.43 12.13
11/4/2022 12:30:00 PM 9.69 49.442 0.042 6.92 1.46 12.09
11/4/2022 12:45:00 PM 9.86 49.748 0.042 6.93 1.43 12.05
11/4/2022 1:00:00 PM 9.96 49.928 0.042 6.93 1.39 12
11/4/2022 1:15:00 PM 10.09 50.162 0.042 6.95 3.2 11.96
11/4/2022 1:30:00 PM 10.24 50.432 0.042 6.94 1.47 11.94
11/4/2022 1:45:00 PM 10.38 50.684 0.041 6.96 1.44 11.9
11/4/2022 2:00:00 PM 10.6 51.08 0.041 6.95 1.47 11.87
11/4/2022 2:15:00 PM 10.78 51.404 0.041 6.97 1.4 11.82
11/4/2022 2:30:00 PM 10.9 51.62 0.041 7 1.44 11.79
11/4/2022 2:45:00 PM 11 51.8 0.042 6.99 1.37 11.76
11/4/2022 3:00:00 PM 11.07 51.926 0.041 7.01 1.4 11.73
11/4/2022 3:15:00 PM 11.1 51.98 0.042 6.99 1.39 11.69
11/4/2022 3:30:00 PM 11.11 51.998 0.042 6.95 1.36 11.66
11/4/2022 3:45:00 PM 11.11 51.998 0.041 6.99 1.41 11.63
11/4/2022 4:00:00 PM 11.11 51.998 0.042 6.95 1.38 11.61
11/4/2022 4:15:00 PM 11.08 51.944 0.042 6.94 1.39 11.58
11/4/2022 4:30:00 PM 11.07 51.926 0.041 6.96 1.7 11.55
11/4/2022 4:45:00 PM 11.07 51.926 0.042 6.94 1.42 11.52
11/4/2022 5:00:00 PM 11.05 51.89 0.042 6.91 1.45 11.45
11/4/2022 5:15:00 PM 11.03 51.854 0.042 6.93 1.45 11.37
11/4/2022 5:30:00 PM 11.01 51.818 0.042 6.9 1.48 11.33
11/4/2022 5:45:00 PM 10.97 51.746 0.042 6.88 1.43 11.22
11/4/2022 6:00:00 PM 10.91 51.638 0.042 6.84 1.58 11.11
11/4/2022 6:15:00 PM 10.86 51.548 0.042 6.81 1.4 11.02
11/4/2022 6:30:00 PM 10.82 51.476 0.042 6.8 1.46 10.96
11/4/2022 6:45:00 PM 10.77 51.386 0.043 6.77 1.48 10.93
11/4/2022 7:00:00 PM 10.74 51.332 0.043 6.75 1.43 10.9
11/4/2022 7:15:00 PM 10.71 51.278 0.043 6.8 1.49 10.88
11/4/2022 7:30:00 PM 10.68 51.224 0.043 6.79 1.48 10.87
11/4/2022 7:45:00 PM 10.66 51.188 0.043 6.76 1.5 10.87
11/4/2022 8:00:00 PM 10.63 51.134 0.043 6.76 1.42 10.86
11/4/2022 8:15:00 PM 10.6 51.08 0.043 6.74 1.46 10.86
11/4/2022 8:30:00 PM 10.58 51.044 0.043 6.73 1.43 10.87
11/4/2022 8:45:00 PM 10.56 51.008 0.043 6.75 1.42 10.87
11/4/2022 9:00:00 PM 10.55 50.99 0.043 6.72 1.45 10.86
11/4/2022 9:15:00 PM 10.54 50.972 0.043 6.75 1.42 10.87
11/4/2022 9:30:00 PM 10.52 50.936 0.043 6.7 1.4 10.86
11/4/2022 9:45:00 PM 10.51 50.918 0.043 6.68 1.49 10.87
11/4/2022 10:00:00 PM 10.51 50.918 0.043 6.75 1.43 10.87
11/4/2022 10:15:00 PM 10.53 50.954 0.043 6.7 1.47 10.87
11/4/2022 10:30:00 PM 10.54 50.972 0.043 6.71 1.46 10.88
11/4/2022 10:45:00 PM 10.54 50.972 0.043 6.73 1.5 10.86
11/4/2022 11:00:00 PM 10.55 50.99 0.043 6.72 1.46 10.85
11/4/2022 11:15:00 PM 10.56 51.008 0.043 6.71 2.45 10.85
11/4/2022 11:30:00 PM 10.56 51.008 0.043 6.71 1.4 10.87
11/4/2022 11:45:00 PM 10.56 51.008 0.043 6.69 1.53 10.86
11/5/2022 12:00:00 AM 10.55 50.99 0.043 6.66 1.54 10.86
11/5/2022 12:15:00 AM 10.53 50.954 0.043 6.68 1.43 10.86
11/5/2022 12:30:00 AM 10.52 50.936 0.043 6.7 1.5 10.87
11/5/2022 12:45:00 AM 10.51 50.918 0.043 6.71 1.41 10.87
11/5/2022 1:00:00 AM 10.52 50.936 0.043 6.71 1.45 10.86
11/5/2022 1:15:00 AM 10.54 50.972 0.044 6.7 1.41 10.86
11/5/2022 1:30:00 AM 10.56 51.008 0.043 6.74 1.43 10.85
11/5/2022 1:45:00 AM 10.59 51.062 0.043 6.7 1.47 10.84
11/5/2022 2:00:00 AM 10.62 51.116 0.043 6.68 1.4 10.84
11/5/2022 2:15:00 AM 10.64 51.152 0.043 6.68 1.45 10.83
11/5/2022 2:30:00 AM 10.66 51.188 0.043 6.73 1.47 10.84
11/5/2022 2:45:00 AM 10.68 51.224 0.043 6.69 1.36 10.81
11/5/2022 3:00:00 AM 10.7 51.26 0.043 6.71 1.41 10.82
11/5/2022 3:15:00 AM 10.73 51.314 0.043 6.72 1.43 10.82
11/5/2022 3:30:00 AM 10.76 51.368 0.043 6.75 1.51 10.81
11/5/2022 3:45:00 AM 10.78 51.404 0.043 6.72 1.48 10.8
11/5/2022 4:00:00 AM 10.8 51.44 0.043 6.73 1.49 10.79
11/5/2022 4:15:00 AM 10.81 51.458 0.044 6.75 1.48 10.8
11/5/2022 4:30:00 AM 10.82 51.476 0.044 6.7 1.47 10.79
11/5/2022 4:45:00 AM 10.84 51.512 0.043 6.68 1.47 10.78
11/5/2022 5:00:00 AM 10.85 51.53 0.043 6.68 1.48 10.77
11/5/2022 5:15:00 AM 10.86 51.548 0.043 6.72 1.45 10.78
11/5/2022 5:30:00 AM 10.87 51.566 0.044 6.67 1.41 10.78
11/5/2022 5:45:00 AM 10.88 51.584 0.043 6.67 1.47 10.78
11/5/2022 6:00:00 AM 10.88 51.584 0.043 6.7 1.4 10.78
11/5/2022 6:15:00 AM 10.88 51.584 0.043 6.67 1.45 10.77
11/5/2022 6:30:00 AM 10.89 51.602 0.044 6.72 1.51 10.77
11/5/2022 6:45:00 AM 10.89 51.602 0.043 6.67 1.46 10.77
11/5/2022 7:00:00 AM 10.89 51.602 0.043 6.71 1.48 10.77
11/5/2022 7:15:00 AM 10.89 51.602 0.043 6.68 1.43 10.77
11/5/2022 7:30:00 AM 10.89 51.602 0.043 6.72 1.4 10.75
11/5/2022 7:45:00 AM 10.89 51.602 0.043 6.69 1.44 10.77
11/5/2022 8:00:00 AM 10.89 51.602 0.043 6.68 1.44 10.78
11/5/2022 8:15:00 AM 10.9 51.62 0.043 6.72 1.47 10.81
11/5/2022 8:30:00 AM 10.91 51.638 0.043 6.7 1.52 10.86
11/5/2022 8:45:00 AM 10.92 51.656 0.043 6.73 1.87 10.96
11/5/2022 9:00:00 AM 10.94 51.692 0.043 6.71 1.46 10.99
11/5/2022 9:15:00 AM 10.96 51.728 0.043 6.72 1.39 11.01
11/5/2022 9:30:00 AM 10.99 51.782 0.043 6.72 1.4 11.02
11/5/2022 9:45:00 AM 11.03 51.854 0.043 6.73 1.43 11.12
11/5/2022 10:00:00 AM 11.09 51.962 0.043 6.74 1.51 11.21
11/5/2022 10:15:00 AM 11.15 52.07 0.043 6.78 1.46 11.27
11/5/2022 10:30:00 AM 11.2 52.16 0.043 6.85 1.38 11.27
11/5/2022 10:45:00 AM 11.31 52.358 0.043 6.81 1.39 11.37
11/5/2022 11:00:00 AM 11.4 52.52 0.043 6.83 1.39 11.38
11/5/2022 11:15:00 AM 11.48 52.664 0.043 6.92 1.47 11.39
11/5/2022 11:30:00 AM 11.54 52.772 0.043 6.88 1.39 11.41
11/5/2022 11:45:00 AM 11.63 52.934 0.043 6.91 1.34 11.4
11/5/2022 12:00:00 PM 11.71 53.078 0.043 6.94 1.39 11.42
11/5/2022 12:15:00 PM 11.8 53.24 0.043 6.94 1.43 11.41
11/5/2022 12:30:00 PM 11.93 53.474 0.043 6.99 1.37 11.44
11/5/2022 12:45:00 PM 12.03 53.654 0.043 6.95 1.41 11.42
11/5/2022 1:00:00 PM 12.11 53.798 0.043 6.98 1.38 11.42
11/5/2022 1:15:00 PM 12.2 53.96 0.043 6.99 1.48 11.4
11/5/2022 1:30:00 PM 12.31 54.158 0.042 7.03 1.34 11.38
11/5/2022 1:45:00 PM 12.38 54.284 0.042 6.97 1.37 11.34
11/5/2022 2:00:00 PM 12.41 54.338 0.042 6.97 1.37 11.28
11/5/2022 2:15:00 PM 12.44 54.392 0.042 6.96 1.4 11.22
11/5/2022 2:30:00 PM 12.47 54.446 0.042 6.95 1.39 11.13
11/5/2022 2:45:00 PM 12.49 54.482 0.043 6.94 1.42 11.02
11/5/2022 3:00:00 PM 12.51 54.518 0.042 6.95 1.49 10.96
11/5/2022 3:15:00 PM 12.54 54.572 0.042 6.9 1.44 10.97
11/5/2022 3:30:00 PM 12.57 54.626 0.042 6.91 1.4 11
11/5/2022 3:45:00 PM 12.59 54.662 0.042 6.9 1.37 10.93
11/5/2022 4:00:00 PM 12.59 54.662 0.043 6.89 1.42 10.85
11/5/2022 4:15:00 PM 12.61 54.698 0.043 6.89 1.37 10.78
11/5/2022 4:30:00 PM 12.61 54.698 0.043 6.89 1.42 10.75
11/5/2022 4:45:00 PM 12.63 54.734 0.043 6.85 1.39 10.74
11/5/2022 5:00:00 PM 12.63 54.734 0.043 6.9 1.4 10.75
11/5/2022 5:15:00 PM 12.63 54.734 0.043 6.85 1.36 10.71
11/5/2022 5:30:00 PM 12.63 54.734 0.043 6.83 1.47 10.65
11/5/2022 5:45:00 PM 12.61 54.698 0.043 6.87 1.39 10.57
11/5/2022 6:00:00 PM 12.59 54.662 0.043 6.8 1.46 10.5
11/5/2022 6:15:00 PM 12.59 54.662 0.043 6.78 1.39 10.44
11/5/2022 6:30:00 PM 12.58 54.644 0.043 6.79 1.44 10.36
11/5/2022 6:45:00 PM 12.57 54.626 0.043 6.82 1.41 10.35
11/5/2022 7:00:00 PM 12.56 54.608 0.044 6.75 1.36 10.32
11/5/2022 7:15:00 PM 12.56 54.608 0.044 6.77 1.41 10.32
11/5/2022 7:30:00 PM 12.55 54.59 0.044 6.76 1.45 10.3
11/5/2022 7:45:00 PM 12.54 54.572 0.044 6.79 1.53 10.3
11/5/2022 8:00:00 PM 12.54 54.572 0.044 6.78 1.53 10.29
11/5/2022 8:15:00 PM 12.56 54.608 0.044 6.75 1.46 10.29
11/5/2022 8:30:00 PM 12.56 54.608 0.043 6.74 1.41 10.29
11/5/2022 8:45:00 PM 12.58 54.644 0.044 6.75 1.42 10.28
11/5/2022 9:00:00 PM 12.6 54.68 0.044 6.75 1.52 10.27
11/5/2022 9:15:00 PM 12.61 54.698 0.044 6.76 1.49 10.27
11/5/2022 9:30:00 PM 12.61 54.698 0.044 6.73 1.44 10.27
11/5/2022 9:45:00 PM 12.61 54.698 0.044 6.77 1.42 10.27
11/5/2022 10:00:00 PM 12.61 54.698 0.044 6.74 1.5 10.27
11/5/2022 10:15:00 PM 12.62 54.716 0.044 6.72 1.48 10.27
11/5/2022 10:30:00 PM 12.62 54.716 0.044 6.74 1.48 10.26
11/5/2022 10:45:00 PM 12.63 54.734 0.044 6.72 1.45 10.25
11/5/2022 11:00:00 PM 12.65 54.77 0.044 6.71 1.48 10.25
11/5/2022 11:15:00 PM 12.68 54.824 0.044 6.74 1.49 10.25
11/5/2022 11:30:00 PM 12.7 54.86 0.044 6.7 1.47 10.24
11/5/2022 11:45:00 PM 12.71 54.878 0.044 6.71 1.47 10.24
11/6/2022 12:00:00 AM 12.71 54.878 0.044 6.71 1.4 10.24
11/6/2022 12:15:00 AM 12.72 54.896 0.044 6.73 1.43 10.24
11/6/2022 12:30:00 AM 12.75 54.95 0.044 6.73 1.42 10.23
11/6/2022 12:45:00 AM 12.76 54.968 0.044 6.76 1.44 10.23
11/6/2022 1:00:00 AM 12.77 54.986 0.044 6.73 1.45 10.22
11/6/2022 1:15:00 AM 12.78 55.004 0.044 6.74 1.48 10.22
11/6/2022 1:30:00 AM 12.8 55.04 0.044 6.71 1.53 10.21
11/6/2022 1:45:00 AM 12.81 55.058 0.044 6.71 1.49 10.21
11/6/2022 2:00:00 AM 12.82 55.076 0.044 6.72 1.41 10.21
11/6/2022 2:15:00 AM 12.84 55.112 0.044 6.77 1.48 10.21
11/6/2022 2:30:00 AM 12.88 55.184 0.044 6.71 1.49 10.19
11/6/2022 2:45:00 AM 12.9 55.22 0.044 6.69 1.46 10.19
11/6/2022 3:00:00 AM 12.9 55.22 0.044 6.69 1.5 10.18
11/6/2022 3:15:00 AM 12.9 55.22 0.044 6.58 1.43 10.19
11/6/2022 3:30:00 AM 12.89 55.202 0.044 6.74 1.45 10.19
11/6/2022 3:45:00 AM 12.9 55.22 0.044 6.71 1.56 10.19
11/6/2022 4:00:00 AM 12.9 55.22 0.044 6.71 1.45 10.18
11/6/2022 4:15:00 AM 12.91 55.238 0.044 6.72 1.58 10.19
11/6/2022 4:30:00 AM 12.93 55.274 0.044 6.77 1.43 10.18
11/6/2022 4:45:00 AM 12.95 55.31 0.044 6.72 1.47 10.17
11/6/2022 5:00:00 AM 12.96 55.328 0.044 6.72 1.45 10.18
11/6/2022 5:15:00 AM 12.99 55.382 0.044 6.72 1.48 10.17
11/6/2022 5:30:00 AM 13 55.4 0.044 6.73 1.53 10.17
11/6/2022 5:45:00 AM 13.02 55.436 0.044 6.71 1.49 10.16
11/6/2022 6:00:00 AM 13.02 55.436 0.044 6.73 1.48 10.17
11/6/2022 6:15:00 AM 13.03 55.454 0.044 6.7 1.47 10.17
11/6/2022 6:30:00 AM 13.04 55.472 0.044 6.72 1.48 10.16
11/6/2022 6:45:00 AM 13.05 55.49 0.044 6.77 1.49 10.17
11/6/2022 7:00:00 AM 13.05 55.49 0.044 6.73 1.48 10.16
11/6/2022 7:15:00 AM 13.05 55.49 0.044 6.76 1.46 10.15
11/6/2022 7:30:00 AM 13.04 55.472 0.044 6.72 1.45 10.17
11/6/2022 7:45:00 AM 13.05 55.49 0.044 6.71 1.52 10.17
11/6/2022 8:00:00 AM 13.05 55.49 0.044 6.7 1.53 10.18
11/6/2022 8:15:00 AM 13.06 55.508 0.044 6.7 1.47 10.19
11/6/2022 8:30:00 AM 13.07 55.526 0.044 6.7 1.45 10.21
11/6/2022 8:45:00 AM 13.06 55.508 0.044 6.77 1.43 10.24
11/6/2022 9:00:00 AM 13.06 55.508 0.043 6.73 1.54 10.27
11/6/2022 9:15:00 AM 13.07 55.526 0.044 6.73 1.54 10.31
11/6/2022 9:30:00 AM 13.08 55.544 0.043 6.75 1.53 10.35
11/6/2022 9:45:00 AM 13.08 55.544 0.043 6.75 1.45 10.38
11/6/2022 10:00:00 AM 13.09 55.562 0.043 6.79 1.5 10.41
11/6/2022 10:15:00 AM 13.11 55.598 0.043 6.75 1.43 10.43
11/6/2022 10:30:00 AM 13.11 55.598 0.043 6.8 1.49 10.45
11/6/2022 10:45:00 AM 13.13 55.634 0.043 6.79 1.47 10.53
11/6/2022 11:00:00 AM 13.15 55.67 0.043 6.79 1.48 10.63
11/6/2022 11:15:00 AM 13.18 55.724 0.043 6.86 1.51 10.68
11/6/2022 11:30:00 AM 13.2 55.76 0.043 6.84 1.43 10.75
11/6/2022 11:45:00 AM 13.22 55.796 0.043 6.85 1.39 10.77
11/6/2022 12:00:00 PM 13.23 55.814 0.043 6.84 1.42 10.73
11/6/2022 12:15:00 PM 13.24 55.832 0.043 6.83 1.45 10.72
11/6/2022 12:30:00 PM 13.28 55.904 0.043 6.84 1.52 10.63
11/6/2022 12:45:00 PM 13.28 55.904 0.043 6.8 1.41 10.63
11/6/2022 1:00:00 PM 13.28 55.904 0.043 6.84 1.42 10.63
11/6/2022 1:15:00 PM 13.29 55.922 0.043 6.87 1.44 10.67
11/6/2022 1:30:00 PM 13.32 55.976 0.043 6.84 1.52 10.74
11/6/2022 1:45:00 PM 13.36 56.048 0.042 6.86 1.56 10.82
11/6/2022 2:00:00 PM 13.41 56.138 0.042 6.87 1.44 10.87
11/6/2022 2:15:00 PM 13.46 56.228 0.042 6.92 1.4 10.87
11/6/2022 2:30:00 PM 13.5 56.3 0.042 6.9 1.48 10.86
11/6/2022 2:45:00 PM 13.52 56.336 0.042 6.9 1.45 10.84
11/6/2022 3:00:00 PM 13.55 56.39 0.042 6.97 1.43 10.84
11/6/2022 3:15:00 PM 13.59 56.462 0.042 6.93 1.6 10.86
11/6/2022 3:30:00 PM 13.6 56.48 0.042 6.92 1.46 10.79
11/6/2022 3:45:00 PM 13.6 56.48 0.042 6.89 1.42 10.65
11/6/2022 4:00:00 PM 13.61 56.498 0.042 6.86 1.46 10.56
11/6/2022 4:15:00 PM 13.62 56.516 0.042 6.91 1.44 10.5
11/6/2022 4:30:00 PM 13.61 56.498 0.042 6.87 1.41 10.46
11/6/2022 4:45:00 PM 13.61 56.498 0.043 6.82 1.47 10.36
11/6/2022 5:00:00 PM 13.59 56.462 0.042 6.79 1.44 10.27
11/6/2022 5:15:00 PM 13.58 56.444 0.043 6.78 1.43 10.2
11/6/2022 5:30:00 PM 13.56 56.408 0.043 6.81 1.48 10.16
11/6/2022 5:45:00 PM 13.54 56.372 0.043 6.74 1.47 10.11
11/6/2022 6:00:00 PM 13.54 56.372 0.043 6.75 1.7 10.1
11/6/2022 6:15:00 PM 13.54 56.372 0.043 6.73 1.49 10.09
11/6/2022 6:30:00 PM 13.53 56.354 0.043 6.72 1.53 10.06
11/6/2022 6:45:00 PM 13.53 56.354 0.043 6.71 1.5 10.07
11/6/2022 7:00:00 PM 13.54 56.372 0.043 6.7 1.59 10.06
11/6/2022 7:15:00 PM 13.54 56.372 0.042 6.68 1.46 10.06
11/6/2022 7:30:00 PM 13.54 56.372 0.042 6.71 1.47 10.06
11/6/2022 7:45:00 PM 13.54 56.372 0.042 6.72 1.49 10.05
11/6/2022 8:00:00 PM 13.54 56.372 0.042 6.7 1.49 10.05
11/6/2022 8:15:00 PM 13.54 56.372 0.042 6.7 1.48 10.05
11/6/2022 8:30:00 PM 13.54 56.372 0.042 6.74 2.1 10.06
11/6/2022 8:45:00 PM 13.56 56.408 0.042 6.71 1.5 10.05
11/6/2022 9:00:00 PM 13.57 56.426 0.042 6.75 1.43 10.04
11/6/2022 9:15:00 PM 13.58 56.444 0.042 6.71 1.53 10.05
11/6/2022 9:30:00 PM 13.58 56.444 0.042 6.7 1.47 10.05
11/6/2022 9:45:00 PM 13.59 56.462 0.042 6.69 1.52 10.05
11/6/2022 10:00:00 PM 13.61 56.498 0.042 6.71 1.55 10.04
11/6/2022 10:15:00 PM 13.62 56.516 0.042 6.71 1.45 10.03
11/6/2022 10:30:00 PM 13.64 56.552 0.042 6.73 1.44 10.03
11/6/2022 10:45:00 PM 13.67 56.606 0.042 6.7 1.47 10.02
11/6/2022 11:00:00 PM 13.68 56.624 0.042 6.73 1.59 10.02
11/6/2022 11:15:00 PM 13.69 56.642 0.042 6.72 1.43 10.02
11/6/2022 11:30:00 PM 13.7 56.66 0.042 6.73 1.44 10.02
11/6/2022 11:45:00 PM 13.71 56.678 0.042 6.69 1.45 10.02
11/7/2022 12:00:00 AM 13.72 56.696 0.042 6.71 1.53 10.01
11/7/2022 12:15:00 AM 13.73 56.714 0.042 6.73 1.44 10.01
11/7/2022 12:30:00 AM 13.73 56.714 0.043 6.68 1.53 10
11/7/2022 12:45:00 AM 13.76 56.768 0.042 6.73 1.53 10
11/7/2022 1:00:00 AM 13.78 56.804 0.042 6.71 1.48 10
11/7/2022 1:15:00 AM 13.78 56.804 0.042 6.67 1.54 10
11/7/2022 1:30:00 AM 13.78 56.804 0.042 6.69 1.52 9.99
11/7/2022 1:45:00 AM 13.78 56.804 0.042 6.74 1.47 9.98
11/7/2022 2:00:00 AM 13.77 56.786 0.042 6.67 1.5 9.99
11/7/2022 2:15:00 AM 13.76 56.768 0.042 6.69 1.51 10
11/7/2022 2:30:00 AM 13.75 56.75 0.042 6.73 1.55 9.99
11/7/2022 2:45:00 AM 13.74 56.732 0.042 6.72 1.52 10
11/7/2022 3:00:00 AM 13.7 56.66 0.042 6.72 1.55 10
11/7/2022 3:15:00 AM 13.66 56.588 0.042 6.68 1.53 10.01
11/7/2022 3:30:00 AM 13.63 56.534 0.042 6.72 1.5 10.01
11/7/2022 3:45:00 AM 13.61 56.498 0.042 6.66 1.59 10.02
11/7/2022 4:00:00 AM 13.58 56.444 0.042 6.65 1.54 10.03
11/7/2022 4:15:00 AM 13.53 56.354 0.042 6.63 1.55 10.03
11/7/2022 4:30:00 AM 13.49 56.282 0.043 6.64 1.58 10.04
11/7/2022 4:45:00 AM 13.47 56.246 0.043 6.65 1.54 10.06
11/7/2022 5:00:00 AM 13.45 56.21 0.043 6.64 1.52 10.06
11/7/2022 5:15:00 AM 13.42 56.156 0.043 6.67 1.75 10.07
11/7/2022 5:30:00 AM 13.38 56.084 0.043 6.64 2.17 10.08
11/7/2022 5:45:00 AM 13.33 55.994 0.043 6.64 2 10.1
11/7/2022 6:00:00 AM 13.27 55.886 0.043 6.66 1.98 10.1
11/7/2022 6:15:00 AM 13.23 55.814 0.043 6.68 1.76 10.12
11/7/2022 6:30:00 AM 13.18 55.724 0.043 6.65 1.74 10.13
11/7/2022 6:45:00 AM 13.14 55.652 0.043 6.72 1.63 10.16
11/7/2022 7:00:00 AM 13.08 55.544 0.043 6.67 1.75 10.19
11/7/2022 7:15:00 AM 13.04 55.472 0.043 6.69 1.69 10.26
11/7/2022 7:30:00 AM 13 55.4 0.043 6.68 1.76 10.35
11/7/2022 7:45:00 AM 12.97 55.346 0.043 6.68 1.57 10.46
11/7/2022 8:00:00 AM 12.92 55.256 0.043 6.73 1.64 10.51
11/7/2022 8:15:00 AM 12.88 55.184 0.043 6.72 1.57 10.58
11/7/2022 8:30:00 AM 12.86 55.148 0.043 6.76 1.67 10.63
11/7/2022 8:45:00 AM 12.84 55.112 0.043 6.78 1.58 10.7
11/7/2022 9:00:00 AM 12.83 55.094 0.043 6.82 1.51 10.73
11/7/2022 9:15:00 AM 12.83 55.094 0.043 6.8 1.59 10.78
11/7/2022 9:30:00 AM 12.83 55.094 0.043 6.83 1.59 10.83
11/7/2022 9:45:00 AM 12.85 55.13 0.043 6.81 1.57 10.86
11/7/2022 10:00:00 AM 12.86 55.148 0.043 6.84 1.68 10.89
11/7/2022 10:15:00 AM 12.9 55.22 0.043 6.87 1.53 10.93
11/7/2022 10:30:00 AM 12.97 55.346 0.043 6.94 1.58 10.95
11/7/2022 10:45:00 AM 13.08 55.544 0.043 6.79 1.5 10.97
11/7/2022 11:00:00 AM 13.21 55.778 0.043 6.97 1.52 11
11/7/2022 11:15:00 AM 13.36 56.048 0.043 6.99 1.54 10.99
11/7/2022 11:30:00 AM 13.53 56.354 0.043 6.97 1.52 10.98
11/7/2022 11:45:00 AM 13.68 56.624 0.043 7 1.49 10.97
11/7/2022 12:00:00 PM 13.85 56.93 0.042 7 1.53 10.96
11/7/2022 12:15:00 PM 14.01 57.218 0.042 7.04 1.63 10.93
11/7/2022 12:30:00 PM 14.13 57.434 0.042 7.03 1.47 10.91
11/7/2022 12:45:00 PM 14.21 57.578 0.042 6.99 1.48 10.9
11/7/2022 1:00:00 PM 14.25 57.65 0.042 7.06 1.41 10.88
11/7/2022 1:15:00 PM 14.28 57.704 0.042 7.01 1.45 10.86
11/7/2022 1:30:00 PM 14.28 57.704 0.042 7.06 1.5 10.84
11/7/2022 1:45:00 PM 14.27 57.686 0.042 7 1.48 10.83
11/7/2022 2:00:00 PM 14.26 57.668 0.042 6.99 1.95 10.83
11/7/2022 2:15:00 PM 14.2 57.56 0.042 7.01 1.63 10.82
11/7/2022 2:30:00 PM 14.1 57.38 0.042 7 1.64 10.8
11/7/2022 2:45:00 PM 13.99 57.182 0.042 6.98 1.8 10.78
11/7/2022 3:00:00 PM 13.9 57.02 0.042 7 1.47 10.76
11/7/2022 3:15:00 PM 13.79 56.822 0.042 6.99 1.53 10.75
11/7/2022 3:30:00 PM 13.68 56.624 0.042 6.98 1.73 10.73
11/7/2022 3:45:00 PM 13.56 56.408 0.042 6.93 1.64 10.68
11/7/2022 4:00:00 PM 13.46 56.228 0.042 6.96 1.55 10.63
11/7/2022 4:15:00 PM 13.34 56.012 0.042 6.88 1.92 10.58
11/7/2022 4:30:00 PM 13.22 55.796 0.042 6.91 1.77 10.54
11/7/2022 4:45:00 PM 13.09 55.562 0.043 6.84 1.57 10.49
11/7/2022 5:00:00 PM 12.97 55.346 0.043 6.87 1.88 10.44
11/7/2022 5:15:00 PM 12.85 55.13 0.043 6.8 1.74 10.39
11/7/2022 5:30:00 PM 12.72 54.896 0.043 6.77 1.92 10.37
11/7/2022 5:45:00 PM 12.61 54.698 0.043 6.75 1.82 10.37
11/7/2022 6:00:00 PM 12.52 54.536 0.043 6.75 1.75 10.37
11/7/2022 6:15:00 PM 12.42 54.356 0.043 6.75 1.8 10.39
11/7/2022 6:30:00 PM 12.34 54.212 0.043 6.74 1.54 10.4
11/7/2022 6:45:00 PM 12.27 54.086 0.043 6.74 1.84 10.41
11/7/2022 7:00:00 PM 12.17 53.906 0.043 6.72 1.91 10.42
11/7/2022 7:15:00 PM 12.1 53.78 0.043 6.76 1.73 10.44
11/7/2022 7:30:00 PM 12.04 53.672 0.043 6.78 1.8 10.45
11/7/2022 7:45:00 PM 11.99 53.582 0.043 6.72 1.53 10.48
11/7/2022 8:00:00 PM 11.94 53.492 0.043 6.73 1.51 10.49
11/7/2022 8:15:00 PM 11.88 53.384 0.043 6.75 1.63 10.51
11/7/2022 8:30:00 PM 11.82 53.276 0.043 6.75 1.61 10.52
11/7/2022 8:45:00 PM 11.76 53.168 0.043 6.72 1.57 10.54
11/7/2022 9:00:00 PM 11.69 53.042 0.043 6.72 1.57 10.57
11/7/2022 9:15:00 PM 11.63 52.934 0.043 6.71 1.55 10.59
11/7/2022 9:30:00 PM 11.57 52.826 0.043 6.74 1.56 10.59
11/7/2022 9:45:00 PM 11.5 52.7 0.043 6.7 1.49 10.62
11/7/2022 10:00:00 PM 11.44 52.592 0.043 6.76 2.01 10.64
11/7/2022 10:15:00 PM 11.37 52.466 0.043 6.77 1.52 10.67
11/7/2022 10:30:00 PM 11.3 52.34 0.043 6.71 1.56 10.69
11/7/2022 10:45:00 PM 11.25 52.25 0.043 6.69 1.53 10.7
11/7/2022 11:00:00 PM 11.17 52.106 0.043 6.72 1.58 10.73
11/7/2022 11:15:00 PM 11.12 52.016 0.043 6.76 1.5 10.74
11/7/2022 11:30:00 PM 11.05 51.89 0.043 6.74 1.52 10.76
11/7/2022 11:45:00 PM 10.99 51.782 0.043 6.71 1.54 10.79
11/8/2022 12:00:00 AM 10.94 51.692 0.043 6.73 1.68 10.8
11/8/2022 12:15:00 AM 10.84 51.512 0.043 6.74 1.52 10.82
11/8/2022 12:30:00 AM 10.78 51.404 0.043 6.76 1.57 10.84
11/8/2022 12:45:00 AM 10.7 51.26 0.043 6.78 1.53 10.87
11/8/2022 1:00:00 AM 10.63 51.134 0.043 6.75 1.56 10.89
11/8/2022 1:15:00 AM 10.57 51.026 0.043 6.74 1.54 10.91
11/8/2022 1:30:00 AM 10.5 50.9 0.043 6.77 1.58 10.93
11/8/2022 1:45:00 AM 10.43 50.774 0.043 6.73 1.53 10.95
11/8/2022 2:00:00 AM 10.39 50.702 0.043 6.73 1.52 10.97
11/8/2022 2:15:00 AM 10.32 50.576 0.043 6.7 1.61 10.99
11/8/2022 2:30:00 AM 10.26 50.468 0.043 6.7 1.5 11.01
11/8/2022 2:45:00 AM 10.2 50.36 0.043 6.71 1.53 11.03
11/8/2022 3:00:00 AM 10.13 50.234 0.043 6.76 1.57 11.05
11/8/2022 3:15:00 AM 10.06 50.108 0.043 6.7 1.56 11.07
11/8/2022 3:30:00 AM 10.01 50.018 0.043 6.69 1.57 11.09
11/8/2022 3:45:00 AM 9.97 49.946 0.043 6.71 1.52 11.1
11/8/2022 4:00:00 AM 9.92 49.856 0.043 6.71 1.68 11.11
11/8/2022 4:15:00 AM 9.86 49.748 0.043 6.72 1.63 11.13
11/8/2022 4:30:00 AM 9.8 49.64 0.043 6.68 1.57 11.15
11/8/2022 4:45:00 AM 9.75 49.55 0.043 6.72 1.63 11.15
11/8/2022 5:00:00 AM 9.7 49.46 0.043 6.69 1.61 11.18
11/8/2022 5:15:00 AM 9.65 49.37 0.043 6.73 2.09 11.18
11/8/2022 5:30:00 AM 9.6 49.28 0.043 6.73 1.74 11.2
11/8/2022 5:45:00 AM 9.56 49.208 0.043 6.66 1.67 11.23
11/8/2022 6:00:00 AM 9.52 49.136 0.043 6.68 1.74 11.23
11/8/2022 6:15:00 AM 9.49 49.082 0.044 6.74 1.58 11.26
11/8/2022 6:30:00 AM 9.45 49.01 0.043 6.71 1.61 11.27
11/8/2022 6:45:00 AM 9.41 48.938 0.043 6.74 2.56 11.3
11/8/2022 7:00:00 AM 9.36 48.848 0.043 6.7 1.52 11.36
11/8/2022 7:15:00 AM 9.3 48.74 0.043 6.73 1.82 11.44
11/8/2022 7:30:00 AM 9.3 48.74 0.043 6.77 1.51 11.55
11/8/2022 7:45:00 AM 9.3 48.74 0.043 6.79 1.56 11.64
11/8/2022 8:00:00 AM 9.31 48.758 0.043 6.81 1.71 11.75
11/8/2022 8:15:00 AM 9.29 48.722 0.043 6.81 1.51 11.81
11/8/2022 8:30:00 AM 9.26 48.668 0.043 6.83 1.54 11.83
11/8/2022 8:45:00 AM 9.23 48.614 0.043 6.85 1.51 11.85
11/8/2022 9:00:00 AM 9.23 48.614 0.043 6.83 1.58 11.95
11/8/2022 9:15:00 AM 9.23 48.614 0.043 6.87 1.74 12.01
11/8/2022 9:30:00 AM 9.24 48.632 0.043 6.84 1.48 12.03
11/8/2022 9:45:00 AM 9.24 48.632 0.043 6.89 1.53 12.04
11/8/2022 10:00:00 AM 9.25 48.65 0.043 6.89 1.5 12.04
11/8/2022 10:15:00 AM 9.27 48.686 0.043 6.88 1.48 12.05
11/8/2022 10:30:00 AM 9.34 48.812 0.043 6.94 1.48 12.06
11/8/2022 10:45:00 AM 9.44 48.992 0.042 6.92 1.55 12.07
11/8/2022 11:00:00 AM 9.56 49.208 0.042 6.93 1.56 12.06
11/8/2022 11:15:00 AM 9.66 49.388 0.042 6.92 1.51 12.07
11/8/2022 11:30:00 AM 9.82 49.676 0.042 6.95 1.49 12.05
11/8/2022 11:45:00 AM 9.99 49.982 0.042 6.94 1.45 12.03
11/8/2022 12:00:00 PM 10.16 50.288 0.042 6.96 1.47 11.99
11/8/2022 12:15:00 PM 10.34 50.612 0.042 6.96 1.44 11.97
11/8/2022 12:30:00 PM 10.47 50.846 0.042 7 1.5 11.94
11/8/2022 12:45:00 PM 10.58 51.044 0.042 7.02 1.85 11.91
11/8/2022 1:00:00 PM 10.67 51.206 0.042 7 1.46 11.88
11/8/2022 1:15:00 PM 10.73 51.314 0.042 7 1.43 11.85
11/8/2022 1:30:00 PM 10.76 51.368 0.042 6.99 1.57 11.82
11/8/2022 1:45:00 PM 10.76 51.368 0.042 6.97 1.47 11.8
11/8/2022 2:00:00 PM 10.74 51.332 0.042 6.99 1.5 11.8
11/8/2022 2:15:00 PM 10.71 51.278 0.043 7.03 1.46 11.78
11/8/2022 2:30:00 PM 10.67 51.206 0.043 6.97 1.43 11.76
11/8/2022 2:45:00 PM 10.62 51.116 0.042 6.97 1.48 11.74
11/8/2022 3:00:00 PM 10.53 50.954 0.042 6.95 1.44 11.74
11/8/2022 3:15:00 PM 10.43 50.774 0.042 6.94 1.5 11.74
11/8/2022 3:30:00 PM 10.33 50.594 0.042 6.94 1.46 11.72
11/8/2022 3:45:00 PM 10.24 50.432 0.042 6.92 1.47 11.68
11/8/2022 4:00:00 PM 10.14 50.252 0.042 6.93 1.49 11.64
11/8/2022 4:15:00 PM 10.05 50.09 0.042 6.9 1.53 11.59
11/8/2022 4:30:00 PM 9.97 49.946 0.043 6.87 1.47 11.55
11/8/2022 4:45:00 PM 9.88 49.784 0.043 6.85 1.53 11.5
11/8/2022 5:00:00 PM 9.8 49.64 0.043 6.85 1.57 11.44
11/8/2022 5:15:00 PM 9.71 49.478 0.043 6.79 1.52 11.39
11/8/2022 5:30:00 PM 9.61 49.298 0.043 6.81 1.53 11.37
11/8/2022 5:45:00 PM 9.53 49.154 0.043 6.78 1.56 11.36
11/8/2022 6:00:00 PM 9.45 49.01 0.043 6.77 1.52 11.35
11/8/2022 6:15:00 PM 9.39 48.902 0.043 6.74 1.48 11.36
11/8/2022 6:30:00 PM 9.32 48.776 0.043 6.74 1.45 11.36
11/8/2022 6:45:00 PM 9.25 48.65 0.043 6.74 1.49 11.38
11/8/2022 7:00:00 PM 9.2 48.56 0.043 6.72 1.57 11.38
11/8/2022 7:15:00 PM 9.16 48.488 0.043 6.76 1.54 11.39
11/8/2022 7:30:00 PM 9.12 48.416 0.043 6.74 1.55 11.39
11/8/2022 7:45:00 PM 9.09 48.362 0.043 6.72 1.53 11.41
11/8/2022 8:00:00 PM 9.05 48.29 0.043 6.73 1.5 11.41
11/8/2022 8:15:00 PM 9.02 48.236 0.043 6.76 1.56 11.41
11/8/2022 8:30:00 PM 8.98 48.164 0.043 6.71 1.55 11.43
11/8/2022 8:45:00 PM 8.94 48.092 0.043 6.74 1.54 11.45
11/8/2022 9:00:00 PM 8.91 48.038 0.043 6.73 1.52 11.46
11/8/2022 9:15:00 PM 8.85 47.93 0.043 6.69 1.54 11.48
11/8/2022 9:30:00 PM 8.81 47.858 0.043 6.74 1.59 11.49
11/8/2022 9:45:00 PM 8.77 47.786 0.043 6.75 1.49 11.5
11/8/2022 10:00:00 PM 8.72 47.696 0.043 6.75 1.53 11.52
11/8/2022 10:15:00 PM 8.67 47.606 0.043 6.69 1.5 11.53
11/8/2022 10:30:00 PM 8.62 47.516 0.043 6.69 1.5 11.54
11/8/2022 10:45:00 PM 8.56 47.408 0.043 6.74 1.51 11.57
11/8/2022 11:00:00 PM 8.5 47.3 0.043 6.68 1.6 11.58
11/8/2022 11:15:00 PM 8.45 47.21 0.043 6.74 1.5 11.59
11/8/2022 11:30:00 PM 8.41 47.138 0.043 6.68 1.52 11.61
11/8/2022 11:45:00 PM 8.37 47.066 0.043 6.74 1.53 11.62
11/9/2022 12:00:00 AM 8.33 46.994 0.043 6.74 1.49 11.64
11/9/2022 12:15:00 AM 8.28 46.904 0.043 6.7 1.52 11.65
11/9/2022 12:30:00 AM 8.24 46.832 0.043 6.69 1.63 11.67
11/9/2022 12:45:00 AM 8.19 46.742 0.043 6.71 1.53 11.69
11/9/2022 1:00:00 AM 8.14 46.652 0.043 6.68 1.51 11.68
11/9/2022 1:15:00 AM 8.08 46.544 0.043 6.71 1.55 11.71
11/9/2022 1:30:00 AM 8.03 46.454 0.043 6.69 1.61 11.72
11/9/2022 1:45:00 AM 7.98 46.364 0.043 6.73 1.55 11.75
11/9/2022 2:00:00 AM 7.93 46.274 0.043 6.67 1.6 11.77
11/9/2022 2:15:00 AM 7.88 46.184 0.043 6.68 1.52 11.78
11/9/2022 2:30:00 AM 7.82 46.076 0.043 6.68 1.67 11.8
11/9/2022 2:45:00 AM 7.77 45.986 0.043 6.66 1.51 11.81
11/9/2022 3:00:00 AM 7.72 45.896 0.043 6.67 1.58 11.83
11/9/2022 3:15:00 AM 7.67 45.806 0.043 6.68 1.52 11.84
11/9/2022 3:30:00 AM 7.62 45.716 0.043 6.72 1.56 11.86
11/9/2022 3:45:00 AM 7.56 45.608 0.043 6.69 1.63 11.87
11/9/2022 4:00:00 AM 7.51 45.518 0.043 6.67 1.53 11.89
11/9/2022 4:15:00 AM 7.47 45.446 0.043 6.73 1.58 11.91
11/9/2022 4:30:00 AM 7.41 45.338 0.043 6.67 1.53 11.94
11/9/2022 4:45:00 AM 7.36 45.248 0.043 6.68 1.52 11.95
11/9/2022 5:00:00 AM 7.31 45.158 0.043 6.72 1.71 11.96
11/9/2022 5:15:00 AM 7.26 45.068 0.043 6.72 1.55 11.99
11/9/2022 5:30:00 AM 7.21 44.978 0.043 6.66 1.63 12
11/9/2022 5:45:00 AM 7.15 44.87 0.043 6.65 1.65 12.01
11/9/2022 6:00:00 AM 7.1 44.78 0.043 6.65 1.66 12.03
11/9/2022 6:15:00 AM 7.05 44.69 0.043 6.68 1.6 12.05
11/9/2022 6:30:00 AM 7 44.6 0.043 6.65 1.56 12.07
11/9/2022 6:45:00 AM 6.95 44.51 0.043 6.66 1.54 12.1
11/9/2022 7:00:00 AM 6.91 44.438 0.043 6.66 1.58 12.14
11/9/2022 7:15:00 AM 6.86 44.348 0.043 6.67 1.56 12.22
11/9/2022 7:30:00 AM 6.83 44.294 0.043 6.73 1.6 12.3
11/9/2022 7:45:00 AM 6.8 44.24 0.043 6.71 1.77 12.38
11/9/2022 8:00:00 AM 6.77 44.186 0.043 6.72 1.53 12.43
11/9/2022 8:15:00 AM 6.75 44.15 0.043 6.74 1.51 12.51
11/9/2022 8:30:00 AM 6.74 44.132 0.043 6.8 1.54 12.58
11/9/2022 8:45:00 AM 6.74 44.132 0.043 6.79 1.55 12.62
11/9/2022 9:00:00 AM 6.74 44.132 0.043 6.79 1.52 12.66
11/9/2022 9:15:00 AM 6.76 44.168 0.043 6.85 1.56 12.68
11/9/2022 9:30:00 AM 6.79 44.222 0.043 6.86 1.58 12.71
11/9/2022 9:45:00 AM 6.84 44.312 0.043 6.84 1.56 12.73
11/9/2022 10:00:00 AM 6.89 44.402 0.043 6.82 1.5 12.76
11/9/2022 10:15:00 AM 6.95 44.51 0.043 6.89 1.52 12.76
11/9/2022 10:30:00 AM 7.04 44.672 0.042 6.9 1.59 12.77
11/9/2022 10:45:00 AM 7.16 44.888 0.042 6.89 1.53 12.77
11/9/2022 11:00:00 AM 7.31 45.158 0.042 6.85 1.5 12.75
11/9/2022 11:15:00 AM 7.47 45.446 0.042 6.88 1.52 12.73
11/9/2022 11:30:00 AM 7.65 45.77 0.042 6.92 1.46 12.7
11/9/2022 11:45:00 AM 7.85 46.13 0.042 6.96 1.5 12.65
11/9/2022 12:00:00 PM 8.06 46.508 0.042 6.89 1.51 12.62
11/9/2022 12:15:00 PM 8.26 46.868 0.042 6.91 1.51 12.57
11/9/2022 12:30:00 PM 8.46 47.228 0.042 6.89 1.55 12.52
11/9/2022 12:45:00 PM 8.62 47.516 0.042 6.93 1.48 12.46
11/9/2022 1:00:00 PM 8.75 47.75 0.042 6.96 1.56 12.43
11/9/2022 1:15:00 PM 8.85 47.93 0.042 6.97 1.46 12.39
11/9/2022 1:30:00 PM 8.92 48.056 0.042 6.92 1.45 12.35
11/9/2022 1:45:00 PM 8.93 48.074 0.042 6.93 1.45 12.32
11/9/2022 2:00:00 PM 8.92 48.056 0.042 6.92 1.49 12.32
11/9/2022 2:15:00 PM 8.94 48.092 0.042 7 1.51 12.3
11/9/2022 2:30:00 PM 8.96 48.128 0.042 6.91 1.47 12.3
11/9/2022 2:45:00 PM 8.92 48.056 0.042 7 1.47 12.28
11/9/2022 3:00:00 PM 8.89 48.002 0.042 6.94 1.51 12.28
11/9/2022 3:15:00 PM 8.86 47.948 0.042 6.9 1.47 12.28
11/9/2022 3:30:00 PM 8.79 47.822 0.042 6.92 1.47 12.23
11/9/2022 3:45:00 PM 8.7 47.66 0.042 6.91 1.48 12.12
11/9/2022 4:00:00 PM 8.63 47.534 0.043 6.88 1.47 12.05
11/9/2022 4:15:00 PM 8.58 47.444 0.042 6.89 1.52 12.03
11/9/2022 4:30:00 PM 8.52 47.336 0.043 6.76 1.56 11.98
11/9/2022 4:45:00 PM 8.43 47.174 0.043 6.88 1.5 11.93
11/9/2022 5:00:00 PM 8.33 46.994 0.043 6.85 1.51 11.87
11/9/2022 5:15:00 PM 8.24 46.832 0.043 6.86 1.7 11.82
11/9/2022 5:30:00 PM 8.15 46.67 0.043 6.77 1.59 11.79
11/9/2022 5:45:00 PM 8.08 46.544 0.043 6.76 1.59 11.78
11/9/2022 6:00:00 PM 8 46.4 0.043 6.74 1.54 11.79
11/9/2022 6:15:00 PM 7.93 46.274 0.043 6.76 1.5 11.78
11/9/2022 6:30:00 PM 7.87 46.166 0.043 6.78 1.54 11.78
11/9/2022 6:45:00 PM 7.81 46.058 0.043 6.75 1.53 11.8
11/9/2022 7:00:00 PM 7.77 45.986 0.043 6.76 1.53 11.8
11/9/2022 7:15:00 PM 7.72 45.896 0.043 6.8 1.57 11.79
11/9/2022 7:30:00 PM 7.69 45.842 0.043 6.73 1.53 11.81
11/9/2022 7:45:00 PM 7.66 45.788 0.043 6.79 1.52 11.82
11/9/2022 8:00:00 PM 7.64 45.752 0.044 6.73 1.49 11.83
11/9/2022 8:15:00 PM 7.61 45.698 0.044 6.79 1.58 11.84
11/9/2022 8:30:00 PM 7.59 45.662 0.044 6.78 1.63 11.84
11/9/2022 8:45:00 PM 7.56 45.608 0.044 6.76 1.55 11.84
11/9/2022 9:00:00 PM 7.54 45.572 0.044 6.72 1.53 11.85
11/9/2022 9:15:00 PM 7.51 45.518 0.044 6.71 1.56 11.85
11/9/2022 9:30:00 PM 7.48 45.464 0.044 6.73 1.59 11.86
11/9/2022 9:45:00 PM 7.45 45.41 0.044 6.73 1.54 11.87
11/9/2022 10:00:00 PM 7.42 45.356 0.044 6.73 1.53 11.89
11/9/2022 10:15:00 PM 7.39 45.302 0.044 6.77 1.55 11.89
11/9/2022 10:30:00 PM 7.35 45.23 0.044 6.7 1.61 11.9
11/9/2022 10:45:00 PM 7.32 45.176 0.044 6.73 1.58 11.92
11/9/2022 11:00:00 PM 7.29 45.122 0.044 6.72 1.54 11.92
11/9/2022 11:15:00 PM 7.26 45.068 0.044 6.71 1.51 11.93
11/9/2022 11:30:00 PM 7.22 44.996 0.044 6.72 1.57 11.94
11/9/2022 11:45:00 PM 7.18 44.924 0.044 6.74 1.59 11.95
11/10/2022 12:00:00 AM 7.14 44.852 0.044 6.76 1.59 11.97
11/10/2022 12:15:00 AM 7.1 44.78 0.044 6.73 1.59 11.98
11/10/2022 12:30:00 AM 7.07 44.726 0.044 6.77 1.6 11.99
11/10/2022 12:45:00 AM 7.03 44.654 0.044 6.77 1.57 12
11/10/2022 1:00:00 AM 7 44.6 0.044 6.75 1.54 12.01
11/10/2022 1:15:00 AM 6.96 44.528 0.044 6.73 1.58 12.02
11/10/2022 1:30:00 AM 6.93 44.474 0.044 6.73 1.54 12.01
11/10/2022 1:45:00 AM 6.9 44.42 0.044 6.72 1.57 12.03
11/10/2022 2:00:00 AM 6.88 44.384 0.044 6.7 1.59 12.05
11/10/2022 2:15:00 AM 6.85 44.33 0.044 6.73 1.55 12.04
11/10/2022 2:30:00 AM 6.82 44.276 0.044 6.7 1.53 12.07
11/10/2022 2:45:00 AM 6.79 44.222 0.044 6.69 1.56 12.07
11/10/2022 3:00:00 AM 6.77 44.186 0.044 6.69 1.68 12.08
11/10/2022 3:15:00 AM 6.74 44.132 0.044 6.7 1.56 12.09
11/10/2022 3:30:00 AM 6.7 44.06 0.044 6.75 1.59 12.1
11/10/2022 3:45:00 AM 6.68 44.024 0.044 6.71 1.58 12.12
11/10/2022 4:00:00 AM 6.64 43.952 0.044 6.75 1.67 12.12
11/10/2022 4:15:00 AM 6.61 43.898 0.044 6.75 1.61 12.13
11/10/2022 4:30:00 AM 6.58 43.844 0.045 6.7 1.58 12.14
11/10/2022 4:45:00 AM 6.54 43.772 0.046 6.7 1.65 12.16
11/10/2022 5:00:00 AM 6.51 43.718 0.047 6.74 1.66 12.18
11/10/2022 5:15:00 AM 6.48 43.664 0.047 6.72 1.56 12.17
11/10/2022 5:30:00 AM 6.46 43.628 0.048 6.74 1.6 12.19
11/10/2022 5:45:00 AM 6.44 43.592 0.048 6.71 1.64 12.19
11/10/2022 6:00:00 AM 6.41 43.538 0.048 6.76 1.58 12.19
11/10/2022 6:15:00 AM 6.39 43.502 0.048 6.75 1.61 12.21
11/10/2022 6:30:00 AM 6.37 43.466 0.048 6.74 1.6 12.22
11/10/2022 6:45:00 AM 6.35 43.43 0.048 6.72 1.61 12.23
11/10/2022 7:00:00 AM 6.33 43.394 0.048 6.75 1.6 12.26
11/10/2022 7:15:00 AM 6.31 43.358 0.047 6.81 1.63 12.31
11/10/2022 7:30:00 AM 6.31 43.358 0.047 6.76 1.6 12.39
11/10/2022 7:45:00 AM 6.3 43.34 0.047 6.82 1.58 12.48
11/10/2022 8:00:00 AM 6.3 43.34 0.047 6.82 1.59 12.53
11/10/2022 8:15:00 AM 6.31 43.358 0.047 6.86 1.58 12.59
11/10/2022 8:30:00 AM 6.33 43.394 0.047 6.83 1.56 12.65
11/10/2022 8:45:00 AM 6.36 43.448 0.047 6.82 1.67 12.68
11/10/2022 9:00:00 AM 6.4 43.52 0.046 6.88 1.59 12.71
11/10/2022 9:15:00 AM 6.46 43.628 0.047 6.84 1.58 12.74
11/10/2022 9:30:00 AM 6.54 43.772 0.046 6.84 1.6 12.75
11/10/2022 9:45:00 AM 6.62 43.916 0.046 6.88 1.58 12.76
11/10/2022 10:00:00 AM 6.72 44.096 0.046 6.89 1.56 12.77
11/10/2022 10:15:00 AM 6.83 44.294 0.046 6.86 1.59 12.76
11/10/2022 10:30:00 AM 6.95 44.51 0.045 6.87 1.51 12.76
11/10/2022 10:45:00 AM 7.11 44.798 0.045 6.96 1.54 12.74
11/10/2022 11:00:00 AM 7.3 45.14 0.045 6.96 1.58 12.73
11/10/2022 11:15:00 AM 7.5 45.5 0.045 6.95 1.62 12.69
11/10/2022 11:30:00 AM 7.73 45.914 0.045 6.95 1.57 12.64
11/10/2022 11:45:00 AM 7.96 46.328 0.045 6.93 1.53 12.61
11/10/2022 12:00:00 PM 8.2 46.76 0.045 6.95 1.56 12.55
11/10/2022 12:15:00 PM 8.44 47.192 0.044 6.92 1.6 12.49
11/10/2022 12:30:00 PM 8.66 47.588 0.045 6.96 1.58 12.42
11/10/2022 12:45:00 PM 8.86 47.948 0.044 6.96 1.5 12.39
11/10/2022 1:00:00 PM 9.03 48.254 0.045 7 1.6 12.33
11/10/2022 1:15:00 PM 9.17 48.506 0.045 7.01 1.51 12.29
11/10/2022 1:30:00 PM 9.27 48.686 0.044 7.01 1.52 12.24
11/10/2022 1:45:00 PM 9.35 48.83 0.045 7 1.58 12.2
11/10/2022 2:00:00 PM 9.41 48.938 0.044 6.98 1.54 12.16
11/10/2022 2:15:00 PM 9.45 49.01 0.044 7.05 1.55 12.13
11/10/2022 2:30:00 PM 9.47 49.046 0.044 7.05 1.6 12.09
11/10/2022 2:45:00 PM 9.48 49.064 0.044 6.96 1.54 12.07
11/10/2022 3:00:00 PM 9.47 49.046 0.044 6.99 1.5 12.01
11/10/2022 3:15:00 PM 9.46 49.028 0.044 7 1.49 11.98
11/10/2022 3:30:00 PM 9.42 48.956 0.044 6.98 1.52 11.93
11/10/2022 3:45:00 PM 9.39 48.902 0.044 6.96 1.56 11.89
11/10/2022 4:00:00 PM 9.34 48.812 0.044 6.96 1.55 11.83
11/10/2022 4:15:00 PM 9.3 48.74 0.044 6.88 1.56 11.77
11/10/2022 4:30:00 PM 9.25 48.65 0.044 6.92 1.52 11.66
11/10/2022 4:45:00 PM 9.19 48.542 0.045 6.85 1.59 11.62
11/10/2022 5:00:00 PM 9.13 48.434 0.045 6.87 1.65 11.53
11/10/2022 5:15:00 PM 9.06 48.308 0.044 6.84 1.59 11.49
11/10/2022 5:30:00 PM 9 48.2 0.045 6.86 1.56 11.46
11/10/2022 5:45:00 PM 8.94 48.092 0.045 6.78 1.53 11.43
11/10/2022 6:00:00 PM 8.89 48.002 0.045 6.78 1.57 11.43
11/10/2022 6:15:00 PM 8.85 47.93 0.045 6.78 1.6 11.42
11/10/2022 6:30:00 PM 8.81 47.858 0.045 6.77 1.55 11.42
11/10/2022 6:45:00 PM 8.78 47.804 0.045 6.76 1.53 11.42
11/10/2022 7:00:00 PM 8.75 47.75 0.045 6.76 1.64 11.42
11/10/2022 7:15:00 PM 8.73 47.714 0.045 6.76 1.56 11.41
11/10/2022 7:30:00 PM 8.72 47.696 0.045 6.78 1.54 11.42
11/10/2022 7:45:00 PM 8.7 47.66 0.045 6.75 1.57 11.41
11/10/2022 8:00:00 PM 8.7 47.66 0.045 6.74 1.57 11.41
11/10/2022 8:15:00 PM 8.7 47.66 0.045 6.76 1.59 11.4
11/10/2022 8:30:00 PM 8.69 47.642 0.045 6.8 1.58 11.39
11/10/2022 8:45:00 PM 8.69 47.642 0.045 6.74 1.56 11.4
11/10/2022 9:00:00 PM 8.68 47.624 0.045 6.75 1.53 11.4
11/10/2022 9:15:00 PM 8.67 47.606 0.045 6.71 1.56 11.4
11/10/2022 9:30:00 PM 8.66 47.588 0.045 6.72 1.49 11.41
11/10/2022 9:45:00 PM 8.65 47.57 0.045 6.79 1.6 11.41
11/10/2022 10:00:00 PM 8.64 47.552 0.045 6.77 1.63 11.41
11/10/2022 10:15:00 PM 8.63 47.534 0.045 6.78 1.57 11.4
11/10/2022 10:30:00 PM 8.61 47.498 0.045 6.72 1.53 11.42
11/10/2022 10:45:00 PM 8.59 47.462 0.045 6.78 1.58 11.4
11/10/2022 11:00:00 PM 8.58 47.444 0.045 6.71 1.55 11.42
11/10/2022 11:15:00 PM 8.57 47.426 0.045 6.74 1.59 11.43
11/10/2022 11:30:00 PM 8.55 47.39 0.045 6.75 1.61 11.43
11/10/2022 11:45:00 PM 8.53 47.354 0.045 6.77 1.56 11.44
11/11/2022 12:00:00 AM 8.51 47.318 0.044 6.74 1.56 11.43
11/11/2022 12:15:00 AM 8.5 47.3 0.045 6.74 1.57 11.44
11/11/2022 12:30:00 AM 8.48 47.264 0.045 6.78 1.59 11.45
11/11/2022 12:45:00 AM 8.47 47.246 0.045 6.72 1.54 11.44
11/11/2022 1:00:00 AM 8.46 47.228 0.044 6.76 1.62 11.45
11/11/2022 1:15:00 AM 8.45 47.21 0.044 6.78 1.73 11.45
11/11/2022 1:30:00 AM 8.44 47.192 0.044 6.72 1.6 11.44
11/11/2022 1:45:00 AM 8.42 47.156 0.044 6.74 1.64 11.45
11/11/2022 2:00:00 AM 8.42 47.156 0.044 6.76 1.6 11.46
11/11/2022 2:15:00 AM 8.43 47.174 0.044 6.74 1.54 11.39
11/11/2022 2:30:00 AM 8.42 47.156 0.044 6.78 1.57 11.45
11/11/2022 2:45:00 AM 8.42 47.156 0.044 6.7 1.6 11.46
11/11/2022 3:00:00 AM 8.41 47.138 0.044 6.69 1.54 11.46
11/11/2022 3:15:00 AM 8.39 47.102 0.044 6.77 1.58 11.46
11/11/2022 3:30:00 AM 8.38 47.084 0.044 6.71 1.56 11.46
11/11/2022 3:45:00 AM 8.37 47.066 0.044 6.7 1.58 11.47
11/11/2022 4:00:00 AM 8.35 47.03 0.044 6.71 1.61 11.47
11/11/2022 4:15:00 AM 8.34 47.012 0.044 6.7 1.58 11.47
11/11/2022 4:30:00 AM 8.33 46.994 0.044 6.73 1.63 11.48
11/11/2022 4:45:00 AM 8.33 46.994 0.044 6.72 1.55 11.47
11/11/2022 5:00:00 AM 8.34 47.012 0.044 6.74 1.6 11.44
11/11/2022 5:15:00 AM 8.34 47.012 0.044 6.73 1.6 11.47
11/11/2022 5:30:00 AM 8.34 47.012 0.044 6.71 1.51 11.47
11/11/2022 5:45:00 AM 8.36 47.048 0.044 6.76 1.62 11.47
11/11/2022 6:00:00 AM 8.38 47.084 0.044 6.68 1.56 11.46
11/11/2022 6:15:00 AM 8.39 47.102 0.044 6.75 1.52 11.47
11/11/2022 6:30:00 AM 8.4 47.12 0.044 6.68 2.32 11.45
11/11/2022 6:45:00 AM 8.41 47.138 0.044 6.7 1.51 11.46
11/11/2022 7:00:00 AM 8.43 47.174 0.044 6.7 1.58 11.48
11/11/2022 7:15:00 AM 8.45 47.21 0.044 6.76 1.56 11.51
11/11/2022 7:30:00 AM 8.47 47.246 0.044 6.77 1.59 11.57
11/11/2022 7:45:00 AM 8.5 47.3 0.043 6.74 1.56 11.64
11/11/2022 8:00:00 AM 8.54 47.372 0.044 6.73 1.49 11.69
11/11/2022 8:15:00 AM 8.58 47.444 0.043 6.75 1.57 11.7
11/11/2022 8:30:00 AM 8.62 47.516 0.043 6.77 1.53 11.74
11/11/2022 8:45:00 AM 8.66 47.588 0.043 6.76 1.54 11.77
11/11/2022 9:00:00 AM 8.7 47.66 0.043 6.82 1.54 11.75
11/11/2022 9:15:00 AM 8.75 47.75 0.043 6.78 1.64 11.79
11/11/2022 9:30:00 AM 8.79 47.822 0.043 6.79 1.56 11.79
11/11/2022 9:45:00 AM 8.82 47.876 0.043 6.83 1.52 11.78
11/11/2022 10:00:00 AM 8.87 47.966 0.043 6.79 1.58 11.82
11/11/2022 10:15:00 AM 8.91 48.038 0.043 6.79 4.28 11.83
11/11/2022 10:30:00 AM 8.96 48.128 0.043 6.82 1.73 11.84
11/11/2022 10:45:00 AM 9.02 48.236 0.042 6.86 1.6 11.86
11/11/2022 11:00:00 AM 9.08 48.344 0.042 6.86 1.54 11.86
11/11/2022 11:15:00 AM 9.12 48.416 0.042 6.84 1.61 11.86
11/11/2022 11:30:00 AM 9.16 48.488 0.042 6.83 1.6 11.83
11/11/2022 11:45:00 AM 9.21 48.578 0.042 6.82 1.64 11.84
11/11/2022 12:00:00 PM 9.25 48.65 0.042 6.81 1.58 11.8
11/11/2022 12:15:00 PM 9.3 48.74 0.042 6.87 1.53 11.75
11/11/2022 12:30:00 PM 9.35 48.83 0.042 6.84 1.66 11.7
11/11/2022 12:45:00 PM 9.39 48.902 0.042 6.86 1.61 11.72
11/11/2022 1:00:00 PM 9.43 48.974 0.042 6.84 1.65 11.71
11/11/2022 1:15:00 PM 9.46 49.028 0.042 6.85 1.65 11.68
11/11/2022 1:30:00 PM 9.51 49.118 0.042 6.86 1.64 11.62
11/11/2022 1:45:00 PM 9.57 49.226 0.042 6.85 1.68 11.53
11/11/2022 2:00:00 PM 9.63 49.334 0.041 6.88 1.85 11.43
11/11/2022 2:15:00 PM 9.69 49.442 0.042 6.83 1.89 11.36
11/11/2022 2:30:00 PM 9.74 49.532 0.042 6.84 2.37 11.29
11/11/2022 2:45:00 PM 9.77 49.586 0.043 6.86 2.65 11.28
11/11/2022 3:00:00 PM 9.8 49.64 0.044 6.86 3.17 11.26
11/11/2022 3:15:00 PM 9.85 49.73 0.045 6.83 5.45 11.22
11/11/2022 3:30:00 PM 9.91 49.838 0.049 6.87 11.82 11.16
11/11/2022 3:45:00 PM 9.97 49.946 0.052 6.86 15.44 11.12
11/11/2022 4:00:00 PM 10.08 50.144 0.054 6.88 26.27 11.07
11/11/2022 4:15:00 PM 10.18 50.324 0.056 6.95 34.37 11.03
11/11/2022 4:30:00 PM 10.23 50.414 0.056 6.93 35.61 11.02
11/11/2022 4:45:00 PM 10.27 50.486 0.053 6.92 34.82 11.01
11/11/2022 5:00:00 PM 10.34 50.612 0.051 6.88 35.44 10.99
11/11/2022 5:15:00 PM 10.41 50.738 0.049 6.84 39.24 10.97
11/11/2022 5:30:00 PM 10.45 50.81 0.046 6.82 46.11 10.97
11/11/2022 5:45:00 PM 10.46 50.828 0.045 6.77 37.64 10.98
11/11/2022 6:00:00 PM 10.47 50.846 0.043 6.8 37.44 10.99
11/11/2022 6:15:00 PM 10.47 50.846 0.042 6.72 47.51 11
11/11/2022 6:30:00 PM 10.49 50.882 0.04 6.78 34.67 11
11/11/2022 6:45:00 PM 10.51 50.918 0.04 6.68 32.81 11.01
11/11/2022 7:00:00 PM 10.54 50.972 0.039 6.7 31.18 11
11/11/2022 7:15:00 PM 10.56 51.008 0.038 6.66 31.26 10.99
11/11/2022 7:30:00 PM 10.58 51.044 0.038 6.67 26.96 10.99
11/11/2022 7:45:00 PM 10.6 51.08 0.037 6.63 27.47 10.98
11/11/2022 8:00:00 PM 10.63 51.134 0.037 6.69 23.59 10.97
11/11/2022 8:15:00 PM 10.65 51.17 0.036 6.68 21.94 10.97
11/11/2022 8:30:00 PM 10.68 51.224 0.036 6.58 22.47 10.95
11/11/2022 8:45:00 PM 10.71 51.278 0.036 6.64 22.92 10.95
11/11/2022 9:00:00 PM 10.73 51.314 0.035 6.58 18.27 10.93
11/11/2022 9:15:00 PM 10.76 51.368 0.035 6.57 16 10.92
11/11/2022 9:30:00 PM 10.78 51.404 0.035 6.58 15.03 10.92
11/11/2022 9:45:00 PM 10.8 51.44 0.035 6.63 14.03 10.91
11/11/2022 10:00:00 PM 10.81 51.458 0.036 6.56 13.56 10.9
11/11/2022 10:15:00 PM 10.83 51.494 0.036 6.54 12.74 10.89
11/11/2022 10:30:00 PM 10.85 51.53 0.036 6.57 12.36 10.88
11/11/2022 10:45:00 PM 10.87 51.566 0.036 6.54 11.93 10.88
11/11/2022 11:00:00 PM 10.89 51.602 0.036 6.6 11.43 10.87
11/11/2022 11:15:00 PM 10.91 51.638 0.036 6.55 10.69 10.86
11/11/2022 11:30:00 PM 10.93 51.674 0.036 6.55 10.46 10.85
11/11/2022 11:45:00 PM 10.96 51.728 0.036 6.56 10.06 10.84
11/12/2022 12:00:00 AM 11 51.8 0.036 6.58 9.91 10.83
11/12/2022 12:15:00 AM 11.05 51.89 0.036 6.65 9.6 10.81
11/12/2022 12:30:00 AM 11.07 51.926 0.036 6.63 8.95 10.8
11/12/2022 12:45:00 AM 11.11 51.998 0.037 6.57 8.71 10.79
11/12/2022 1:00:00 AM 11.15 52.07 0.036 6.6 8.34 10.77
11/12/2022 1:15:00 AM 11.19 52.142 0.036 6.65 8.18 10.76
11/12/2022 1:30:00 AM 11.21 52.178 0.036 6.66 7.7 10.75
11/12/2022 1:45:00 AM 11.23 52.214 0.036 6.68 7.68 10.74
11/12/2022 2:00:00 AM 11.28 52.304 0.036 6.65 7.32 10.73
11/12/2022 2:15:00 AM 11.32 52.376 0.036 6.68 6.97 10.72
11/12/2022 2:30:00 AM 11.34 52.412 0.036 6.69 6.84 10.7
11/12/2022 2:45:00 AM 11.38 52.484 0.036 6.65 6.54 10.7
11/12/2022 3:00:00 AM 11.53 52.754 0.035 6.67 6.27 10.67
11/12/2022 3:15:00 AM 11.64 52.952 0.035 6.68 7.76 10.64
11/12/2022 3:30:00 AM 11.74 53.132 0.036 6.65 13.28 10.61
11/12/2022 3:45:00 AM 11.92 53.456 0.039 6.7 90.7 10.57
11/12/2022 4:00:00 AM 12.11 53.798 0.041 6.7 152.89 10.52
11/12/2022 4:15:00 AM 12.3 54.14 0.042 6.71 143.51 10.48
11/12/2022 4:30:00 AM 12.34 54.212 0.043 6.7 132.26 10.49
11/12/2022 4:45:00 AM 12.34 54.212 0.04 6.71 95.95 10.5
11/12/2022 5:00:00 AM 12.33 54.194 0.038 6.71 79.73 10.5
11/12/2022 5:15:00 AM 12.27 54.086 0.036 6.66 68.79 10.52
11/12/2022 5:30:00 AM 12.24 54.032 0.034 6.59 62.78 10.54
11/12/2022 5:45:00 AM 12.22 53.996 0.034 6.62 59.91 10.55
11/12/2022 6:00:00 AM 12.21 53.978 0.033 6.51 59.2 10.57
11/12/2022 6:15:00 AM 12.2 53.96 0.032 6.52 58.49 10.58
11/12/2022 6:30:00 AM 12.19 53.942 0.031 6.45 57.35 10.59
11/12/2022 6:45:00 AM 12.17 53.906 0.031 6.48 56.33 10.6
11/12/2022 7:00:00 AM 12.15 53.87 0.03 6.54 61.9 10.61
11/12/2022 7:15:00 AM 12.13 53.834 0.03 6.44 49.87 10.62
11/12/2022 7:30:00 AM 12.11 53.798 0.029 6.48 44.35 10.63
11/12/2022 7:45:00 AM 12.09 53.762 0.029 6.44 45.09 10.64
11/12/2022 8:00:00 AM 12.06 53.708 0.029 6.47 36.05 10.65
11/12/2022 8:15:00 AM 12.03 53.654 0.029 6.5 33.12 10.67
11/12/2022 8:30:00 AM 12 53.6 0.029 6.49 29.28 10.68
11/12/2022 8:45:00 AM 11.98 53.564 0.029 6.47 28.68 10.69
11/12/2022 9:00:00 AM 11.96 53.528 0.029 6.49 24.61 10.7
11/12/2022 9:15:00 AM 11.95 53.51 0.029 6.45 23.69 10.7
11/12/2022 9:30:00 AM 11.94 53.492 0.03 6.51 23.15 10.71
11/12/2022 9:45:00 AM 11.94 53.492 0.03 6.49 22.63 10.72
11/12/2022 10:00:00 AM 11.95 53.51 0.03 6.4 21.95 10.72
11/12/2022 10:15:00 AM 11.96 53.528 0.03 6.44 23.13 10.72
11/12/2022 10:30:00 AM 11.97 53.546 0.03 6.49 21.39 10.72
11/12/2022 10:45:00 AM 11.98 53.564 0.03 6.49 20.5 10.71
11/12/2022 11:00:00 AM 11.97 53.546 0.03 6.49 19.55 10.71
11/12/2022 11:15:00 AM 11.96 53.528 0.03 6.46 19.44 10.71
11/12/2022 11:30:00 AM 11.95 53.51 0.03 6.43 18.88 10.7
11/12/2022 11:45:00 AM 11.97 53.546 0.03 6.43 18.25 10.71
11/12/2022 12:00:00 PM 11.99 53.582 0.03 6.45 19.18 10.71
11/12/2022 12:15:00 PM 12.03 53.654 0.03 6.47 16.45 10.72
11/12/2022 12:30:00 PM 12.06 53.708 0.029 6.49 15.88 10.71
11/12/2022 12:45:00 PM 12.1 53.78 0.029 6.47 14.92 10.71
11/12/2022 1:00:00 PM 12.1 53.78 0.029 6.45 16.13 10.7
11/12/2022 1:15:00 PM 12.12 53.816 0.029 6.46 15.33 10.7
11/12/2022 1:30:00 PM 12.12 53.816 0.029 6.5 14.24 10.7
11/12/2022 1:45:00 PM 12.11 53.798 0.028 6.42 13.71 10.69
11/12/2022 2:00:00 PM 12.16 53.888 0.028 6.47 13.49 10.69
11/12/2022 2:15:00 PM 12.17 53.906 0.028 6.44 13.06 10.69
11/12/2022 2:30:00 PM 12.22 53.996 0.028 6.49 12.71 10.67
11/12/2022 2:45:00 PM 12.24 54.032 0.028 6.46 12.12 10.66
11/12/2022 3:00:00 PM 12.22 53.996 0.028 6.45 12.19 10.64
11/12/2022 3:15:00 PM 12.2 53.96 0.027 6.47 11.54 10.64
11/12/2022 3:30:00 PM 12.19 53.942 0.027 6.47 11.55 10.64
11/12/2022 3:45:00 PM 12.17 53.906 0.027 6.48 11.27 10.64
11/12/2022 4:00:00 PM 12.13 53.834 0.027 6.45 10.86 10.65
11/12/2022 4:15:00 PM 12.1 53.78 0.027 6.46 10.5 10.66
11/12/2022 4:30:00 PM 12.07 53.726 0.027 6.4 10.7 10.66
11/12/2022 4:45:00 PM 12.05 53.69 0.027 6.42 10.37 10.66
11/12/2022 5:00:00 PM 12.03 53.654 0.027 6.42 9.95 10.67
11/12/2022 5:15:00 PM 12.02 53.636 0.027 6.42 9.77 10.66
11/12/2022 5:30:00 PM 12 53.6 0.027 6.42 9.45 10.67
11/12/2022 5:45:00 PM 11.98 53.564 0.027 6.42 9.56 10.67
11/12/2022 6:00:00 PM 11.95 53.51 0.027 6.37 9.26 10.68
11/12/2022 6:15:00 PM 11.92 53.456 0.027 6.44 8.88 10.69
11/12/2022 6:30:00 PM 11.89 53.402 0.027 6.38 8.78 10.7
11/12/2022 6:45:00 PM 11.85 53.33 0.027 6.38 8.51 10.71
11/12/2022 7:00:00 PM 11.83 53.294 0.027 6.39 8.39 10.72
11/12/2022 7:15:00 PM 11.8 53.24 0.027 6.45 8.11 10.72
11/12/2022 7:30:00 PM 11.77 53.186 0.027 6.44 8.18 10.73
11/12/2022 7:45:00 PM 11.75 53.15 0.027 6.4 7.78 10.73
11/12/2022 8:00:00 PM 11.72 53.096 0.027 6.39 7.62 10.73
11/12/2022 8:15:00 PM 11.69 53.042 0.027 6.45 7.63 10.74
11/12/2022 8:30:00 PM 11.67 53.006 0.026 6.4 7.72 10.74
11/12/2022 8:45:00 PM 11.65 52.97 0.027 6.4 7.52 10.76
11/12/2022 9:00:00 PM 11.62 52.916 0.026 6.42 7.28 10.77
11/12/2022 9:15:00 PM 11.6 52.88 0.026 6.43 7.02 10.77
11/12/2022 9:30:00 PM 11.58 52.844 0.027 6.39 6.79 10.77
11/12/2022 9:45:00 PM 11.55 52.79 0.026 6.41 6.95 10.79
11/12/2022 10:00:00 PM 11.53 52.754 0.026 6.44 6.81 10.8
11/12/2022 10:15:00 PM 11.51 52.718 0.026 6.45 6.75 10.81
11/12/2022 10:30:00 PM 11.48 52.664 0.026 6.45 6.3 10.81
11/12/2022 10:45:00 PM 11.45 52.61 0.026 6.42 6.55 10.82
11/12/2022 11:00:00 PM 11.43 52.574 0.026 6.43 6.4 10.82
11/12/2022 11:15:00 PM 11.4 52.52 0.027 6.41 6.32 10.83
11/12/2022 11:30:00 PM 11.37 52.466 0.026 6.46 6.29 10.84
11/12/2022 11:45:00 PM 11.34 52.412 0.027 6.45 6.09 10.85
11/13/2022 12:00:00 AM 11.32 52.376 0.027 6.43 6.24 10.86
11/13/2022 12:15:00 AM 11.28 52.304 0.027 6.43 5.98 10.86
11/13/2022 12:30:00 AM 11.25 52.25 0.026 6.44 5.92 10.87
11/13/2022 12:45:00 AM 11.21 52.178 0.027 6.45 5.8 10.88
11/13/2022 1:00:00 AM 11.17 52.106 0.027 6.45 5.87 10.89
11/13/2022 1:15:00 AM 11.14 52.052 0.027 6.41 5.83 10.9
11/13/2022 1:30:00 AM 11.11 51.998 0.027 6.43 5.92 10.91
11/13/2022 1:45:00 AM 11.06 51.908 0.027 6.42 5.71 10.92
11/13/2022 2:00:00 AM 11.03 51.854 0.027 6.43 6.01 10.93
11/13/2022 2:15:00 AM 10.98 51.764 0.026 6.46 5.41 10.95
11/13/2022 2:30:00 AM 10.93 51.674 0.027 6.41 5.25 10.96
11/13/2022 2:45:00 AM 10.89 51.602 0.027 6.41 5.47 10.97
11/13/2022 3:00:00 AM 10.85 51.53 0.027 6.4 5.47 10.98
11/13/2022 3:15:00 AM 10.8 51.44 0.026 6.39 5.36 11
11/13/2022 3:30:00 AM 10.75 51.35 0.027 6.43 5.2 11.01
11/13/2022 3:45:00 AM 10.71 51.278 0.026 6.43 5.12 11.02
11/13/2022 4:00:00 AM 10.67 51.206 0.027 6.41 5.01 11.04
11/13/2022 4:15:00 AM 10.62 51.116 0.027 6.44 5.22 11.05
11/13/2022 4:30:00 AM 10.57 51.026 0.027 6.46 5.06 11.06
11/13/2022 4:45:00 AM 10.52 50.936 0.027 6.4 4.96 11.08
11/13/2022 5:00:00 AM 10.47 50.846 0.027 6.46 4.86 11.09
11/13/2022 5:15:00 AM 10.42 50.756 0.026 6.42 4.91 11.11
11/13/2022 5:30:00 AM 10.37 50.666 0.027 6.4 4.94 11.12
11/13/2022 5:45:00 AM 10.33 50.594 0.027 6.45 4.86 11.13
11/13/2022 6:00:00 AM 10.27 50.486 0.027 6.42 4.79 11.15
11/13/2022 6:15:00 AM 10.23 50.414 0.027 6.46 4.84 11.17
11/13/2022 6:30:00 AM 10.18 50.324 0.027 6.39 4.63 11.18
11/13/2022 6:45:00 AM 10.13 50.234 0.027 6.42 4.79 11.19
11/13/2022 7:00:00 AM 10.09 50.162 0.027 6.43 4.85 11.21
11/13/2022 7:15:00 AM 10.05 50.09 0.027 6.45 4.59 11.23
11/13/2022 7:30:00 AM 10.02 50.036 0.027 6.45 4.6 11.25
11/13/2022 7:45:00 AM 10 50 0.027 6.44 4.46 11.27
11/13/2022 8:00:00 AM 9.97 49.946 0.027 6.46 4.48 11.29
11/13/2022 8:15:00 AM 9.95 49.91 0.027 6.46 4.47 11.31
11/13/2022 8:30:00 AM 9.93 49.874 0.027 6.47 4.37 11.33
11/13/2022 8:45:00 AM 9.92 49.856 0.027 6.48 4.42 11.35
11/13/2022 9:00:00 AM 9.91 49.838 0.027 6.34 4.4 11.37
11/13/2022 9:15:00 AM 9.89 49.802 0.027 6.36 4.08 11.37
11/13/2022 9:30:00 AM 9.87 49.766 0.027 6.37 4.25 11.37
11/13/2022 9:45:00 AM 9.85 49.73 0.027 6.35 4 11.38
11/13/2022 10:00:00 AM 9.83 49.694 0.027 6.42 4.16 11.39
11/13/2022 10:15:00 AM 9.82 49.676 0.027 6.41 3.99 11.41
11/13/2022 10:30:00 AM 9.86 49.748 0.027 6.45 4.11 11.42
11/13/2022 10:45:00 AM 9.85 49.73 0.027 6.49 4.05 11.42
11/13/2022 11:00:00 AM 9.83 49.694 0.027 6.5 4.04 11.41
11/13/2022 11:15:00 AM 9.88 49.784 0.027 6.46 3.95 11.42
11/13/2022 11:30:00 AM 9.95 49.91 0.027 6.49 3.78 11.41
11/13/2022 11:45:00 AM 9.89 49.802 0.027 6.47 3.94 11.4
11/13/2022 12:00:00 PM 9.92 49.856 0.027 6.5 3.91 11.39
11/13/2022 12:15:00 PM 9.93 49.874 0.027 6.45 3.97 11.4
11/13/2022 12:30:00 PM 9.94 49.892 0.027 6.51 3.83 11.4
11/13/2022 12:45:00 PM 9.87 49.766 0.027 6.49 3.66 11.37
11/13/2022 1:00:00 PM 9.85 49.73 0.027 6.5 3.78 11.38
11/13/2022 1:15:00 PM 9.85 49.73 0.027 6.47 3.86 11.4
11/13/2022 1:30:00 PM 9.82 49.676 0.027 6.48 3.74 11.42
11/13/2022 1:45:00 PM 9.82 49.676 0.027 6.52 4.86 11.43
11/13/2022 2:00:00 PM 9.82 49.676 0.027 6.51 3.73 11.44
11/13/2022 2:15:00 PM 9.82 49.676 0.027 6.45 3.78 11.44
11/13/2022 2:30:00 PM 9.8 49.64 0.027 6.49 3.75 11.44
11/13/2022 2:45:00 PM 9.81 49.658 0.027 6.5 3.75 11.44
11/13/2022 3:00:00 PM 9.78 49.604 0.027 6.51 3.62 11.43
11/13/2022 3:15:00 PM 9.74 49.532 0.027 6.52 3.72 11.42
11/13/2022 3:30:00 PM 9.71 49.478 0.027 6.43 3.57 11.43
11/13/2022 3:45:00 PM 9.68 49.424 0.027 6.45 3.6 11.42
11/13/2022 4:00:00 PM 9.64 49.352 0.027 6.48 3.57 11.42
11/13/2022 4:15:00 PM 9.6 49.28 0.027 6.45 3.51 11.42
11/13/2022 4:30:00 PM 9.55 49.19 0.027 6.43 3.53 11.43
11/13/2022 4:45:00 PM 9.48 49.064 0.028 6.43 3.6 11.43
11/13/2022 5:00:00 PM 9.42 48.956 0.028 6.42 3.52 11.43
11/13/2022 5:15:00 PM 9.37 48.866 0.028 6.41 3.47 11.43
11/13/2022 5:30:00 PM 9.32 48.776 0.028 6.4 3.57 11.45
11/13/2022 5:45:00 PM 9.27 48.686 0.028 6.41 3.51 11.45
11/13/2022 6:00:00 PM 9.23 48.614 0.028 6.4 3.41 11.47
11/13/2022 6:15:00 PM 9.19 48.542 0.028 6.38 3.47 11.48
11/13/2022 6:30:00 PM 9.16 48.488 0.028 6.44 3.42 11.5
11/13/2022 6:45:00 PM 9.11 48.398 0.028 6.41 3.46 11.51
11/13/2022 7:00:00 PM 9.07 48.326 0.028 6.4 3.46 11.53
11/13/2022 7:15:00 PM 9.04 48.272 0.028 6.44 3.43 11.54
11/13/2022 7:30:00 PM 9 48.2 0.028 6.42 3.32 11.55
11/13/2022 7:45:00 PM 8.96 48.128 0.028 6.44 3.41 11.56
11/13/2022 8:00:00 PM 8.92 48.056 0.028 6.42 3.33 11.58
11/13/2022 8:15:00 PM 8.88 47.984 0.028 6.44 3.39 11.59
11/13/2022 8:30:00 PM 8.84 47.912 0.028 6.39 3.32 11.6
11/13/2022 8:45:00 PM 8.79 47.822 0.028 6.44 3.38 11.62
11/13/2022 9:00:00 PM 8.76 47.768 0.028 6.36 3.28 11.63
11/13/2022 9:15:00 PM 8.71 47.678 0.028 6.44 3.15 11.65
11/13/2022 9:30:00 PM 8.66 47.588 0.028 6.36 3.22 11.66
11/13/2022 9:45:00 PM 8.63 47.534 0.028 6.4 3.35 11.68
11/13/2022 10:00:00 PM 8.59 47.462 0.028 6.43 3.38 11.69
11/13/2022 10:15:00 PM 8.56 47.408 0.028 6.42 3.22 11.7
11/13/2022 10:30:00 PM 8.52 47.336 0.028 6.39 3.18 11.71
11/13/2022 10:45:00 PM 8.48 47.264 0.028 6.4 3.11 11.73
11/13/2022 11:00:00 PM 8.45 47.21 0.028 6.44 3.24 11.73
11/13/2022 11:15:00 PM 8.39 47.102 0.028 6.42 3.19 11.75
11/13/2022 11:30:00 PM 8.36 47.048 0.028 6.4 3.04 11.75
11/13/2022 11:45:00 PM 8.31 46.958 0.028 6.45 3.14 11.77
11/14/2022 12:00:00 AM 8.28 46.904 0.028 6.4 3.09 11.77
11/14/2022 12:15:00 AM 8.26 46.868 0.028 6.4 3.23 11.79
11/14/2022 12:30:00 AM 8.23 46.814 0.028 6.43 3.15 11.8
11/14/2022 12:45:00 AM 8.21 46.778 0.028 6.41 3.04 11.8
11/14/2022 1:00:00 AM 8.18 46.724 0.028 6.42 3.17 11.82
11/14/2022 1:15:00 AM 8.14 46.652 0.028 6.38 3.05 11.83
11/14/2022 1:30:00 AM 8.1 46.58 0.028 6.45 3.04 11.84
11/14/2022 1:45:00 AM 8.06 46.508 0.028 6.41 3.09 11.85
11/14/2022 2:00:00 AM 8.01 46.418 0.028 6.38 3.02 11.87
11/14/2022 2:15:00 AM 7.96 46.328 0.028 6.43 3.07 11.88
11/14/2022 2:30:00 AM 7.91 46.238 0.028 6.41 2.95 11.9
11/14/2022 2:45:00 AM 7.86 46.148 0.028 6.39 3.01 11.92
11/14/2022 3:00:00 AM 7.82 46.076 0.028 6.38 2.98 11.93
11/14/2022 3:15:00 AM 7.76 45.968 0.028 6.44 2.96 11.95
11/14/2022 3:30:00 AM 7.71 45.878 0.028 6.38 3.01 11.96
11/14/2022 3:45:00 AM 7.66 45.788 0.028 6.38 2.94 11.98
11/14/2022 4:00:00 AM 7.61 45.698 0.028 6.38 3.01 12
11/14/2022 4:15:00 AM 7.56 45.608 0.028 6.42 3.03 12.02
11/14/2022 4:30:00 AM 7.52 45.536 0.028 6.41 2.94 12.04
11/14/2022 4:45:00 AM 7.47 45.446 0.028 6.42 3 12.06
11/14/2022 5:00:00 AM 7.43 45.374 0.028 6.38 2.95 12.07
11/14/2022 5:15:00 AM 7.4 45.32 0.028 6.41 3 12.08
11/14/2022 5:30:00 AM 7.36 45.248 0.029 6.39 2.89 12.1
11/14/2022 5:45:00 AM 7.31 45.158 0.028 6.43 2.95 12.12
11/14/2022 6:00:00 AM 7.27 45.086 0.028 6.38 2.84 12.13
11/14/2022 6:15:00 AM 7.22 44.996 0.028 6.4 2.87 12.15
11/14/2022 6:30:00 AM 7.18 44.924 0.028 6.41 2.93 12.17
11/14/2022 6:45:00 AM 7.13 44.834 0.028 6.44 2.77 12.18
11/14/2022 7:00:00 AM 7.09 44.762 0.028 6.42 2.79 12.2
11/14/2022 7:15:00 AM 7.06 44.708 0.028 6.39 2.81 12.23
11/14/2022 7:30:00 AM 7.03 44.654 0.029 6.41 2.73 12.26
11/14/2022 7:45:00 AM 7 44.6 0.028 6.44 2.86 12.29
11/14/2022 8:00:00 AM 6.97 44.546 0.028 6.4 2.78 12.31
11/14/2022 8:15:00 AM 6.95 44.51 0.029 6.44 2.79 12.33
11/14/2022 8:30:00 AM 6.93 44.474 0.028 6.4 2.71 12.35
11/14/2022 8:45:00 AM 6.91 44.438 0.029 6.43 2.71 12.36
11/14/2022 9:00:00 AM 6.9 44.42 0.029 6.44 2.72 12.38
11/14/2022 9:15:00 AM 6.9 44.42 0.029 6.46 2.72 12.4
11/14/2022 9:30:00 AM 6.94 44.492 0.029 6.45 2.67 12.41
11/14/2022 9:45:00 AM 6.97 44.546 0.029 6.47 2.66 12.42
11/14/2022 10:00:00 AM 7.01 44.618 0.029 6.45 2.56 12.42
11/14/2022 10:15:00 AM 7.07 44.726 0.028 6.49 2.64 12.42
11/14/2022 10:30:00 AM 7.1 44.78 0.029 6.46 2.6 12.43
11/14/2022 10:45:00 AM 7.14 44.852 0.029 6.53 2.66 12.42
11/14/2022 11:00:00 AM 7.16 44.888 0.029 6.47 2.62 12.42
11/14/2022 11:15:00 AM 7.19 44.942 0.029 6.53 2.64 12.4
11/14/2022 11:30:00 AM 7.25 45.05 0.029 6.49 2.59 12.39
11/14/2022 11:45:00 AM 7.31 45.158 0.029 6.5 2.58 12.37
11/14/2022 12:00:00 PM 7.37 45.266 0.029 6.51 2.47 12.36
11/14/2022 12:15:00 PM 7.37 45.266 0.028 6.49 2.52 12.34
11/14/2022 12:30:00 PM 7.43 45.374 0.029 6.5 2.49 12.34
11/14/2022 12:45:00 PM 7.4 45.32 0.029 6.46 2.59 12.33
11/14/2022 1:00:00 PM 7.44 45.392 0.029 6.54 2.57 12.32
11/14/2022 1:15:00 PM 7.47 45.446 0.029 6.48 2.59 12.32
11/14/2022 1:30:00 PM 7.47 45.446 0.029 6.54 2.55 12.31
11/14/2022 1:45:00 PM 7.43 45.374 0.029 6.53 2.57 12.3
11/14/2022 2:00:00 PM 7.44 45.392 0.029 6.54 2.62 12.3
11/14/2022 2:15:00 PM 7.46 45.428 0.029 6.52 2.6 12.3
11/14/2022 2:30:00 PM 7.42 45.356 0.029 6.51 2.7 12.28
11/14/2022 2:45:00 PM 7.46 45.428 0.029 6.47 2.64 12.28
11/14/2022 3:00:00 PM 7.45 45.41 0.029 6.55 2.67 12.27
11/14/2022 3:15:00 PM 7.43 45.374 0.029 6.47 2.51 12.27
11/14/2022 3:30:00 PM 7.42 45.356 0.029 6.54 2.6 12.25
11/14/2022 3:45:00 PM 7.4 45.32 0.029 6.46 2.56 12.23
11/14/2022 4:00:00 PM 7.38 45.284 0.029 6.47 2.61 12.21
11/14/2022 4:15:00 PM 7.35 45.23 0.029 6.5 2.54 12.21
11/14/2022 4:30:00 PM 7.32 45.176 0.029 6.47 2.46 12.21
11/14/2022 4:45:00 PM 7.28 45.104 0.029 6.47 2.54 12.2
11/14/2022 5:00:00 PM 7.25 45.05 0.029 6.5 2.5 12.19
11/14/2022 5:15:00 PM 7.23 45.014 0.03 6.48 2.49 12.19
11/14/2022 5:30:00 PM 7.2 44.96 0.029 6.46 2.62 12.19
11/14/2022 5:45:00 PM 7.18 44.924 0.029 6.49 2.67 12.19
11/14/2022 6:00:00 PM 7.15 44.87 0.029 6.47 2.59 12.2
11/14/2022 6:15:00 PM 7.11 44.798 0.029 6.44 2.54 12.21
11/14/2022 6:30:00 PM 7.07 44.726 0.029 6.44 2.53 12.22
11/14/2022 6:45:00 PM 7.02 44.636 0.029 6.46 2.6 12.24
11/14/2022 7:00:00 PM 6.98 44.564 0.029 6.47 2.55 12.25
11/14/2022 7:15:00 PM 6.92 44.456 0.03 6.41 2.49 12.27
11/14/2022 7:30:00 PM 6.87 44.366 0.029 6.44 2.55 12.29
11/14/2022 7:45:00 PM 6.82 44.276 0.03 6.42 2.51 12.31
11/14/2022 8:00:00 PM 6.77 44.186 0.03 6.39 2.57 12.33
11/14/2022 8:15:00 PM 6.71 44.078 0.03 6.42 2.47 12.34
11/14/2022 8:30:00 PM 6.66 43.988 0.029 6.38 2.56 12.36
11/14/2022 8:45:00 PM 6.62 43.916 0.03 6.44 2.49 12.38
11/14/2022 9:00:00 PM 6.57 43.826 0.03 6.45 2.55 12.39
11/14/2022 9:15:00 PM 6.53 43.754 0.03 6.44 2.43 12.4
11/14/2022 9:30:00 PM 6.48 43.664 0.03 6.45 2.49 12.42
11/14/2022 9:45:00 PM 6.44 43.592 0.03 6.42 2.45 12.44
11/14/2022 10:00:00 PM 6.39 43.502 0.03 6.45 2.43 12.45
11/14/2022 10:15:00 PM 6.35 43.43 0.03 6.45 2.5 12.47
11/14/2022 10:30:00 PM 6.31 43.358 0.03 6.43 2.47 12.48
11/14/2022 10:45:00 PM 6.27 43.286 0.03 6.4 2.39 12.49
11/14/2022 11:00:00 PM 6.23 43.214 0.03 6.44 2.51 12.5
11/14/2022 11:15:00 PM 6.19 43.142 0.03 6.42 2.44 12.52
11/14/2022 11:30:00 PM 6.16 43.088 0.03 6.42 2.45 12.53
11/14/2022 11:45:00 PM 6.12 43.016 0.03 6.43 2.48 12.55
11/15/2022 12:00:00 AM 6.08 42.944 0.03 6.46 2.43 12.56
11/15/2022 12:15:00 AM 6.04 42.872 0.03 6.45 2.46 12.57
11/15/2022 12:30:00 AM 6.01 42.818 0.03 6.42 2.36 12.59
11/15/2022 12:45:00 AM 5.98 42.764 0.03 6.43 2.38 12.59
11/15/2022 1:00:00 AM 5.95 42.71 0.03 6.43 2.38 12.6
11/15/2022 1:15:00 AM 5.91 42.638 0.03 6.42 2.37 12.61
11/15/2022 1:30:00 AM 5.87 42.566 0.03 6.46 2.31 12.62
11/15/2022 1:45:00 AM 5.84 42.512 0.03 6.39 2.38 12.64
11/15/2022 2:00:00 AM 5.81 42.458 0.03 6.39 2.33 12.65
11/15/2022 2:15:00 AM 5.77 42.386 0.03 6.37 2.31 12.66
11/15/2022 2:30:00 AM 5.74 42.332 0.03 6.4 2.38 12.67
11/15/2022 2:45:00 AM 5.71 42.278 0.03 6.42 2.37 12.68
11/15/2022 3:00:00 AM 5.68 42.224 0.03 6.45 2.38 12.69
11/15/2022 3:15:00 AM 5.65 42.17 0.03 6.45 2.37 12.71
11/15/2022 3:30:00 AM 5.62 42.116 0.03 6.44 2.43 12.71
11/15/2022 3:45:00 AM 5.58 42.044 0.03 6.45 2.29 12.73
11/15/2022 4:00:00 AM 5.55 41.99 0.03 6.42 2.3 12.74
11/15/2022 4:15:00 AM 5.53 41.954 0.03 6.4 2.38 12.75
11/15/2022 4:30:00 AM 5.5 41.9 0.03 6.4 2.28 12.76
11/15/2022 4:45:00 AM 5.47 41.846 0.03 6.45 2.29 12.77
11/15/2022 5:00:00 AM 5.45 41.81 0.03 6.41 2.34 12.78
11/15/2022 5:15:00 AM 5.42 41.756 0.03 6.41 2.27 12.79
11/15/2022 5:30:00 AM 5.39 41.702 0.03 6.45 2.35 12.81
11/15/2022 5:45:00 AM 5.37 41.666 0.03 6.43 2.28 12.81
11/15/2022 6:00:00 AM 5.34 41.612 0.03 6.43 2.27 12.82
11/15/2022 6:15:00 AM 5.33 41.594 0.03 6.43 2.29 12.83
11/15/2022 6:30:00 AM 5.32 41.576 0.03 6.43 2.28 12.84
11/15/2022 6:45:00 AM 5.3 41.54 0.03 6.41 2.24 12.85
11/15/2022 7:00:00 AM 5.27 41.486 0.03 6.42 2.26 12.86
11/15/2022 7:15:00 AM 5.25 41.45 0.03 6.4 2.34 12.88
11/15/2022 7:30:00 AM 5.23 41.414 0.03 6.39 2.27 12.9
11/15/2022 7:45:00 AM 5.22 41.396 0.03 6.42 2.3 12.93
11/15/2022 8:00:00 AM 5.23 41.414 0.03 6.5 2.24 12.96
11/15/2022 8:15:00 AM 5.23 41.414 0.03 6.45 2.3 12.99
11/15/2022 8:30:00 AM 5.25 41.45 0.03 6.51 2.15 13.01
11/15/2022 8:45:00 AM 5.28 41.504 0.03 6.5 2.18 13.02
11/15/2022 9:00:00 AM 5.33 41.594 0.03 6.46 2.2 13.03
11/15/2022 9:15:00 AM 5.37 41.666 0.03 6.48 2.27 13.02
11/15/2022 9:30:00 AM 5.43 41.774 0.03 6.5 2.23 13.01
11/15/2022 9:45:00 AM 5.49 41.882 0.03 6.5 2.23 13
11/15/2022 10:00:00 AM 5.53 41.954 0.03 6.49 2.18 12.98
11/15/2022 10:15:00 AM 5.59 42.062 0.03 6.51 2.2 12.97
11/15/2022 10:30:00 AM 5.65 42.17 0.03 6.48 2.26 12.96
11/15/2022 10:45:00 AM 5.73 42.314 0.03 6.54 2.11 12.94
11/15/2022 11:00:00 AM 5.78 42.404 0.03 6.48 2.14 12.92
11/15/2022 11:15:00 AM 5.82 42.476 0.03 6.55 2.16 12.9
11/15/2022 11:30:00 AM 5.88 42.584 0.03 6.51 2.24 12.87
11/15/2022 11:45:00 AM 5.93 42.674 0.03 6.52 2.21 12.85
11/15/2022 12:00:00 PM 5.97 42.746 0.03 6.56 2.12 12.83
11/15/2022 12:15:00 PM 5.98 42.764 0.03 6.54 2.12 12.81
11/15/2022 12:30:00 PM 5.99 42.782 0.03 6.52 2.15 12.79
11/15/2022 12:45:00 PM 6.01 42.818 0.03 6.5 2.12 12.76
11/15/2022 1:00:00 PM 6.02 42.836 0.03 6.49 2.17 12.74
11/15/2022 1:15:00 PM 6.04 42.872 0.03 6.48 2.21 12.74
11/15/2022 1:30:00 PM 6.06 42.908 0.03 6.49 2.12 12.72
11/15/2022 1:45:00 PM 6.08 42.944 0.03 6.5 2.14 12.7
11/15/2022 2:00:00 PM 6.1 42.98 0.03 6.56 2.2 12.69
11/15/2022 2:15:00 PM 6.11 42.998 0.03 6.51 2.26 12.67
11/15/2022 2:30:00 PM 6.13 43.034 0.03 6.53 2.21 12.67
11/15/2022 2:45:00 PM 6.16 43.088 0.031 6.5 2.21 12.67
11/15/2022 3:00:00 PM 6.17 43.106 0.031 6.49 2.18 12.64
11/15/2022 3:15:00 PM 6.19 43.142 0.03 6.5 2.14 12.63
11/15/2022 3:30:00 PM 6.2 43.16 0.031 6.47 2.23 12.6
11/15/2022 3:45:00 PM 6.2 43.16 0.031 6.49 2.15 12.57
11/15/2022 4:00:00 PM 6.18 43.124 0.031 6.47 2.32 12.56
11/15/2022 4:15:00 PM 6.16 43.088 0.031 6.5 2.19 12.54
11/15/2022 4:30:00 PM 6.12 43.016 0.031 6.48 2.21 12.53
11/15/2022 4:45:00 PM 6.04 42.872 0.031 6.49 2.23 12.52
11/15/2022 5:00:00 PM 5.9 42.62 0.031 6.51 2.26 12.53
11/15/2022 5:15:00 PM 5.82 42.476 0.031 6.47 2.09 12.54
11/15/2022 5:30:00 PM 5.71 42.278 0.031 6.48 2.14 12.57
11/15/2022 5:45:00 PM 5.6 42.08 0.031 6.52 2.25 12.6
11/15/2022 6:00:00 PM 5.48 41.864 0.031 6.52 2.22 12.64
11/15/2022 6:15:00 PM 5.4 41.72 0.031 6.51 2.2 12.67
11/15/2022 6:30:00 PM 5.32 41.576 0.031 6.45 2.24 12.71
11/15/2022 6:45:00 PM 5.24 41.432 0.031 6.46 2.26 12.75
11/15/2022 7:00:00 PM 5.13 41.234 0.031 6.44 2.2 12.78
11/15/2022 7:15:00 PM 5.03 41.054 0.031 6.42 2.27 12.81
11/15/2022 7:30:00 PM 4.92 40.856 0.031 6.41 2.21 12.84
11/15/2022 7:45:00 PM 4.83 40.694 0.031 6.44 2.17 12.87
11/15/2022 8:00:00 PM 4.77 40.586 0.031 6.42 2.17 12.9
11/15/2022 8:15:00 PM 4.71 40.478 0.031 6.41 2.18 12.93
11/15/2022 8:30:00 PM 4.63 40.334 0.031 6.42 2.21 12.96
11/15/2022 8:45:00 PM 4.56 40.208 0.031 6.42 2.2 12.97
11/15/2022 9:00:00 PM 4.55 40.19 0.031 6.48 2.11 13.01
11/15/2022 9:15:00 PM 4.53 40.154 0.03 6.44 2.18 13.03
11/15/2022 9:30:00 PM 4.5 40.1 0.03 6.44 2.24 13.05
11/15/2022 9:45:00 PM 4.49 40.082 0.031 6.51 2.24 13.06
11/15/2022 10:00:00 PM 4.48 40.064 0.031 6.51 2.17 13.07
11/15/2022 10:15:00 PM 4.48 40.064 0.031 6.48 2.23 13.06
11/15/2022 10:30:00 PM 4.51 40.118 0.03 6.45 2.13 13.06
11/15/2022 10:45:00 PM 4.51 40.118 0.03 6.48 2.15 13.06
11/15/2022 11:00:00 PM 4.52 40.136 0.031 6.47 2.21 13.05
11/15/2022 11:15:00 PM 4.55 40.19 0.031 6.43 2.22 13.03
11/15/2022 11:30:00 PM 4.58 40.244 0.03 6.46 2.2 13.02
11/15/2022 11:45:00 PM 4.61 40.298 0.031 6.47 2.24 13.01
11/16/2022 12:00:00 AM 4.64 40.352 0.031 6.52 2.19 12.99
11/16/2022 12:15:00 AM 4.68 40.424 0.031 6.43 2.11 12.97
11/16/2022 12:30:00 AM 4.71 40.478 0.031 6.52 2.33 12.95
11/16/2022 12:45:00 AM 4.74 40.532 0.032 6.48 2.18 12.94
11/16/2022 1:00:00 AM 4.75 40.55 0.032 6.44 2.26 12.93
11/16/2022 1:15:00 AM 4.77 40.586 0.033 6.53 2.22 12.92
11/16/2022 1:30:00 AM 4.79 40.622 0.034 6.45 2.32 12.91
11/16/2022 1:45:00 AM 4.82 40.676 0.035 6.48 2.26 12.89
11/16/2022 2:00:00 AM 4.85 40.73 0.035 6.5 2.29 12.87
11/16/2022 2:15:00 AM 4.88 40.784 0.036 6.52 2.32 12.86
11/16/2022 2:30:00 AM 4.92 40.856 0.036 6.5 2.32 12.85
11/16/2022 2:45:00 AM 4.95 40.91 0.037 6.51 2.45 12.82
11/16/2022 3:00:00 AM 4.98 40.964 0.037 6.5 2.48 12.81
11/16/2022 3:15:00 AM 5.01 41.018 0.038 6.51 2.56 12.81
11/16/2022 3:30:00 AM 5.04 41.072 0.039 6.5 2.65 12.8
11/16/2022 3:45:00 AM 5.06 41.108 0.04 6.55 2.7 12.79
11/16/2022 4:00:00 AM 5.08 41.144 0.039 6.53 2.73 12.78
11/16/2022 4:15:00 AM 5.11 41.198 0.04 6.58 2.95 12.77
11/16/2022 4:30:00 AM 5.14 41.252 0.04 6.55 2.88 12.77
11/16/2022 4:45:00 AM 5.17 41.306 0.04 6.53 2.83 12.76
11/16/2022 5:00:00 AM 5.19 41.342 0.04 6.55 2.86 12.75
11/16/2022 5:15:00 AM 5.22 41.396 0.041 6.57 2.91 12.74
11/16/2022 5:30:00 AM 5.24 41.432 0.041 6.57 3 12.74
11/16/2022 5:45:00 AM 5.28 41.504 0.041 6.57 3.01 12.72
11/16/2022 6:00:00 AM 5.3 41.54 0.041 6.55 3.02 12.71
11/16/2022 6:15:00 AM 5.33 41.594 0.041 6.62 3.09 12.7
11/16/2022 6:30:00 AM 5.35 41.63 0.04 6.57 3.14 12.7
11/16/2022 6:45:00 AM 5.38 41.684 0.04 6.57 3.19 12.69
11/16/2022 7:00:00 AM 5.4 41.72 0.04 6.59 3.11 12.68
11/16/2022 7:15:00 AM 5.43 41.774 0.04 6.55 3.15 12.68
11/16/2022 7:30:00 AM 5.45 41.81 0.039 6.61 2.94 12.68
11/16/2022 7:45:00 AM 5.48 41.864 0.039 6.57 3.02 12.69
11/16/2022 8:00:00 AM 5.51 41.918 0.038 6.56 3.02 12.7
11/16/2022 8:15:00 AM 5.55 41.99 0.038 6.55 2.95 12.71
11/16/2022 8:30:00 AM 5.59 42.062 0.037 6.58 3.1 12.73
11/16/2022 8:45:00 AM 5.66 42.188 0.037 6.57 3.06 12.74
11/16/2022 9:00:00 AM 5.72 42.296 0.037 6.56 3 12.74
11/16/2022 9:15:00 AM 5.77 42.386 0.036 6.63 3 12.73
11/16/2022 9:30:00 AM 5.82 42.476 0.036 6.63 3 12.71
11/16/2022 9:45:00 AM 5.87 42.566 0.036 6.62 2.86 12.69
11/16/2022 10:00:00 AM 5.91 42.638 0.036 6.64 2.9 12.67
11/16/2022 10:15:00 AM 5.94 42.692 0.036 6.64 3.07 12.66
11/16/2022 10:30:00 AM 5.99 42.782 0.036 6.61 3.06 12.65
11/16/2022 10:45:00 AM 6.06 42.908 0.036 6.61 3.11 12.64
11/16/2022 11:00:00 AM 6.14 43.052 0.036 6.63 3.12 12.63
11/16/2022 11:15:00 AM 6.19 43.142 0.036 6.62 3.03 12.61
11/16/2022 11:30:00 AM 6.26 43.268 0.036 6.61 3.06 12.59
11/16/2022 11:45:00 AM 6.31 43.358 0.036 6.66 3.15 12.57
11/16/2022 12:00:00 PM 6.37 43.466 0.037 6.63 3.01 12.55
11/16/2022 12:15:00 PM 6.42 43.556 0.036 6.69 3.15 12.54
11/16/2022 12:30:00 PM 6.49 43.682 0.036 6.64 3.14 12.52
11/16/2022 12:45:00 PM 6.58 43.844 0.037 6.66 3.26 12.5
11/16/2022 1:00:00 PM 6.59 43.862 0.037 6.65 3.41 12.48
11/16/2022 1:15:00 PM 6.61 43.898 0.037 6.64 3.4 12.46
11/16/2022 1:30:00 PM 6.65 43.97 0.037 6.65 3.61 12.44
11/16/2022 1:45:00 PM 6.68 44.024 0.037 6.66 3.66 12.42
11/16/2022 2:00:00 PM 6.69 44.042 0.037 6.68 3.79 12.4
11/16/2022 2:15:00 PM 6.7 44.06 0.038 6.66 4 12.38
11/16/2022 2:30:00 PM 6.7 44.06 0.038 6.66 4.01 12.37
11/16/2022 2:45:00 PM 6.7 44.06 0.038 6.68 4.01 12.36
11/16/2022 3:00:00 PM 6.71 44.078 0.037 6.67 4.13 12.36
11/16/2022 3:15:00 PM 6.72 44.096 0.037 6.67 4.14 12.34
11/16/2022 3:30:00 PM 6.72 44.096 0.037 6.71 3.95 12.32
11/16/2022 3:45:00 PM 6.72 44.096 0.037 6.67 3.92 12.33
11/16/2022 4:00:00 PM 6.71 44.078 0.037 6.67 3.9 12.33
11/16/2022 4:15:00 PM 6.7 44.06 0.037 6.69 3.77 12.31
11/16/2022 4:30:00 PM 6.68 44.024 0.036 6.64 3.84 12.3
11/16/2022 4:45:00 PM 6.66 43.988 0.036 6.69 4.05 12.29
11/16/2022 5:00:00 PM 6.63 43.934 0.036 6.65 4.02 12.28
11/16/2022 5:15:00 PM 6.6 43.88 0.036 6.61 3.97 12.29
11/16/2022 5:30:00 PM 6.57 43.826 0.036 6.68 3.84 12.29
11/16/2022 5:45:00 PM 6.53 43.754 0.036 6.62 4.02 12.3
11/16/2022 6:00:00 PM 6.5 43.7 0.036 6.62 3.72 12.3
11/16/2022 6:15:00 PM 6.46 43.628 0.036 6.63 3.46 12.32
11/16/2022 6:30:00 PM 6.43 43.574 0.036 6.61 3.44 12.33
11/16/2022 6:45:00 PM 6.39 43.502 0.036 6.6 3.48 12.33
11/16/2022 7:00:00 PM 6.35 43.43 0.035 6.65 3.23 12.34
11/16/2022 7:15:00 PM 6.31 43.358 0.035 6.59 3.12 12.36
11/16/2022 7:30:00 PM 6.28 43.304 0.035 6.59 3.18 12.37
11/16/2022 7:45:00 PM 6.25 43.25 0.035 6.61 3.14 12.38
11/16/2022 8:00:00 PM 6.21 43.178 0.035 6.58 3.34 12.39
11/16/2022 8:15:00 PM 6.18 43.124 0.035 6.61 3.15 12.4
11/16/2022 8:30:00 PM 6.15 43.07 0.035 6.59 3.01 12.41
11/16/2022 8:45:00 PM 6.12 43.016 0.035 6.57 2.96 12.42
11/16/2022 9:00:00 PM 6.08 42.944 0.035 6.57 2.98 12.43
11/16/2022 9:15:00 PM 6.04 42.872 0.035 6.6 2.91 12.44
11/16/2022 9:30:00 PM 6.01 42.818 0.035 6.58 2.9 12.45
11/16/2022 9:45:00 PM 5.99 42.782 0.035 6.59 2.89 12.46
11/16/2022 10:00:00 PM 5.96 42.728 0.035 6.58 2.87 12.47
11/16/2022 10:15:00 PM 5.93 42.674 0.035 6.59 2.83 12.48
11/16/2022 10:30:00 PM 5.91 42.638 0.035 6.57 2.87 12.48
11/16/2022 10:45:00 PM 5.88 42.584 0.035 6.61 2.83 12.49
11/16/2022 11:00:00 PM 5.86 42.548 0.035 6.55 2.77 12.49
11/16/2022 11:15:00 PM 5.85 42.53 0.035 6.59 2.77 12.5
11/16/2022 11:30:00 PM 5.84 42.512 0.035 6.54 2.74 12.5
11/16/2022 11:45:00 PM 5.83 42.494 0.035 6.55 2.64 12.51
11/17/2022 12:00:00 AM 5.83 42.494 0.035 6.56 2.7 12.5
11/17/2022 12:15:00 AM 5.83 42.494 0.035 6.56 2.69 12.51
11/17/2022 12:30:00 AM 5.82 42.476 0.035 6.57 2.69 12.51
11/17/2022 12:45:00 AM 5.81 42.458 0.034 6.56 2.63 12.51
11/17/2022 1:00:00 AM 5.8 42.44 0.034 6.54 2.64 12.51
11/17/2022 1:15:00 AM 5.79 42.422 0.035 6.54 2.56 12.51
11/17/2022 1:30:00 AM 5.77 42.386 0.034 6.54 2.6 12.51
11/17/2022 1:45:00 AM 5.75 42.35 0.034 6.54 2.56 12.52
11/17/2022 2:00:00 AM 5.74 42.332 0.034 6.58 2.5 12.52
11/17/2022 2:15:00 AM 5.73 42.314 0.034 6.56 2.53 12.52
11/17/2022 2:30:00 AM 5.71 42.278 0.034 6.56 2.45 12.53
11/17/2022 2:45:00 AM 5.7 42.26 0.034 6.53 2.48 12.53
11/17/2022 3:00:00 AM 5.69 42.242 0.034 6.53 2.43 12.53
11/17/2022 3:15:00 AM 5.68 42.224 0.034 6.55 2.5 12.54
11/17/2022 3:30:00 AM 5.67 42.206 0.034 6.59 2.51 12.54
11/17/2022 3:45:00 AM 5.67 42.206 0.034 6.52 2.43 12.53
11/17/2022 4:00:00 AM 5.66 42.188 0.034 6.59 2.39 12.54
11/17/2022 4:15:00 AM 5.66 42.188 0.034 6.59 2.35 12.54
11/17/2022 4:30:00 AM 5.65 42.17 0.034 6.53 2.51 12.54
11/17/2022 4:45:00 AM 5.65 42.17 0.034 6.54 2.33 12.54
11/17/2022 5:00:00 AM 5.64 42.152 0.034 6.54 2.46 12.54
11/17/2022 5:15:00 AM 5.62 42.116 0.034 6.53 2.32 12.55
11/17/2022 5:30:00 AM 5.62 42.116 0.034 6.52 2.28 12.55
11/17/2022 5:45:00 AM 5.61 42.098 0.034 6.53 2.38 12.55
11/17/2022 6:00:00 AM 5.6 42.08 0.034 6.58 2.33 12.55
11/17/2022 6:15:00 AM 5.59 42.062 0.034 6.58 2.34 12.55
11/17/2022 6:30:00 AM 5.58 42.044 0.034 6.58 2.3 12.56
11/17/2022 6:45:00 AM 5.57 42.026 0.034 6.53 2.3 12.56
11/17/2022 7:00:00 AM 5.57 42.026 0.034 6.54 2.32 12.57
11/17/2022 7:15:00 AM 5.55 41.99 0.034 6.54 2.34 12.58
11/17/2022 7:30:00 AM 5.54 41.972 0.033 6.55 2.23 12.61
11/17/2022 7:45:00 AM 5.52 41.936 0.033 6.52 2.28 12.62
11/17/2022 8:00:00 AM 5.51 41.918 0.033 6.54 2.25 12.65
11/17/2022 8:15:00 AM 5.49 41.882 0.033 6.52 2.28 12.66
11/17/2022 8:30:00 AM 5.48 41.864 0.034 6.56 2.09 12.69
11/17/2022 8:45:00 AM 5.47 41.846 0.033 6.56 2.23 12.7
11/17/2022 9:00:00 AM 5.46 41.828 0.033 6.57 2.25 12.72
11/17/2022 9:15:00 AM 5.46 41.828 0.033 6.6 2.26 12.73
11/17/2022 9:30:00 AM 5.45 41.81 0.033 6.57 2.18 12.75
11/17/2022 9:45:00 AM 5.47 41.846 0.033 6.55 2.18 12.76
11/17/2022 10:00:00 AM 5.49 41.882 0.033 6.55 2.2 12.77
11/17/2022 10:15:00 AM 5.55 41.99 0.033 6.57 2.14 12.77
11/17/2022 10:30:00 AM 5.62 42.116 0.033 6.53 2.2 12.76
11/17/2022 10:45:00 AM 5.66 42.188 0.033 6.57 2.18 12.76
11/17/2022 11:00:00 AM 5.67 42.206 0.033 6.56 2.16 12.75
11/17/2022 11:15:00 AM 5.71 42.278 0.033 6.55 2.17 12.75
11/17/2022 11:30:00 AM 5.76 42.368 0.033 6.57 2.16 12.74
11/17/2022 11:45:00 AM 5.8 42.44 0.033 6.56 2.18 12.73
11/17/2022 12:00:00 PM 5.83 42.494 0.033 6.62 2.17 12.72
11/17/2022 12:15:00 PM 5.9 42.62 0.033 6.56 2.13 12.7
11/17/2022 12:30:00 PM 5.92 42.656 0.033 6.56 2.11 12.68
11/17/2022 12:45:00 PM 5.95 42.71 0.033 6.57 2.19 12.67
11/17/2022 1:00:00 PM 5.99 42.782 0.033 6.59 2.11 12.65
11/17/2022 1:15:00 PM 6.02 42.836 0.033 6.54 2.08 12.64
11/17/2022 1:30:00 PM 6.06 42.908 0.033 6.58 2.11 12.63
11/17/2022 1:45:00 PM 6.03 42.854 0.033 6.58 2.22 12.62
11/17/2022 2:00:00 PM 6.01 42.818 0.033 6.58 2.16 12.62
11/17/2022 2:15:00 PM 6.08 42.944 0.033 6.56 2.13 12.62
11/17/2022 2:30:00 PM 6.15 43.07 0.033 6.6 2.1 12.61
11/17/2022 2:45:00 PM 6.19 43.142 0.033 6.57 2.12 12.59
11/17/2022 3:00:00 PM 6.18 43.124 0.033 6.59 2.13 12.57
11/17/2022 3:15:00 PM 6.18 43.124 0.033 6.57 2.17 12.56
11/17/2022 3:30:00 PM 6.18 43.124 0.033 6.56 2.19 12.54
11/17/2022 3:45:00 PM 6.16 43.088 0.033 6.58 2.12 12.53
11/17/2022 4:00:00 PM 6.15 43.07 0.033 6.61 2.08 12.51
11/17/2022 4:15:00 PM 6.12 43.016 0.033 6.57 2.11 12.5
11/17/2022 4:30:00 PM 6.11 42.998 0.033 6.56 2.11 12.48
11/17/2022 4:45:00 PM 6.09 42.962 0.033 6.56 2.14 12.46
11/17/2022 5:00:00 PM 6.07 42.926 0.033 6.59 2.12 12.45
11/17/2022 5:15:00 PM 6.03 42.854 0.033 6.54 2.15 12.45
11/17/2022 5:30:00 PM 5.98 42.764 0.033 6.56 2.12 12.45
11/17/2022 5:45:00 PM 5.94 42.692 0.033 6.55 2.2 12.46
11/17/2022 6:00:00 PM 5.9 42.62 0.033 6.55 2.16 12.47
11/17/2022 6:15:00 PM 5.85 42.53 0.033 6.58 2.16 12.49
11/17/2022 6:30:00 PM 5.82 42.476 0.033 6.57 2.18 12.5
11/17/2022 6:45:00 PM 5.79 42.422 0.033 6.52 2.3 12.51
11/17/2022 7:00:00 PM 5.75 42.35 0.033 6.54 2.25 12.52
11/17/2022 7:15:00 PM 5.71 42.278 0.033 6.55 2.33 12.54
11/17/2022 7:30:00 PM 5.68 42.224 0.033 6.53 2.35 12.55
11/17/2022 7:45:00 PM 5.64 42.152 0.033 6.52 2.26 12.56
11/17/2022 8:00:00 PM 5.6 42.08 0.033 6.54 2.22 12.58
11/17/2022 8:15:00 PM 5.56 42.008 0.033 6.52 2.22 12.59
11/17/2022 8:30:00 PM 5.51 41.918 0.033 6.52 2.16 12.6
11/17/2022 8:45:00 PM 5.47 41.846 0.033 6.52 2.22 12.62
11/17/2022 9:00:00 PM 5.43 41.774 0.033 6.52 2.13 12.64
11/17/2022 9:15:00 PM 5.39 41.702 0.033 6.48 2.1 12.65
11/17/2022 9:30:00 PM 5.36 41.648 0.033 6.5 2.14 12.66
11/17/2022 9:45:00 PM 5.33 41.594 0.033 6.5 2.06 12.67
11/17/2022 10:00:00 PM 5.3 41.54 0.033 6.48 2.15 12.68
11/17/2022 10:15:00 PM 5.26 41.468 0.033 6.48 2.15 12.69
11/17/2022 10:30:00 PM 5.23 41.414 0.033 6.5 2.09 12.71
11/17/2022 10:45:00 PM 5.2 41.36 0.033 6.54 2.09 12.71
11/17/2022 11:00:00 PM 5.16 41.288 0.033 6.49 2.08 12.73
11/17/2022 11:15:00 PM 5.13 41.234 0.033 6.49 2.09 12.74
11/17/2022 11:30:00 PM 5.09 41.162 0.033 6.49 2.09 12.76
11/17/2022 11:45:00 PM 5.06 41.108 0.033 6.53 2.13 12.76
11/18/2022 12:00:00 AM 5.02 41.036 0.033 6.54 2.13 12.78
11/18/2022 12:15:00 AM 5 41 0.033 6.5 2.04 12.79
11/18/2022 12:30:00 AM 4.97 40.946 0.033 6.49 2.03 12.8
11/18/2022 12:45:00 AM 4.94 40.892 0.033 6.54 2.09 12.81
11/18/2022 1:00:00 AM 4.91 40.838 0.033 6.55 2.03 12.82
11/18/2022 1:15:00 AM 4.88 40.784 0.033 6.54 2.06 12.82
11/18/2022 1:30:00 AM 4.84 40.712 0.033 6.49 2.07 12.84
11/18/2022 1:45:00 AM 4.83 40.694 0.033 6.48 2.08 12.85
11/18/2022 2:00:00 AM 4.81 40.658 0.033 6.48 1.97 12.85
11/18/2022 2:15:00 AM 4.82 40.676 0.033 6.48 2.05 12.86
11/18/2022 2:30:00 AM 4.83 40.694 0.033 6.55 2.1 12.85
11/18/2022 2:45:00 AM 4.83 40.694 0.033 6.51 2.01 12.86
11/18/2022 3:00:00 AM 4.83 40.694 0.033 6.51 2.01 12.85
11/18/2022 3:15:00 AM 4.82 40.676 0.033 6.5 2.09 12.86
11/18/2022 3:30:00 AM 4.81 40.658 0.033 6.49 1.97 12.86
11/18/2022 3:45:00 AM 4.81 40.658 0.033 6.5 1.99 12.86
11/18/2022 4:00:00 AM 4.8 40.64 0.033 6.55 2.02 12.86
11/18/2022 4:15:00 AM 4.79 40.622 0.033 6.51 2.04 12.87
11/18/2022 4:30:00 AM 4.79 40.622 0.033 6.53 2.01 12.87
11/18/2022 4:45:00 AM 4.78 40.604 0.033 6.49 2.02 12.87
11/18/2022 5:00:00 AM 4.76 40.568 0.033 6.51 2.01 12.87
11/18/2022 5:15:00 AM 4.74 40.532 0.033 6.5 2.02 12.88
11/18/2022 5:30:00 AM 4.72 40.496 0.033 6.5 2 12.89
11/18/2022 5:45:00 AM 4.7 40.46 0.033 6.55 2.02 12.9
11/18/2022 6:00:00 AM 4.67 40.406 0.033 6.54 2.05 12.91
11/18/2022 6:15:00 AM 4.65 40.37 0.033 6.49 1.97 12.91
11/18/2022 6:30:00 AM 4.62 40.316 0.033 6.49 2.1 12.93
11/18/2022 6:45:00 AM 4.6 40.28 0.033 6.52 1.98 12.93
11/18/2022 7:00:00 AM 4.58 40.244 0.033 6.51 2 12.95
11/18/2022 7:15:00 AM 4.56 40.208 0.033 6.49 2.02 12.97
11/18/2022 7:30:00 AM 4.54 40.172 0.033 6.51 1.95 12.99
11/18/2022 7:45:00 AM 4.53 40.154 0.033 6.48 1.98 13.02
11/18/2022 8:00:00 AM 4.52 40.136 0.033 6.51 2.01 13.05
11/18/2022 8:15:00 AM 4.51 40.118 0.033 6.57 1.98 13.08
11/18/2022 8:30:00 AM 4.51 40.118 0.033 6.57 1.94 13.1
11/18/2022 8:45:00 AM 4.51 40.118 0.033 6.52 2.01 13.12
11/18/2022 9:00:00 AM 4.51 40.118 0.033 6.59 1.96 13.13
11/18/2022 9:15:00 AM 4.55 40.19 0.033 6.52 1.96 13.14
11/18/2022 9:30:00 AM 4.6 40.28 0.033 6.55 1.94 13.14
11/18/2022 9:45:00 AM 4.65 40.37 0.033 6.55 1.96 13.15
11/18/2022 10:00:00 AM 4.7 40.46 0.033 6.59 1.91 13.13
11/18/2022 10:15:00 AM 4.72 40.496 0.033 6.55 1.95 13.13
11/18/2022 10:30:00 AM 4.73 40.514 0.033 6.53 1.95 13.13
11/18/2022 10:45:00 AM 4.78 40.604 0.033 6.56 1.94 13.12
11/18/2022 11:00:00 AM 4.87 40.766 0.033 6.54 1.96 13.1
11/18/2022 11:15:00 AM 4.99 40.982 0.033 6.59 1.89 13.07
11/18/2022 11:30:00 AM 5.08 41.144 0.033 6.6 1.88 13.05
11/18/2022 11:45:00 AM 5.16 41.288 0.033 6.58 1.87 13.02
11/18/2022 12:00:00 PM 5.22 41.396 0.033 6.56 1.93 13
11/18/2022 12:15:00 PM 5.29 41.522 0.033 6.6 1.91 12.98
11/18/2022 12:30:00 PM 5.29 41.522 0.033 6.62 1.98 12.97
11/18/2022 12:45:00 PM 5.33 41.594 0.033 6.62 1.98 12.96
11/18/2022 1:00:00 PM 5.36 41.648 0.033 6.58 1.94 12.94
11/18/2022 1:15:00 PM 5.42 41.756 0.033 6.58 1.93 12.94
11/18/2022 1:30:00 PM 5.47 41.846 0.033 6.6 1.93 12.92
11/18/2022 1:45:00 PM 5.45 41.81 0.033 6.57 1.95 12.92
11/18/2022 2:00:00 PM 5.43 41.774 0.033 6.58 1.98 12.9
11/18/2022 2:15:00 PM 5.44 41.792 0.033 6.58 1.97 12.9
11/18/2022 2:30:00 PM 5.46 41.828 0.033 6.63 1.94 12.88
11/18/2022 2:45:00 PM 5.47 41.846 0.033 6.57 1.92 12.85
11/18/2022 3:00:00 PM 5.44 41.792 0.033 6.62 1.92 12.81
11/18/2022 3:15:00 PM 5.43 41.774 0.033 6.58 2 12.81
11/18/2022 3:30:00 PM 5.44 41.792 0.033 6.57 2 12.8
11/18/2022 3:45:00 PM 5.44 41.792 0.033 6.57 1.93 12.78
11/18/2022 4:00:00 PM 5.4 41.72 0.033 6.57 1.98 12.77
11/18/2022 4:15:00 PM 5.37 41.666 0.034 6.56 1.9 12.76
11/18/2022 4:30:00 PM 5.35 41.63 0.033 6.54 2.02 12.74
11/18/2022 4:45:00 PM 5.35 41.63 0.033 6.56 2.01 12.71
11/18/2022 5:00:00 PM 5.32 41.576 0.033 6.54 1.96 12.7
11/18/2022 5:15:00 PM 5.3 41.54 0.034 6.55 1.99 12.69
11/18/2022 5:30:00 PM 5.27 41.486 0.034 6.59 2.06 12.7
11/18/2022 5:45:00 PM 5.24 41.432 0.034 6.53 2.03 12.7
11/18/2022 6:00:00 PM 5.21 41.378 0.034 6.58 1.97 12.72
11/18/2022 6:15:00 PM 5.18 41.324 0.034 6.54 2.01 12.72
11/18/2022 6:30:00 PM 5.15 41.27 0.034 6.53 2 12.74
11/18/2022 6:45:00 PM 5.11 41.198 0.034 6.58 2.03 12.75
11/18/2022 7:00:00 PM 5.07 41.126 0.034 6.51 2.02 12.76
11/18/2022 7:15:00 PM 5.04 41.072 0.034 6.51 1.98 12.77
11/18/2022 7:30:00 PM 5 41 0.034 6.52 2 12.8
11/18/2022 7:45:00 PM 4.96 40.928 0.034 6.5 2.03 12.81
11/18/2022 8:00:00 PM 4.92 40.856 0.034 6.52 2.02 12.83
11/18/2022 8:15:00 PM 4.86 40.748 0.034 6.55 2.01 12.85
11/18/2022 8:30:00 PM 4.81 40.658 0.034 6.52 2.08 12.87
11/18/2022 8:45:00 PM 4.77 40.586 0.034 6.48 2.01 12.88
11/18/2022 9:00:00 PM 4.72 40.496 0.034 6.5 2.06 12.9
11/18/2022 9:15:00 PM 4.69 40.442 0.034 6.49 1.98 12.91
11/18/2022 9:30:00 PM 4.66 40.388 0.034 6.53 1.99 12.92
11/18/2022 9:45:00 PM 4.63 40.334 0.034 6.52 1.97 12.94
11/18/2022 10:00:00 PM 4.59 40.262 0.034 6.48 1.98 12.96
11/18/2022 10:15:00 PM 4.56 40.208 0.034 6.5 1.9 12.97
11/18/2022 10:30:00 PM 4.52 40.136 0.034 6.49 1.93 12.98
11/18/2022 10:45:00 PM 4.49 40.082 0.034 6.53 2.03 12.99
11/18/2022 11:00:00 PM 4.45 40.01 0.034 6.5 1.95 13.01
11/18/2022 11:15:00 PM 4.42 39.956 0.034 6.5 1.95 13.02
11/18/2022 11:30:00 PM 4.38 39.884 0.034 6.48 1.97 13.04
11/18/2022 11:45:00 PM 4.34 39.812 0.034 6.49 1.94 13.05
11/19/2022 12:00:00 AM 4.31 39.758 0.034 6.49 1.95 13.07
11/19/2022 12:15:00 AM 4.28 39.704 0.034 6.5 2.02 13.08
11/19/2022 12:30:00 AM 4.23 39.614 0.034 6.48 1.98 13.1
11/19/2022 12:45:00 AM 4.2 39.56 0.034 6.54 2.02 13.1
11/19/2022 1:00:00 AM 4.16 39.488 0.034 6.55 1.97 13.13
11/19/2022 1:15:00 AM 4.13 39.434 0.034 6.49 1.98 13.14
11/19/2022 1:30:00 AM 4.1 39.38 0.034 6.55 1.92 13.16
11/19/2022 1:45:00 AM 4.06 39.308 0.034 6.52 2 13.17
11/19/2022 2:00:00 AM 4.03 39.254 0.034 6.54 1.9 13.18
11/19/2022 2:15:00 AM 3.99 39.182 0.034 6.49 1.9 13.19
11/19/2022 2:30:00 AM 3.96 39.128 0.034 6.49 1.88 13.19
11/19/2022 2:45:00 AM 3.93 39.074 0.034 6.49 1.96 13.2
11/19/2022 3:00:00 AM 3.89 39.002 0.034 6.49 1.9 13.22
11/19/2022 3:15:00 AM 3.86 38.948 0.034 6.53 1.9 13.24
11/19/2022 3:30:00 AM 3.83 38.894 0.034 6.51 1.89 13.25
11/19/2022 3:45:00 AM 3.81 38.858 0.034 6.51 1.96 13.25
11/19/2022 4:00:00 AM 3.78 38.804 0.034 6.5 1.94 13.26
11/19/2022 4:15:00 AM 3.74 38.732 0.034 6.55 1.88 13.27
11/19/2022 4:30:00 AM 3.72 38.696 0.034 6.49 1.93 13.28
11/19/2022 4:45:00 AM 3.69 38.642 0.034 6.51 1.9 13.3
11/19/2022 5:00:00 AM 3.67 38.606 0.034 6.49 1.93 13.31
11/19/2022 5:15:00 AM 3.65 38.57 0.034 6.49 1.91 13.31
11/19/2022 5:30:00 AM 3.62 38.516 0.034 6.51 1.91 13.33
11/19/2022 5:45:00 AM 3.58 38.444 0.034 6.5 1.96 13.34
11/19/2022 6:00:00 AM 3.56 38.408 0.034 6.49 1.91 13.35
11/19/2022 6:15:00 AM 3.53 38.354 0.034 6.49 1.89 13.36
11/19/2022 6:30:00 AM 3.5 38.3 0.034 6.49 1.89 13.37
11/19/2022 6:45:00 AM 3.47 38.246 0.034 6.49 1.85 13.38
11/19/2022 7:00:00 AM 3.44 38.192 0.034 6.48 1.88 13.4
11/19/2022 7:15:00 AM 3.41 38.138 0.034 6.49 1.9 13.43
11/19/2022 7:30:00 AM 3.38 38.084 0.034 6.48 1.86 13.46
11/19/2022 7:45:00 AM 3.36 38.048 0.034 6.49 1.87 13.49
11/19/2022 8:00:00 AM 3.34 38.012 0.034 6.49 1.87 13.52
11/19/2022 8:15:00 AM 3.33 37.994 0.034 6.5 1.85 13.54
11/19/2022 8:30:00 AM 3.32 37.976 0.034 6.56 1.85 13.56
11/19/2022 8:45:00 AM 3.33 37.994 0.034 6.53 1.88 13.58
11/19/2022 9:00:00 AM 3.32 37.976 0.034 6.52 1.86 13.6
11/19/2022 9:15:00 AM 3.34 38.012 0.034 6.57 1.83 13.61
11/19/2022 9:30:00 AM 3.37 38.066 0.034 6.52 1.85 13.6
11/19/2022 9:45:00 AM 3.4 38.12 0.033 6.58 1.83 13.61
11/19/2022 10:00:00 AM 3.45 38.21 0.034 6.56 1.93 13.6
11/19/2022 10:15:00 AM 3.5 38.3 0.034 6.6 1.89 13.59
11/19/2022 10:30:00 AM 3.55 38.39 0.034 6.6 1.85 13.59
11/19/2022 10:45:00 AM 3.64 38.552 0.034 6.54 1.87 13.57
11/19/2022 11:00:00 AM 3.68 38.624 0.033 6.57 1.92 13.56
11/19/2022 11:15:00 AM 3.74 38.732 0.034 6.56 1.82 13.56
11/19/2022 11:30:00 AM 3.79 38.822 0.034 6.62 1.85 13.54
11/19/2022 11:45:00 AM 3.83 38.894 0.034 6.56 1.88 13.53
11/19/2022 12:00:00 PM 3.88 38.984 0.034 6.56 1.86 13.51
11/19/2022 12:15:00 PM 3.93 39.074 0.034 6.57 1.83 13.5
11/19/2022 12:30:00 PM 3.98 39.164 0.034 6.56 1.8 13.49
11/19/2022 12:45:00 PM 4.05 39.29 0.034 6.6 1.82 13.47
11/19/2022 1:00:00 PM 4.1 39.38 0.034 6.58 1.86 13.45
11/19/2022 1:15:00 PM 4.12 39.416 0.034 6.58 1.81 13.43
11/19/2022 1:30:00 PM 4.15 39.47 0.034 6.56 1.88 13.41
11/19/2022 1:45:00 PM 4.16 39.488 0.034 6.55 1.78 13.4
11/19/2022 2:00:00 PM 4.16 39.488 0.034 6.58 1.86 13.37
11/19/2022 2:15:00 PM 4.16 39.488 0.034 6.55 1.9 13.36
11/19/2022 2:30:00 PM 4.15 39.47 0.034 6.56 1.85 13.35
11/19/2022 2:45:00 PM 4.13 39.434 0.034 6.59 1.81 13.34
11/19/2022 3:00:00 PM 4.13 39.434 0.034 6.58 1.87 13.33
11/19/2022 3:15:00 PM 4.12 39.416 0.034 6.57 1.84 13.32
11/19/2022 3:30:00 PM 4.09 39.362 0.034 6.56 1.91 13.31
11/19/2022 3:45:00 PM 4.06 39.308 0.034 6.57 1.87 13.29
11/19/2022 4:00:00 PM 4.04 39.272 0.034 6.56 1.86 13.27
11/19/2022 4:15:00 PM 4.02 39.236 0.034 6.56 1.85 13.26
11/19/2022 4:30:00 PM 3.99 39.182 0.034 6.53 1.94 13.24
11/19/2022 4:45:00 PM 3.97 39.146 0.034 6.55 1.91 13.23
11/19/2022 5:00:00 PM 3.95 39.11 0.034 6.54 1.87 13.21
11/19/2022 5:15:00 PM 3.92 39.056 0.034 6.55 1.98 13.2
11/19/2022 5:30:00 PM 3.9 39.02 0.034 6.59 1.88 13.2
11/19/2022 5:45:00 PM 3.88 38.984 0.034 6.6 1.87 13.2
11/19/2022 6:00:00 PM 3.87 38.966 0.034 6.58 1.92 13.19
11/19/2022 6:15:00 PM 3.85 38.93 0.034 6.58 1.94 13.2
11/19/2022 6:30:00 PM 3.82 38.876 0.034 6.53 1.94 13.2
11/19/2022 6:45:00 PM 3.8 38.84 0.034 6.56 1.96 13.21
11/19/2022 7:00:00 PM 3.77 38.786 0.034 6.52 1.91 13.22
11/19/2022 7:15:00 PM 3.75 38.75 0.034 6.58 1.86 13.23
11/19/2022 7:30:00 PM 3.72 38.696 0.034 6.57 1.94 13.23
11/19/2022 7:45:00 PM 3.69 38.642 0.034 6.5 1.94 13.24
11/19/2022 8:00:00 PM 3.66 38.588 0.035 6.51 1.84 13.25
11/19/2022 8:15:00 PM 3.63 38.534 0.035 6.51 1.9 13.26
11/19/2022 8:30:00 PM 3.6 38.48 0.035 6.51 1.85 13.27
11/19/2022 8:45:00 PM 3.56 38.408 0.034 6.52 1.86 13.28
11/19/2022 9:00:00 PM 3.52 38.336 0.034 6.49 1.88 13.31
11/19/2022 9:15:00 PM 3.48 38.264 0.034 6.49 1.89 13.32
11/19/2022 9:30:00 PM 3.44 38.192 0.034 6.56 1.86 13.32
11/19/2022 9:45:00 PM 3.41 38.138 0.035 6.51 1.94 13.33
11/19/2022 10:00:00 PM 3.36 38.048 0.034 6.55 2.01 13.35
11/19/2022 10:15:00 PM 3.32 37.976 0.034 6.51 1.87 13.37
11/19/2022 10:30:00 PM 3.3 37.94 0.034 6.49 1.87 13.37
11/19/2022 10:45:00 PM 3.28 37.904 0.034 6.55 1.88 13.38
11/19/2022 11:00:00 PM 3.26 37.868 0.035 6.51 1.92 13.39
11/19/2022 11:15:00 PM 3.25 37.85 0.034 6.52 1.91 13.4
11/19/2022 11:30:00 PM 3.24 37.832 0.034 6.51 1.87 13.4
11/19/2022 11:45:00 PM 3.22 37.796 0.034 6.51 1.87 13.41
11/20/2022 12:00:00 AM 3.21 37.778 0.034 6.53 1.9 13.41
11/20/2022 12:15:00 AM 3.2 37.76 0.034 6.52 1.87 13.41
11/20/2022 12:30:00 AM 3.2 37.76 0.035 6.48 1.89 13.4
11/20/2022 12:45:00 AM 3.17 37.706 0.035 6.51 1.84 13.42
11/20/2022 1:00:00 AM 3.15 37.67 0.035 6.51 1.91 13.42
11/20/2022 1:15:00 AM 3.14 37.652 0.034 6.52 1.89 13.43
11/20/2022 1:30:00 AM 3.12 37.616 0.034 6.49 1.91 13.43
11/20/2022 1:45:00 AM 3.12 37.616 0.035 6.51 1.84 13.43
11/20/2022 2:00:00 AM 3.09 37.562 0.034 6.49 1.82 13.44
11/20/2022 2:15:00 AM 3.07 37.526 0.035 6.51 1.82 13.44
11/20/2022 2:30:00 AM 3.04 37.472 0.035 6.47 1.88 13.45
11/20/2022 2:45:00 AM 3.03 37.454 0.035 6.46 1.9 13.45
11/20/2022 3:00:00 AM 3.02 37.436 0.034 6.5 1.81 13.46
11/20/2022 3:15:00 AM 3 37.4 0.034 6.52 1.87 13.46
11/20/2022 3:30:00 AM 2.99 37.382 0.034 6.49 1.88 13.48
11/20/2022 3:45:00 AM 2.98 37.364 0.035 6.5 1.89 13.47
11/20/2022 4:00:00 AM 2.96 37.328 0.035 6.54 1.88 13.49
11/20/2022 4:15:00 AM 2.93 37.274 0.034 6.51 1.8 13.5
11/20/2022 4:30:00 AM 2.91 37.238 0.035 6.5 1.8 13.5
11/20/2022 4:45:00 AM 2.89 37.202 0.034 6.51 1.83 13.51
11/20/2022 5:00:00 AM 2.86 37.148 0.035 6.56 1.82 13.51
11/20/2022 5:15:00 AM 2.83 37.094 0.035 6.51 1.8 13.53
11/20/2022 5:30:00 AM 2.8 37.04 0.034 6.5 1.83 13.54
11/20/2022 5:45:00 AM 2.77 36.986 0.035 6.5 1.81 13.55
11/20/2022 6:00:00 AM 2.75 36.95 0.035 6.55 1.82 13.56
11/20/2022 6:15:00 AM 2.72 36.896 0.035 6.56 1.83 13.58
11/20/2022 6:30:00 AM 2.7 36.86 0.035 6.5 1.84 13.59
11/20/2022 6:45:00 AM 2.68 36.824 0.034 6.49 1.84 13.6
11/20/2022 7:00:00 AM 2.67 36.806 0.034 6.51 1.91 13.61
11/20/2022 7:15:00 AM 2.66 36.788 0.035 6.53 1.87 13.64
11/20/2022 7:30:00 AM 2.65 36.77 0.035 6.5 1.8 13.66
11/20/2022 7:45:00 AM 2.64 36.752 0.035 6.56 1.85 13.69
11/20/2022 8:00:00 AM 2.62 36.716 0.035 6.51 1.83 13.73
11/20/2022 8:15:00 AM 2.6 36.68 0.034 6.57 1.77 13.75
11/20/2022 8:30:00 AM 2.59 36.662 0.034 6.53 1.79 13.78
11/20/2022 8:45:00 AM 2.6 36.68 0.034 6.53 1.79 13.82
11/20/2022 9:00:00 AM 2.6 36.68 0.034 6.55 1.84 13.84
11/20/2022 9:15:00 AM 2.64 36.752 0.034 6.55 1.81 13.86
11/20/2022 9:30:00 AM 2.65 36.77 0.034 6.57 1.79 13.87
11/20/2022 9:45:00 AM 2.7 36.86 0.034 6.57 1.84 13.87
11/20/2022 10:00:00 AM 2.74 36.932 0.034 6.61 1.79 13.86
11/20/2022 10:15:00 AM 2.78 37.004 0.034 6.56 1.82 13.85
11/20/2022 10:30:00 AM 2.82 37.076 0.035 6.62 1.77 13.85
11/20/2022 10:45:00 AM 2.87 37.166 0.034 6.58 1.76 13.84
11/20/2022 11:00:00 AM 2.9 37.22 0.034 6.56 1.84 13.84
11/20/2022 11:15:00 AM 2.95 37.31 0.034 6.55 1.79 13.82
11/20/2022 11:30:00 AM 3 37.4 0.034 6.56 1.83 13.81
11/20/2022 11:45:00 AM 3.02 37.436 0.034 6.59 1.81 13.81
11/20/2022 12:00:00 PM 3.1 37.58 0.034 6.58 1.76 13.79
11/20/2022 12:15:00 PM 3.09 37.562 0.034 6.56 1.82 13.78
11/20/2022 12:30:00 PM 3.09 37.562 0.034 6.61 1.78 13.78
11/20/2022 12:45:00 PM 3.13 37.634 0.034 6.57 1.79 13.78
11/20/2022 1:00:00 PM 3.19 37.742 0.035 6.58 1.74 13.77
11/20/2022 1:15:00 PM 3.21 37.778 0.034 6.58 1.83 13.75
11/20/2022 1:30:00 PM 3.23 37.814 0.034 6.56 1.79 13.74
11/20/2022 1:45:00 PM 3.24 37.832 0.034 6.59 1.77 13.72
11/20/2022 2:00:00 PM 3.27 37.886 0.035 6.6 1.8 13.72
11/20/2022 2:15:00 PM 3.27 37.886 0.034 6.6 1.82 13.71
11/20/2022 2:30:00 PM 3.29 37.922 0.034 6.58 1.79 13.7
11/20/2022 2:45:00 PM 3.29 37.922 0.034 6.58 1.79 13.7
11/20/2022 3:00:00 PM 3.29 37.922 0.034 6.59 1.81 13.69
11/20/2022 3:15:00 PM 3.27 37.886 0.034 6.6 1.82 13.67
11/20/2022 3:30:00 PM 3.22 37.796 0.035 6.64 1.8 13.66
11/20/2022 3:45:00 PM 3.21 37.778 0.035 6.6 1.82 13.66
11/20/2022 4:00:00 PM 3.19 37.742 0.035 6.56 1.8 13.65
11/20/2022 4:15:00 PM 3.14 37.652 0.035 6.55 1.84 13.64
11/20/2022 4:30:00 PM 3.08 37.544 0.035 6.61 1.82 13.63
11/20/2022 4:45:00 PM 3.06 37.508 0.035 6.59 1.79 13.61
11/20/2022 5:00:00 PM 3.03 37.454 0.035 6.53 1.83 13.59
11/20/2022 5:15:00 PM 3 37.4 0.035 6.51 1.85 13.6
11/20/2022 5:30:00 PM 2.97 37.346 0.035 6.53 1.82 13.59
11/20/2022 5:45:00 PM 2.94 37.292 0.035 6.57 1.84 13.6
11/20/2022 6:00:00 PM 2.91 37.238 0.035 6.54 1.89 13.61
11/20/2022 6:15:00 PM 2.88 37.184 0.035 6.5 1.84 13.62
11/20/2022 6:30:00 PM 2.87 37.166 0.035 6.53 1.84 13.62
11/20/2022 6:45:00 PM 2.85 37.13 0.035 6.58 1.85 13.63
11/20/2022 7:00:00 PM 2.84 37.112 0.035 6.55 1.9 13.64
11/20/2022 7:15:00 PM 2.82 37.076 0.035 6.53 1.84 13.65
11/20/2022 7:30:00 PM 2.83 37.094 0.035 6.52 1.88 13.65
11/20/2022 7:45:00 PM 2.82 37.076 0.035 6.59 1.82 13.65
11/20/2022 8:00:00 PM 2.81 37.058 0.035 6.53 1.82 13.67
11/20/2022 8:15:00 PM 2.79 37.022 0.035 6.55 1.84 13.67
11/20/2022 8:30:00 PM 2.77 36.986 0.035 6.52 1.79 13.68
11/20/2022 8:45:00 PM 2.74 36.932 0.035 6.52 1.81 13.7
11/20/2022 9:00:00 PM 2.73 36.914 0.035 6.55 1.77 13.7
11/20/2022 9:15:00 PM 2.7 36.86 0.035 6.52 1.86 13.71
11/20/2022 9:30:00 PM 2.69 36.842 0.035 6.55 1.83 13.72
11/20/2022 9:45:00 PM 2.67 36.806 0.035 6.55 1.83 13.73
11/20/2022 10:00:00 PM 2.66 36.788 0.035 6.53 1.79 13.73
11/20/2022 10:15:00 PM 2.64 36.752 0.035 6.51 1.93 13.74
11/20/2022 10:30:00 PM 2.63 36.734 0.035 6.52 1.88 13.75
11/20/2022 10:45:00 PM 2.61 36.698 0.035 6.51 1.89 13.76
11/20/2022 11:00:00 PM 2.59 36.662 0.035 6.55 1.84 13.77
11/20/2022 11:15:00 PM 2.58 36.644 0.035 6.54 1.81 13.77
11/20/2022 11:30:00 PM 2.57 36.626 0.035 6.54 1.9 13.77
11/20/2022 11:45:00 PM 2.55 36.59 0.035 6.51 1.83 13.79
11/21/2022 12:00:00 AM 2.53 36.554 0.035 6.51 1.77 13.8
11/21/2022 12:15:00 AM 2.51 36.518 0.035 6.53 1.82 13.8
11/21/2022 12:30:00 AM 2.49 36.482 0.035 6.52 1.82 13.81
11/21/2022 12:45:00 AM 2.47 36.446 0.035 6.53 1.84 13.82
11/21/2022 1:00:00 AM 2.45 36.41 0.035 6.52 1.85 13.83
11/21/2022 1:15:00 AM 2.43 36.374 0.035 6.53 1.84 13.84
11/21/2022 1:30:00 AM 2.4 36.32 0.035 6.52 1.88 13.85
11/21/2022 1:45:00 AM 2.37 36.266 0.035 6.53 1.79 13.85
11/21/2022 2:00:00 AM 2.34 36.212 0.035 6.55 1.79 13.87
11/21/2022 2:15:00 AM 2.31 36.158 0.035 6.53 1.85 13.88
11/21/2022 2:30:00 AM 2.27 36.086 0.035 6.54 1.76 13.9
11/21/2022 2:45:00 AM 2.23 36.014 0.035 6.53 1.81 13.91
11/21/2022 3:00:00 AM 2.2 35.96 0.035 6.54 1.77 13.92
11/21/2022 3:15:00 AM 2.16 35.888 0.035 6.53 1.86 13.94
11/21/2022 3:30:00 AM 2.13 35.834 0.035 6.55 1.85 13.95
11/21/2022 3:45:00 AM 2.08 35.744 0.035 6.49 1.76 13.97
11/21/2022 4:00:00 AM 2.05 35.69 0.035 6.49 1.81 13.99
11/21/2022 4:15:00 AM 2.02 35.636 0.035 6.5 1.81 14
11/21/2022 4:30:00 AM 1.98 35.564 0.035 6.51 1.79 14.02
11/21/2022 4:45:00 AM 1.95 35.51 0.036 6.5 1.76 14.03
11/21/2022 5:00:00 AM 1.91 35.438 0.035 6.51 1.8 14.05
11/21/2022 5:15:00 AM 1.88 35.384 0.035 6.56 1.76 14.06
11/21/2022 5:30:00 AM 1.84 35.312 0.035 6.5 1.78 14.08
11/21/2022 5:45:00 AM 1.81 35.258 0.035 6.53 1.78 14.1
11/21/2022 6:00:00 AM 1.78 35.204 0.035 6.49 1.77 14.1
11/21/2022 6:15:00 AM 1.74 35.132 0.035 6.49 1.82 14.13
11/21/2022 6:30:00 AM 1.71 35.078 0.035 6.51 1.77 14.13
11/21/2022 6:45:00 AM 1.68 35.024 0.035 6.49 1.82 14.16
11/21/2022 7:00:00 AM 1.65 34.97 0.035 6.51 1.83 14.17
11/21/2022 7:15:00 AM 1.63 34.934 0.036 6.5 1.78 14.19
11/21/2022 7:30:00 AM 1.6 34.88 0.035 6.52 1.76 14.22
11/21/2022 7:45:00 AM 1.57 34.826 0.035 6.54 1.9 14.26
11/21/2022 8:00:00 AM 1.55 34.79 0.035 6.54 1.75 14.3
11/21/2022 8:15:00 AM 1.54 34.772 0.035 6.54 1.79 14.34
11/21/2022 8:30:00 AM 1.56 34.808 0.035 6.56 1.79 14.35
11/21/2022 8:45:00 AM 1.58 34.844 0.035 6.55 1.75 14.4
11/21/2022 9:00:00 AM 1.6 34.88 0.035 6.59 1.8 14.41
11/21/2022 9:15:00 AM 1.62 34.916 0.035 6.56 1.77 14.39
11/21/2022 9:30:00 AM 1.64 34.952 0.035 6.55 1.75 14.39
11/21/2022 9:45:00 AM 1.68 35.024 0.035 6.57 1.78 14.39
11/21/2022 10:00:00 AM 1.73 35.114 0.035 6.56 1.77 14.37
11/21/2022 10:15:00 AM 1.8 35.24 0.035 6.55 1.76 14.34
11/21/2022 10:30:00 AM 1.88 35.384 0.035 6.57 1.76 14.32
11/21/2022 10:45:00 AM 1.98 35.564 0.035 6.56 1.73 14.29
11/21/2022 11:00:00 AM 2.08 35.744 0.035 6.56 1.8 14.27
11/21/2022 11:15:00 AM 2.19 35.942 0.035 6.58 1.74 14.23
11/21/2022 11:30:00 AM 2.3 36.14 0.035 6.57 1.73 14.2
11/21/2022 11:45:00 AM 2.44 36.392 0.036 6.58 1.68 14.16
11/21/2022 12:00:00 PM 2.56 36.608 0.035 6.61 1.74 14.13
11/21/2022 12:15:00 PM 2.64 36.752 0.035 6.62 1.74 14.09
11/21/2022 12:30:00 PM 2.69 36.842 0.035 6.57 1.7 14.07
11/21/2022 12:45:00 PM 2.83 37.094 0.035 6.61 1.72 14.04
11/21/2022 1:00:00 PM 2.95 37.31 0.035 6.61 1.76 14
11/21/2022 1:15:00 PM 3.01 37.418 0.035 6.6 1.67 13.98
11/21/2022 1:30:00 PM 3.07 37.526 0.035 6.57 1.76 13.95
11/21/2022 1:45:00 PM 3.07 37.526 0.035 6.59 1.75 13.93
11/21/2022 2:00:00 PM 3.06 37.508 0.035 6.58 1.7 13.9
11/21/2022 2:15:00 PM 3.08 37.544 0.035 6.65 1.71 13.88
11/21/2022 2:30:00 PM 3.13 37.634 0.035 6.6 1.8 13.86
11/21/2022 2:45:00 PM 3.22 37.796 0.035 6.59 1.82 13.83
11/21/2022 3:00:00 PM 3.28 37.904 0.035 6.58 1.76 13.8
11/21/2022 3:15:00 PM 3.3 37.94 0.035 6.58 1.73 13.77
11/21/2022 3:30:00 PM 3.32 37.976 0.035 6.65 1.82 13.74
11/21/2022 3:45:00 PM 3.32 37.976 0.035 6.59 1.74 13.72
11/21/2022 4:00:00 PM 3.33 37.994 0.035 6.61 1.69 13.68
11/21/2022 4:15:00 PM 3.35 38.03 0.036 6.61 1.8 13.64
11/21/2022 4:30:00 PM 3.35 38.03 0.035 6.56 1.75 13.6
11/21/2022 4:45:00 PM 3.33 37.994 0.036 6.56 1.73 13.56
11/21/2022 5:00:00 PM 3.32 37.976 0.036 6.58 1.83 13.53
11/21/2022 5:15:00 PM 3.33 37.994 0.036 6.55 1.8 13.5
11/21/2022 5:30:00 PM 3.34 38.012 0.036 6.59 1.74 13.48
11/21/2022 5:45:00 PM 3.35 38.03 0.036 6.59 1.74 13.46
11/21/2022 6:00:00 PM 3.36 38.048 0.036 6.59 1.81 13.45
11/21/2022 6:15:00 PM 3.36 38.048 0.036 6.61 1.77 13.44
11/21/2022 6:30:00 PM 3.36 38.048 0.036 6.58 1.81 13.44
11/21/2022 6:45:00 PM 3.36 38.048 0.036 6.62 1.82 13.43
11/21/2022 7:00:00 PM 3.36 38.048 0.036 6.58 1.84 13.43
11/21/2022 7:15:00 PM 3.35 38.03 0.036 6.57 1.78 13.44
11/21/2022 7:30:00 PM 3.34 38.012 0.036 6.54 1.84 13.44
11/21/2022 7:45:00 PM 3.31 37.958 0.036 6.6 1.78 13.45
11/21/2022 8:00:00 PM 3.3 37.94 0.036 6.57 1.81 13.45
11/21/2022 8:15:00 PM 3.29 37.922 0.036 6.59 1.79 13.45
11/21/2022 8:30:00 PM 3.26 37.868 0.036 6.56 1.83 13.47
11/21/2022 8:45:00 PM 3.24 37.832 0.036 6.61 1.8 13.47
11/21/2022 9:00:00 PM 3.22 37.796 0.036 6.57 1.79 13.48
11/21/2022 9:15:00 PM 3.2 37.76 0.036 6.56 1.81 13.49
11/21/2022 9:30:00 PM 3.17 37.706 0.036 6.55 1.84 13.5
11/21/2022 9:45:00 PM 3.14 37.652 0.036 6.55 1.83 13.51
11/21/2022 10:00:00 PM 3.1 37.58 0.036 6.58 1.79 13.53
11/21/2022 10:15:00 PM 3.08 37.544 0.036 6.55 1.84 13.54
11/21/2022 10:30:00 PM 3.05 37.49 0.036 6.61 1.76 13.55
11/21/2022 10:45:00 PM 3.02 37.436 0.036 6.53 1.76 13.56
11/21/2022 11:00:00 PM 3 37.4 0.036 6.55 1.77 13.57
11/21/2022 11:15:00 PM 2.97 37.346 0.036 6.54 1.79 13.58
11/21/2022 11:30:00 PM 2.94 37.292 0.036 6.53 1.8 13.59
11/21/2022 11:45:00 PM 2.91 37.238 0.036 6.53 1.75 13.61
11/22/2022 12:00:00 AM 2.88 37.184 0.036 6.53 1.85 13.62
11/22/2022 12:15:00 AM 2.85 37.13 0.036 6.58 1.79 13.63
11/22/2022 12:30:00 AM 2.82 37.076 0.036 6.54 1.74 13.64
11/22/2022 12:45:00 AM 2.79 37.022 0.036 6.57 1.78 13.66
11/22/2022 1:00:00 AM 2.76 36.968 0.036 6.57 1.8 13.66
11/22/2022 1:15:00 AM 2.74 36.932 0.036 6.56 1.75 13.68
11/22/2022 1:30:00 AM 2.72 36.896 0.037 6.53 1.71 13.68
11/22/2022 1:45:00 AM 2.68 36.824 0.037 6.53 1.76 13.7
11/22/2022 2:00:00 AM 2.65 36.77 0.036 6.58 1.75 13.72
11/22/2022 2:15:00 AM 2.64 36.752 0.036 6.55 1.78 13.72
11/22/2022 2:30:00 AM 2.61 36.698 0.036 6.59 1.86 13.74
11/22/2022 2:45:00 AM 2.59 36.662 0.036 6.56 1.74 13.75
11/22/2022 3:00:00 AM 2.56 36.608 0.036 6.53 1.78 13.76
11/22/2022 3:15:00 AM 2.54 36.572 0.036 6.51 1.77 13.77
11/22/2022 3:30:00 AM 2.52 36.536 0.036 6.53 1.8 13.77
11/22/2022 3:45:00 AM 2.49 36.482 0.036 6.58 1.79 13.78
11/22/2022 4:00:00 AM 2.47 36.446 0.036 6.55 1.78 13.8
11/22/2022 4:15:00 AM 2.44 36.392 0.036 6.54 1.79 13.81
11/22/2022 4:30:00 AM 2.41 36.338 0.036 6.51 1.79 13.82
11/22/2022 4:45:00 AM 2.39 36.302 0.037 6.52 1.76 13.82
11/22/2022 5:00:00 AM 2.37 36.266 0.036 6.52 1.77 13.83
11/22/2022 5:15:00 AM 2.34 36.212 0.037 6.54 1.81 13.85
11/22/2022 5:30:00 AM 2.32 36.176 0.037 6.53 1.74 13.85
11/22/2022 5:45:00 AM 2.29 36.122 0.036 6.57 1.9 13.88
11/22/2022 6:00:00 AM 2.28 36.104 0.036 6.54 1.73 13.88
11/22/2022 6:15:00 AM 2.26 36.068 0.037 6.53 1.72 13.89
11/22/2022 6:30:00 AM 2.24 36.032 0.036 6.56 1.8 13.89
11/22/2022 6:45:00 AM 2.21 35.978 0.037 6.58 1.73 13.91
11/22/2022 7:00:00 AM 2.19 35.942 0.036 6.57 1.77 13.92
11/22/2022 7:15:00 AM 2.17 35.906 0.036 6.49 1.75 13.94
11/22/2022 7:30:00 AM 2.16 35.888 0.036 6.52 1.74 13.98
11/22/2022 7:45:00 AM 2.14 35.852 0.036 6.53 1.75 14.01
11/22/2022 8:00:00 AM 2.14 35.852 0.036 6.51 1.76 14.04
11/22/2022 8:15:00 AM 2.13 35.834 0.036 6.54 1.74 14.07
11/22/2022 8:30:00 AM 2.14 35.852 0.036 6.54 1.75 14.09
11/22/2022 8:45:00 AM 2.16 35.888 0.036 6.55 1.74 14.1
11/22/2022 9:00:00 AM 2.17 35.906 0.036 6.54 1.75 14.13
11/22/2022 9:15:00 AM 2.19 35.942 0.036 6.53 1.73 14.13
11/22/2022 9:30:00 AM 2.24 36.032 0.036 6.58 1.72 14.13
11/22/2022 9:45:00 AM 2.3 36.14 0.036 6.57 1.78 14.13
11/22/2022 10:00:00 AM 2.39 36.302 0.036 6.6 1.72 14.11
11/22/2022 10:15:00 AM 2.48 36.464 0.036 6.58 1.69 14.09
11/22/2022 10:30:00 AM 2.6 36.68 0.036 6.62 1.73 14.06
11/22/2022 10:45:00 AM 2.73 36.914 0.036 6.57 1.73 14.02
11/22/2022 11:00:00 AM 2.87 37.166 0.036 6.56 1.73 13.99
11/22/2022 11:15:00 AM 3.01 37.418 0.036 6.59 1.8 13.96
11/22/2022 11:30:00 AM 3.15 37.67 0.036 6.59 1.76 13.91
11/22/2022 11:45:00 AM 3.3 37.94 0.036 6.62 1.74 13.86
11/22/2022 12:00:00 PM 3.42 38.156 0.036 6.61 1.75 13.82
11/22/2022 12:15:00 PM 3.53 38.354 0.036 6.59 1.7 13.8
11/22/2022 12:30:00 PM 3.62 38.516 0.036 6.61 1.73 13.75
11/22/2022 12:45:00 PM 3.69 38.642 0.036 6.58 1.73 13.72
11/22/2022 1:00:00 PM 3.76 38.768 0.036 6.6 1.67 13.69
11/22/2022 1:15:00 PM 3.81 38.858 0.036 6.59 1.71 13.65
11/22/2022 1:30:00 PM 3.85 38.93 0.036 6.63 1.76 13.64
11/22/2022 1:45:00 PM 3.88 38.984 0.036 6.63 1.74 13.62
11/22/2022 2:00:00 PM 3.89 39.002 0.036 6.6 1.69 13.59
11/22/2022 2:15:00 PM 3.91 39.038 0.036 6.62 1.76 13.58
11/22/2022 2:30:00 PM 3.91 39.038 0.036 6.6 1.71 13.56
11/22/2022 2:45:00 PM 3.91 39.038 0.036 6.67 1.75 13.54
11/22/2022 3:00:00 PM 3.9 39.02 0.036 6.61 1.71 13.53
11/22/2022 3:15:00 PM 3.9 39.02 0.036 6.66 1.77 13.51
11/22/2022 3:30:00 PM 3.9 39.02 0.036 6.61 1.77 13.49
11/22/2022 3:45:00 PM 3.9 39.02 0.036 6.59 1.74 13.46
11/22/2022 4:00:00 PM 3.9 39.02 0.036 6.61 1.69 13.43
11/22/2022 4:15:00 PM 3.9 39.02 0.036 6.61 1.76 13.4
11/22/2022 4:30:00 PM 3.89 39.002 0.036 6.61 1.71 13.37
11/22/2022 4:45:00 PM 3.89 39.002 0.037 6.64 1.78 13.34
11/22/2022 5:00:00 PM 3.87 38.966 0.037 6.61 1.72 13.3
11/22/2022 5:15:00 PM 3.86 38.948 0.037 6.59 1.8 13.29
11/22/2022 5:30:00 PM 3.85 38.93 0.037 6.59 1.81 13.27
11/22/2022 5:45:00 PM 3.84 38.912 0.037 6.59 1.86 13.26
11/22/2022 6:00:00 PM 3.82 38.876 0.037 6.64 1.8 13.26
11/22/2022 6:15:00 PM 3.81 38.858 0.037 6.56 1.81 13.26
11/22/2022 6:30:00 PM 3.79 38.822 0.037 6.56 1.93 13.26
11/22/2022 6:45:00 PM 3.76 38.768 0.037 6.62 1.79 13.27
11/22/2022 7:00:00 PM 3.74 38.732 0.037 6.57 1.81 13.28
11/22/2022 7:15:00 PM 3.71 38.678 0.037 6.55 1.85 13.29
11/22/2022 7:30:00 PM 3.68 38.624 0.037 6.59 1.81 13.3
11/22/2022 7:45:00 PM 3.66 38.588 0.037 6.58 1.78 13.3
11/22/2022 8:00:00 PM 3.63 38.534 0.037 6.55 1.82 13.31
11/22/2022 8:15:00 PM 3.6 38.48 0.037 6.58 1.81 13.32
11/22/2022 8:30:00 PM 3.58 38.444 0.037 6.55 1.84 13.33
11/22/2022 8:45:00 PM 3.55 38.39 0.037 6.57 1.8 13.34
11/22/2022 9:00:00 PM 3.52 38.336 0.037 6.57 1.79 13.34
11/22/2022 9:15:00 PM 3.49 38.282 0.037 6.57 1.81 13.36
11/22/2022 9:30:00 PM 3.47 38.246 0.037 6.55 1.77 13.37
11/22/2022 9:45:00 PM 3.44 38.192 0.037 6.55 1.76 13.37
11/22/2022 10:00:00 PM 3.43 38.174 0.037 6.55 1.84 13.39
11/22/2022 10:15:00 PM 3.42 38.156 0.037 6.59 1.78 13.39
11/22/2022 10:30:00 PM 3.4 38.12 0.037 6.52 1.8 13.4
11/22/2022 10:45:00 PM 3.38 38.084 0.037 6.56 1.79 13.4
11/22/2022 11:00:00 PM 3.35 38.03 0.037 6.55 1.79 13.41
11/22/2022 11:15:00 PM 3.33 37.994 0.037 6.57 1.79 13.42
11/22/2022 11:30:00 PM 3.3 37.94 0.037 6.56 1.75 13.43
11/22/2022 11:45:00 PM 3.27 37.886 0.037 6.6 1.79 13.44
11/23/2022 12:00:00 AM 3.24 37.832 0.037 6.56 1.79 13.45
11/23/2022 12:15:00 AM 3.21 37.778 0.037 6.6 1.82 13.47
11/23/2022 12:30:00 AM 3.18 37.724 0.037 6.56 1.81 13.48
11/23/2022 12:45:00 AM 3.16 37.688 0.037 6.56 1.77 13.49
11/23/2022 1:00:00 AM 3.12 37.616 0.037 6.56 1.78 13.5
11/23/2022 1:15:00 AM 3.1 37.58 0.037 6.56 1.79 13.5
11/23/2022 1:30:00 AM 3.09 37.562 0.037 6.52 1.75 13.51
11/23/2022 1:45:00 AM 3.08 37.544 0.037 6.56 1.77 13.52
11/23/2022 2:00:00 AM 3.07 37.526 0.037 6.55 1.76 13.52
11/23/2022 2:15:00 AM 3.07 37.526 0.037 6.53 1.75 13.53
11/23/2022 2:30:00 AM 3.05 37.49 0.037 6.57 1.81 13.54
11/23/2022 2:45:00 AM 3.06 37.508 0.037 6.59 1.8 13.53
11/23/2022 3:00:00 AM 3.03 37.454 0.037 6.53 1.86 13.54
11/23/2022 3:15:00 AM 3.01 37.418 0.037 6.54 1.8 13.54
11/23/2022 3:30:00 AM 2.99 37.382 0.037 6.54 1.77 13.55
11/23/2022 3:45:00 AM 2.97 37.346 0.037 6.55 1.77 13.55
11/23/2022 4:00:00 AM 2.94 37.292 0.037 6.56 1.8 13.57
11/23/2022 4:15:00 AM 2.92 37.256 0.037 6.53 1.76 13.57
11/23/2022 4:30:00 AM 2.89 37.202 0.037 6.55 1.76 13.59
11/23/2022 4:45:00 AM 2.87 37.166 0.037 6.54 1.89 13.6
11/23/2022 5:00:00 AM 2.84 37.112 0.037 6.57 1.74 13.61
11/23/2022 5:15:00 AM 2.82 37.076 0.037 6.56 1.78 13.62
11/23/2022 5:30:00 AM 2.79 37.022 0.037 6.56 1.91 13.63
11/23/2022 5:45:00 AM 2.77 36.986 0.037 6.55 1.78 13.64
11/23/2022 6:00:00 AM 2.75 36.95 0.037 6.55 1.79 13.64
11/23/2022 6:15:00 AM 2.73 36.914 0.037 6.52 1.75 13.65
11/23/2022 6:30:00 AM 2.7 36.86 0.037 6.53 1.73 13.66
11/23/2022 6:45:00 AM 2.68 36.824 0.037 6.57 1.73 13.68
11/23/2022 7:00:00 AM 2.66 36.788 0.037 6.58 1.8 13.69
11/23/2022 7:15:00 AM 2.65 36.77 0.037 6.55 1.74 13.7
11/23/2022 7:30:00 AM 2.64 36.752 0.037 6.57 1.72 13.73
11/23/2022 7:45:00 AM 2.63 36.734 0.037 6.55 1.83 13.77
11/23/2022 8:00:00 AM 2.62 36.716 0.037 6.58 1.74 13.81
11/23/2022 8:15:00 AM 2.63 36.734 0.037 6.58 1.77 13.83
11/23/2022 8:30:00 AM 2.63 36.734 0.037 6.58 1.69 13.86
11/23/2022 8:45:00 AM 2.65 36.77 0.037 6.56 1.77 13.88
11/23/2022 9:00:00 AM 2.67 36.806 0.037 6.57 1.77 13.9
11/23/2022 9:15:00 AM 2.7 36.86 0.037 6.53 1.78 13.91
11/23/2022 9:30:00 AM 2.74 36.932 0.037 6.63 1.77 13.91
11/23/2022 9:45:00 AM 2.81 37.058 0.037 6.55 1.74 13.9
11/23/2022 10:00:00 AM 2.88 37.184 0.037 6.64 1.72 13.9
11/23/2022 10:15:00 AM 2.98 37.364 0.037 6.61 1.75 13.87
11/23/2022 10:30:00 AM 3.1 37.58 0.037 6.65 1.71 13.85
11/23/2022 10:45:00 AM 3.23 37.814 0.037 6.6 1.8 13.81
11/23/2022 11:00:00 AM 3.37 38.066 0.037 6.61 1.69 13.77
11/23/2022 11:15:00 AM 3.52 38.336 0.037 6.6 1.79 13.73
11/23/2022 11:30:00 AM 3.69 38.642 0.037 6.6 1.68 13.68
11/23/2022 11:45:00 AM 3.85 38.93 0.036 6.6 1.69 13.64
11/23/2022 12:00:00 PM 3.98 39.164 0.037 6.62 1.73 13.59
11/23/2022 12:15:00 PM 4.1 39.38 0.037 6.63 1.7 13.56
11/23/2022 12:30:00 PM 4.21 39.578 0.037 6.67 1.72 13.52
11/23/2022 12:45:00 PM 4.3 39.74 0.037 6.66 1.68 13.48
11/23/2022 1:00:00 PM 4.38 39.884 0.037 6.67 1.68 13.45
11/23/2022 1:15:00 PM 4.42 39.956 0.037 6.69 1.74 13.43
11/23/2022 1:30:00 PM 4.46 40.028 0.037 6.63 1.65 13.41
11/23/2022 1:45:00 PM 4.49 40.082 0.037 6.63 1.69 13.38
11/23/2022 2:00:00 PM 4.51 40.118 0.037 6.63 1.7 13.37
11/23/2022 2:15:00 PM 4.52 40.136 0.037 6.63 1.68 13.36
11/23/2022 2:30:00 PM 4.52 40.136 0.037 6.63 1.72 13.34
11/23/2022 2:45:00 PM 4.52 40.136 0.037 6.61 1.68 13.33
11/23/2022 3:00:00 PM 4.52 40.136 0.037 6.64 1.73 13.31
11/23/2022 3:15:00 PM 4.51 40.118 0.037 6.64 1.68 13.3
11/23/2022 3:30:00 PM 4.51 40.118 0.037 6.68 1.67 13.28
11/23/2022 3:45:00 PM 4.51 40.118 0.037 6.67 1.7 13.25
11/23/2022 4:00:00 PM 4.5 40.1 0.037 6.66 1.7 13.22
11/23/2022 4:15:00 PM 4.49 40.082 0.037 6.66 1.74 13.19
11/23/2022 4:30:00 PM 4.48 40.064 0.037 6.63 1.75 13.16
11/23/2022 4:45:00 PM 4.47 40.046 0.037 6.62 1.7 13.13
11/23/2022 5:00:00 PM 4.45 40.01 0.037 6.61 1.73 13.09
11/23/2022 5:15:00 PM 4.43 39.974 0.037 6.58 1.76 13.07
11/23/2022 5:30:00 PM 4.41 39.938 0.037 6.61 1.81 13.07
11/23/2022 5:45:00 PM 4.4 39.92 0.037 6.59 1.79 13.06
11/23/2022 6:00:00 PM 4.38 39.884 0.037 6.6 1.88 13.05
11/23/2022 6:15:00 PM 4.36 39.848 0.037 6.61 1.79 13.05
11/23/2022 6:30:00 PM 4.33 39.794 0.037 6.66 1.81 13.07
11/23/2022 6:45:00 PM 4.3 39.74 0.038 6.6 1.79 13.08
11/23/2022 7:00:00 PM 4.27 39.686 0.037 6.59 1.82 13.08
11/23/2022 7:15:00 PM 4.24 39.632 0.037 6.59 1.8 13.1
11/23/2022 7:30:00 PM 4.2 39.56 0.037 6.57 1.85 13.12
11/23/2022 7:45:00 PM 4.18 39.524 0.038 6.64 1.79 13.13
11/23/2022 8:00:00 PM 4.14 39.452 0.038 6.58 1.82 13.14
11/23/2022 8:15:00 PM 4.12 39.416 0.038 6.58 1.79 13.15
11/23/2022 8:30:00 PM 4.09 39.362 0.038 6.58 1.81 13.16
11/23/2022 8:45:00 PM 4.05 39.29 0.038 6.62 1.76 13.18
11/23/2022 9:00:00 PM 4.02 39.236 0.037 6.63 1.81 13.2
11/23/2022 9:15:00 PM 3.99 39.182 0.038 6.62 1.71 13.2
11/23/2022 9:30:00 PM 3.95 39.11 0.038 6.6 1.74 13.22
11/23/2022 9:45:00 PM 3.92 39.056 0.038 6.54 1.75 13.23
11/23/2022 10:00:00 PM 3.89 39.002 0.038 6.63 1.79 13.25
11/23/2022 10:15:00 PM 3.85 38.93 0.038 6.63 1.79 13.26
11/23/2022 10:30:00 PM 3.82 38.876 0.038 6.58 1.78 13.27
11/23/2022 10:45:00 PM 3.78 38.804 0.037 6.59 1.84 13.29
11/23/2022 11:00:00 PM 3.74 38.732 0.037 6.6 1.77 13.31
11/23/2022 11:15:00 PM 3.71 38.678 0.038 6.56 1.78 13.32
11/23/2022 11:30:00 PM 3.68 38.624 0.037 6.53 1.8 13.34
11/23/2022 11:45:00 PM 3.64 38.552 0.038 6.58 1.84 13.35
11/24/2022 12:00:00 AM 3.6 38.48 0.037 6.58 1.82 13.37
11/24/2022 12:15:00 AM 3.57 38.426 0.037 6.56 1.77 13.38
11/24/2022 12:30:00 AM 3.54 38.372 0.037 6.6 1.82 13.39
11/24/2022 12:45:00 AM 3.51 38.318 0.037 6.61 1.8 13.4
11/24/2022 1:00:00 AM 3.47 38.246 0.037 6.57 1.86 13.42
11/24/2022 1:15:00 AM 3.45 38.21 0.038 6.56 1.81 13.43
11/24/2022 1:30:00 AM 3.42 38.156 0.038 6.61 1.77 13.43
11/24/2022 1:45:00 AM 3.39 38.102 0.038 6.56 1.75 13.45
11/24/2022 2:00:00 AM 3.36 38.048 0.037 6.56 1.72 13.46
11/24/2022 2:15:00 AM 3.33 37.994 0.038 6.56 1.76 13.47
11/24/2022 2:30:00 AM 3.3 37.94 0.037 6.55 1.76 13.49
11/24/2022 2:45:00 AM 3.27 37.886 0.037 6.56 1.81 13.5
11/24/2022 3:00:00 AM 3.24 37.832 0.038 6.57 1.72 13.51
11/24/2022 3:15:00 AM 3.22 37.796 0.037 6.55 1.81 13.53
11/24/2022 3:30:00 AM 3.19 37.742 0.037 6.55 1.73 13.54
11/24/2022 3:45:00 AM 3.16 37.688 0.038 6.54 1.75 13.54
11/24/2022 4:00:00 AM 3.14 37.652 0.038 6.55 1.76 13.56
11/24/2022 4:15:00 AM 3.11 37.598 0.037 6.55 1.8 13.57
11/24/2022 4:30:00 AM 3.09 37.562 0.038 6.62 1.78 13.58
11/24/2022 4:45:00 AM 3.06 37.508 0.037 6.55 1.79 13.59
11/24/2022 5:00:00 AM 3.04 37.472 0.037 6.58 1.83 13.59
11/24/2022 5:15:00 AM 3.01 37.418 0.038 6.58 1.83 13.61
11/24/2022 5:30:00 AM 2.98 37.364 0.037 6.54 1.79 13.62
11/24/2022 5:45:00 AM 2.96 37.328 0.037 6.54 1.81 13.62
11/24/2022 6:00:00 AM 2.94 37.292 0.037 6.52 1.75 13.63
11/24/2022 6:15:00 AM 2.91 37.238 0.037 6.54 1.75 13.65
11/24/2022 6:30:00 AM 2.89 37.202 0.037 6.61 1.77 13.66
11/24/2022 6:45:00 AM 2.87 37.166 0.037 6.52 1.76 13.66
11/24/2022 7:00:00 AM 2.86 37.148 0.038 6.52 1.78 13.68
11/24/2022 7:15:00 AM 2.83 37.094 0.038 6.49 1.78 13.7
11/24/2022 7:30:00 AM 2.82 37.076 0.037 6.53 1.72 13.73
11/24/2022 7:45:00 AM 2.8 37.04 0.038 6.54 1.72 13.77
11/24/2022 8:00:00 AM 2.8 37.04 0.037 6.54 1.74 13.81
11/24/2022 8:15:00 AM 2.8 37.04 0.037 6.53 1.75 13.84
11/24/2022 8:30:00 AM 2.8 37.04 0.037 6.55 1.69 13.88
11/24/2022 8:45:00 AM 2.81 37.058 0.037 6.57 1.75 13.9
11/24/2022 9:00:00 AM 2.83 37.094 0.037 6.64 1.72 13.92
11/24/2022 9:15:00 AM 2.87 37.166 0.037 6.61 1.7 13.93
11/24/2022 9:30:00 AM 2.91 37.238 0.037 6.62 1.75 13.93
11/24/2022 9:45:00 AM 2.96 37.328 0.037 6.61 1.68 13.93
11/24/2022 10:00:00 AM 3.02 37.436 0.037 6.59 1.75 13.92
11/24/2022 10:15:00 AM 3.11 37.598 0.037 6.67 1.71 13.9
11/24/2022 10:30:00 AM 3.21 37.778 0.037 6.66 1.8 13.88
11/24/2022 10:45:00 AM 3.32 37.976 0.037 6.62 1.66 13.86
11/24/2022 11:00:00 AM 3.45 38.21 0.037 6.66 1.63 13.83
11/24/2022 11:15:00 AM 3.6 38.48 0.037 6.62 1.68 13.78
11/24/2022 11:30:00 AM 3.75 38.75 0.037 6.61 1.71 13.74
11/24/2022 11:45:00 AM 3.9 39.02 0.037 6.63 1.72 13.69
11/24/2022 12:00:00 PM 4.02 39.236 0.037 6.61 1.69 13.64
11/24/2022 12:15:00 PM 4.15 39.47 0.037 6.62 1.68 13.6
11/24/2022 12:30:00 PM 4.28 39.704 0.037 6.66 1.68 13.56
11/24/2022 12:45:00 PM 4.38 39.884 0.037 6.69 1.69 13.53
11/24/2022 1:00:00 PM 4.45 40.01 0.037 6.67 1.7 13.49
11/24/2022 1:15:00 PM 4.5 40.1 0.037 6.63 1.7 13.47
11/24/2022 1:30:00 PM 4.54 40.172 0.037 6.65 1.7 13.45
11/24/2022 1:45:00 PM 4.56 40.208 0.037 6.63 1.73 13.42
11/24/2022 2:00:00 PM 4.59 40.262 0.037 6.65 1.64 13.4
11/24/2022 2:15:00 PM 4.61 40.298 0.037 6.65 1.74 13.38
11/24/2022 2:30:00 PM 4.62 40.316 0.037 6.71 1.71 13.36
11/24/2022 2:45:00 PM 4.63 40.334 0.037 6.65 1.7 13.34
11/24/2022 3:00:00 PM 4.63 40.334 0.037 6.66 1.7 13.32
11/24/2022 3:15:00 PM 4.62 40.316 0.037 6.64 1.71 13.3
11/24/2022 3:30:00 PM 4.61 40.298 0.037 6.64 1.71 13.27
11/24/2022 3:45:00 PM 4.62 40.316 0.037 6.71 1.7 13.26
11/24/2022 4:00:00 PM 4.62 40.316 0.037 6.68 1.75 13.23
11/24/2022 4:15:00 PM 4.61 40.298 0.037 6.64 1.74 13.2
11/24/2022 4:30:00 PM 4.61 40.298 0.037 6.65 1.73 13.16
11/24/2022 4:45:00 PM 4.59 40.262 0.037 6.63 1.72 13.12
11/24/2022 5:00:00 PM 4.57 40.226 0.037 6.63 1.87 13.07
11/24/2022 5:15:00 PM 4.55 40.19 0.038 6.61 1.81 13.05
11/24/2022 5:30:00 PM 4.54 40.172 0.038 6.61 1.74 13.03
11/24/2022 5:45:00 PM 4.53 40.154 0.038 6.62 1.8 13.01
11/24/2022 6:00:00 PM 4.52 40.136 0.038 6.61 1.78 13
11/24/2022 6:15:00 PM 4.5 40.1 0.038 6.61 1.8 13
11/24/2022 6:30:00 PM 4.48 40.064 0.038 6.61 1.78 12.99
11/24/2022 6:45:00 PM 4.46 40.028 0.038 6.58 1.78 13
11/24/2022 7:00:00 PM 4.44 39.992 0.038 6.59 1.83 13.01
11/24/2022 7:15:00 PM 4.42 39.956 0.038 6.65 1.82 13.01
11/24/2022 7:30:00 PM 4.39 39.902 0.038 6.59 1.82 13.02
11/24/2022 7:45:00 PM 4.36 39.848 0.038 6.58 1.83 13.03
11/24/2022 8:00:00 PM 4.34 39.812 0.038 6.61 1.82 13.03
11/24/2022 8:15:00 PM 4.31 39.758 0.038 6.6 1.79 13.05
11/24/2022 8:30:00 PM 4.29 39.722 0.038 6.6 1.82 13.04
11/24/2022 8:45:00 PM 4.26 39.668 0.038 6.61 1.82 13.06
11/24/2022 9:00:00 PM 4.24 39.632 0.038 6.58 1.84 13.07
11/24/2022 9:15:00 PM 4.21 39.578 0.038 6.63 1.83 13.08
11/24/2022 9:30:00 PM 4.18 39.524 0.038 6.58 1.77 13.09
11/24/2022 9:45:00 PM 4.16 39.488 0.038 6.61 1.79 13.09
11/24/2022 10:00:00 PM 4.15 39.47 0.038 6.59 1.75 13.09
11/24/2022 10:15:00 PM 4.13 39.434 0.038 6.64 1.81 13.1
11/24/2022 10:30:00 PM 4.12 39.416 0.038 6.59 1.8 13.09
11/24/2022 10:45:00 PM 4.1 39.38 0.038 6.62 1.74 13.1
11/24/2022 11:00:00 PM 4.08 39.344 0.038 6.65 1.73 13.11
11/24/2022 11:15:00 PM 4.07 39.326 0.038 6.59 1.83 13.12
11/24/2022 11:30:00 PM 4.07 39.326 0.038 6.64 1.75 13.12
11/24/2022 11:45:00 PM 4.06 39.308 0.038 6.63 1.75 13.11
11/25/2022 12:00:00 AM 4.05 39.29 0.038 6.64 1.74 13.12
11/25/2022 12:15:00 AM 4.05 39.29 0.038 6.57 1.77 13.13
11/25/2022 12:30:00 AM 4.05 39.29 0.038 6.62 1.76 13.13
11/25/2022 12:45:00 AM 4.05 39.29 0.038 6.58 1.74 13.12
11/25/2022 1:00:00 AM 4.05 39.29 0.038 6.58 1.74 13.12
11/25/2022 1:15:00 AM 4.06 39.308 0.038 6.57 1.8 13.12
11/25/2022 1:30:00 AM 4.06 39.308 0.038 6.59 1.8 13.12
11/25/2022 1:45:00 AM 4.08 39.344 0.038 6.6 1.76 13.11
11/25/2022 2:00:00 AM 4.1 39.38 0.038 6.59 1.76 13.1
11/25/2022 2:15:00 AM 4.12 39.416 0.038 6.57 1.77 13.09
11/25/2022 2:30:00 AM 4.13 39.434 0.038 6.58 1.73 13.08
11/25/2022 2:45:00 AM 4.14 39.452 0.038 6.57 1.8 13.08
11/25/2022 3:00:00 AM 4.16 39.488 0.038 6.59 1.74 13.07
11/25/2022 3:15:00 AM 4.17 39.506 0.038 6.59 1.85 13.07
11/25/2022 3:30:00 AM 4.18 39.524 0.038 6.58 1.78 13.05
11/25/2022 3:45:00 AM 4.19 39.542 0.038 6.57 1.74 13.05
11/25/2022 4:00:00 AM 4.2 39.56 0.038 6.56 1.75 13.04
11/25/2022 4:15:00 AM 4.22 39.596 0.038 6.56 1.72 13.04
11/25/2022 4:30:00 AM 4.23 39.614 0.038 6.56 1.75 13.03
11/25/2022 4:45:00 AM 4.24 39.632 0.038 6.56 1.75 13.02
11/25/2022 5:00:00 AM 4.26 39.668 0.038 6.57 1.73 13.01
11/25/2022 5:15:00 AM 4.27 39.686 0.038 6.53 1.75 13.01
11/25/2022 5:30:00 AM 4.28 39.704 0.038 6.57 1.74 13
11/25/2022 5:45:00 AM 4.3 39.74 0.038 6.57 1.79 12.99
11/25/2022 6:00:00 AM 4.3 39.74 0.038 6.63 1.74 12.99
11/25/2022 6:15:00 AM 4.32 39.776 0.038 6.58 1.78 12.98
11/25/2022 6:30:00 AM 4.33 39.794 0.038 6.58 1.77 12.97
11/25/2022 6:45:00 AM 4.34 39.812 0.038 6.57 1.77 12.96
11/25/2022 7:00:00 AM 4.35 39.83 0.038 6.58 1.75 12.96
11/25/2022 7:15:00 AM 4.36 39.848 0.038 6.59 1.8 12.96
11/25/2022 7:30:00 AM 4.39 39.902 0.038 6.59 1.81 12.96
11/25/2022 7:45:00 AM 4.42 39.956 0.038 6.6 1.75 12.98
11/25/2022 8:00:00 AM 4.44 39.992 0.038 6.61 1.77 12.98
11/25/2022 8:15:00 AM 4.46 40.028 0.038 6.6 1.77 12.98
11/25/2022 8:30:00 AM 4.49 40.082 0.038 6.66 1.77 12.97
11/25/2022 8:45:00 AM 4.52 40.136 0.038 6.6 1.72 12.98
11/25/2022 9:00:00 AM 4.55 40.19 0.038 6.63 1.73 12.99
11/25/2022 9:15:00 AM 4.58 40.244 0.038 6.6 1.74 13
11/25/2022 9:30:00 AM 4.61 40.298 0.038 6.59 1.73 13.02
11/25/2022 9:45:00 AM 4.67 40.406 0.037 6.61 1.77 13.06
11/25/2022 10:00:00 AM 4.78 40.604 0.038 6.64 1.75 13.08
11/25/2022 10:15:00 AM 4.88 40.784 0.037 6.65 1.73 13.1
11/25/2022 10:30:00 AM 4.98 40.964 0.037 6.62 1.79 13.08
11/25/2022 10:45:00 AM 5.03 41.054 0.037 6.64 1.74 13.04
11/25/2022 11:00:00 AM 5.11 41.198 0.037 6.65 1.77 13.03
11/25/2022 11:15:00 AM 5.21 41.378 0.037 6.63 1.72 13.01
11/25/2022 11:30:00 AM 5.32 41.576 0.037 6.66 1.78 12.97
11/25/2022 11:45:00 AM 5.42 41.756 0.037 6.65 1.69 12.94
11/25/2022 12:00:00 PM 5.53 41.954 0.037 6.72 1.71 12.91
11/25/2022 12:15:00 PM 5.62 42.116 0.037 6.74 1.72 12.9
11/25/2022 12:30:00 PM 5.77 42.386 0.037 6.68 1.71 12.86
11/25/2022 12:45:00 PM 5.84 42.512 0.037 6.65 1.79 12.8
11/25/2022 1:00:00 PM 5.87 42.566 0.037 6.69 1.75 12.79
11/25/2022 1:15:00 PM 5.98 42.764 0.037 6.75 1.86 12.76
11/25/2022 1:30:00 PM 6.05 42.89 0.037 6.67 1.79 12.7
11/25/2022 1:45:00 PM 6.13 43.034 0.037 6.69 1.79 12.67
11/25/2022 2:00:00 PM 6.19 43.142 0.037 6.7 1.75 12.63
11/25/2022 2:15:00 PM 6.19 43.142 0.037 6.66 1.73 12.61
11/25/2022 2:30:00 PM 6.24 43.232 0.037 6.73 1.79 12.59
11/25/2022 2:45:00 PM 6.24 43.232 0.037 6.69 1.83 12.59
11/25/2022 3:00:00 PM 6.23 43.214 0.037 6.67 1.82 12.58
11/25/2022 3:15:00 PM 6.23 43.214 0.037 6.74 1.84 12.57
11/25/2022 3:30:00 PM 6.22 43.196 0.037 6.68 1.85 12.56
11/25/2022 3:45:00 PM 6.18 43.124 0.037 6.71 1.81 12.57
11/25/2022 4:00:00 PM 6.13 43.034 0.037 6.65 1.81 12.54
11/25/2022 4:15:00 PM 6.08 42.944 0.037 6.66 1.9 12.52
11/25/2022 4:30:00 PM 6.04 42.872 0.037 6.65 1.82 12.48
11/25/2022 4:45:00 PM 6.01 42.818 0.037 6.72 1.83 12.45
11/25/2022 5:00:00 PM 5.97 42.746 0.037 6.65 1.9 12.43
11/25/2022 5:15:00 PM 5.93 42.674 0.037 6.65 1.85 12.43
11/25/2022 5:30:00 PM 5.91 42.638 0.037 6.64 1.94 12.41
11/25/2022 5:45:00 PM 5.88 42.584 0.037 6.62 1.88 12.41
11/25/2022 6:00:00 PM 5.86 42.548 0.037 6.62 1.92 12.42
11/25/2022 6:15:00 PM 5.84 42.512 0.037 6.62 1.91 12.42
11/25/2022 6:30:00 PM 5.82 42.476 0.037 6.62 2.06 12.42
11/25/2022 6:45:00 PM 5.8 42.44 0.037 6.6 1.88 12.42
11/25/2022 7:00:00 PM 5.79 42.422 0.037 6.6 1.9 12.44
11/25/2022 7:15:00 PM 5.78 42.404 0.037 6.59 1.88 12.43
11/25/2022 7:30:00 PM 5.77 42.386 0.037 6.68 1.9 12.44
11/25/2022 7:45:00 PM 5.76 42.368 0.037 6.62 1.96 12.45
11/25/2022 8:00:00 PM 5.74 42.332 0.037 6.61 1.93 12.45
11/25/2022 8:15:00 PM 5.72 42.296 0.037 6.65 1.85 12.47
11/25/2022 8:30:00 PM 5.71 42.278 0.037 6.62 1.89 12.47
11/25/2022 8:45:00 PM 5.7 42.26 0.037 6.62 1.9 12.47
11/25/2022 9:00:00 PM 5.67 42.206 0.037 6.62 1.81 12.49
11/25/2022 9:15:00 PM 5.64 42.152 0.037 6.67 1.84 12.49
11/25/2022 9:30:00 PM 5.62 42.116 0.037 6.6 1.88 12.5
11/25/2022 9:45:00 PM 5.59 42.062 0.037 6.6 1.9 12.51
11/25/2022 10:00:00 PM 5.56 42.008 0.037 6.59 1.88 12.53
11/25/2022 10:15:00 PM 5.54 41.972 0.037 6.61 1.85 12.54
11/25/2022 10:30:00 PM 5.51 41.918 0.037 6.62 1.86 12.54
11/25/2022 10:45:00 PM 5.49 41.882 0.037 6.63 1.92 12.56
11/25/2022 11:00:00 PM 5.45 41.81 0.037 6.61 1.89 12.58
11/25/2022 11:15:00 PM 5.42 41.756 0.037 6.6 1.87 12.59
11/25/2022 11:30:00 PM 5.39 41.702 0.037 6.58 1.83 12.6
11/25/2022 11:45:00 PM 5.36 41.648 0.037 6.6 1.85 12.61
11/26/2022 12:00:00 AM 5.34 41.612 0.037 6.58 1.84 12.63
11/26/2022 12:15:00 AM 5.31 41.558 0.037 6.61 1.86 12.63
11/26/2022 12:30:00 AM 5.29 41.522 0.037 6.62 1.84 12.64
11/26/2022 12:45:00 AM 5.27 41.486 0.037 6.6 1.84 12.65
11/26/2022 1:00:00 AM 5.26 41.468 0.037 6.62 1.91 12.66
11/26/2022 1:15:00 AM 5.23 41.414 0.037 6.6 1.82 12.67
11/26/2022 1:30:00 AM 5.22 41.396 0.037 6.59 1.96 12.67
11/26/2022 1:45:00 AM 5.2 41.36 0.037 6.64 1.86 12.68
11/26/2022 2:00:00 AM 5.18 41.324 0.037 6.64 1.89 12.69
11/26/2022 2:15:00 AM 5.16 41.288 0.037 6.65 1.82 12.7
11/26/2022 2:30:00 AM 5.14 41.252 0.037 6.6 1.86 12.7
11/26/2022 2:45:00 AM 5.12 41.216 0.037 6.65 1.88 12.71
11/26/2022 3:00:00 AM 5.11 41.198 0.037 6.65 1.8 12.72
11/26/2022 3:15:00 AM 5.1 41.18 0.037 6.59 1.84 12.72
11/26/2022 3:30:00 AM 5.09 41.162 0.036 6.6 1.87 12.73
11/26/2022 3:45:00 AM 5.06 41.108 0.037 6.58 1.8 12.74
11/26/2022 4:00:00 AM 5.03 41.054 0.037 6.58 1.91 12.74
11/26/2022 4:15:00 AM 5 41 0.036 6.59 1.84 12.76
11/26/2022 4:30:00 AM 4.97 40.946 0.036 6.58 1.81 12.76
11/26/2022 4:45:00 AM 4.93 40.874 0.037 6.57 1.82 12.78
11/26/2022 5:00:00 AM 4.89 40.802 0.037 6.6 1.99 12.79
11/26/2022 5:15:00 AM 4.86 40.748 0.036 6.58 1.9 12.8
11/26/2022 5:30:00 AM 4.81 40.658 0.037 6.58 1.8 12.82
11/26/2022 5:45:00 AM 4.77 40.586 0.037 6.58 1.86 12.83
11/26/2022 6:00:00 AM 4.72 40.496 0.037 6.58 1.75 12.85
11/26/2022 6:15:00 AM 4.67 40.406 0.037 6.6 1.85 12.87
11/26/2022 6:30:00 AM 4.62 40.316 0.037 6.57 1.88 12.88
11/26/2022 6:45:00 AM 4.58 40.244 0.036 6.59 1.86 12.9
11/26/2022 7:00:00 AM 4.54 40.172 0.036 6.58 1.76 12.92
11/26/2022 7:15:00 AM 4.5 40.1 0.037 6.58 1.79 12.95
11/26/2022 7:30:00 AM 4.46 40.028 0.037 6.58 1.8 12.99
11/26/2022 7:45:00 AM 4.42 39.956 0.037 6.56 1.82 13.03
11/26/2022 8:00:00 AM 4.4 39.92 0.036 6.59 1.82 13.07
11/26/2022 8:15:00 AM 4.37 39.866 0.036 6.58 1.84 13.12
11/26/2022 8:30:00 AM 4.35 39.83 0.036 6.59 1.84 13.16
11/26/2022 8:45:00 AM 4.35 39.83 0.036 6.61 1.8 13.19
11/26/2022 9:00:00 AM 4.34 39.812 0.036 6.61 1.79 13.22
11/26/2022 9:15:00 AM 4.34 39.812 0.036 6.63 1.86 13.23
11/26/2022 9:30:00 AM 4.36 39.848 0.037 6.59 1.86 13.25
11/26/2022 9:45:00 AM 4.39 39.902 0.036 6.61 1.79 13.26
11/26/2022 10:00:00 AM 4.43 39.974 0.036 6.67 1.87 13.27
11/26/2022 10:15:00 AM 4.49 40.082 0.036 6.62 1.8 13.26
11/26/2022 10:30:00 AM 4.58 40.244 0.036 6.61 1.77 13.25
11/26/2022 10:45:00 AM 4.68 40.424 0.036 6.69 1.77 13.23
11/26/2022 11:00:00 AM 4.8 40.64 0.036 6.62 1.77 13.21
11/26/2022 11:15:00 AM 4.93 40.874 0.036 6.64 1.77 13.18
11/26/2022 11:30:00 AM 5.06 41.108 0.036 6.65 1.81 13.15
11/26/2022 11:45:00 AM 5.19 41.342 0.036 6.65 1.79 13.11
11/26/2022 12:00:00 PM 5.33 41.594 0.036 6.66 1.74 13.07
11/26/2022 12:15:00 PM 5.44 41.792 0.036 6.72 1.84 13.05
11/26/2022 12:30:00 PM 5.54 41.972 0.036 6.65 1.75 13.02
11/26/2022 12:45:00 PM 5.62 42.116 0.036 6.69 1.76 13
11/26/2022 1:00:00 PM 5.67 42.206 0.036 6.72 1.74 12.97
11/26/2022 1:15:00 PM 5.7 42.26 0.036 6.69 1.78 12.95
11/26/2022 1:30:00 PM 5.72 42.296 0.036 6.69 1.74 12.94
11/26/2022 1:45:00 PM 5.74 42.332 0.036 6.67 1.76 12.92
11/26/2022 2:00:00 PM 5.73 42.314 0.036 6.65 1.84 12.91
11/26/2022 2:15:00 PM 5.73 42.314 0.036 6.72 1.75 12.9
11/26/2022 2:30:00 PM 5.72 42.296 0.036 6.72 1.8 12.88
11/26/2022 2:45:00 PM 5.7 42.26 0.036 6.73 1.85 12.87
11/26/2022 3:00:00 PM 5.69 42.242 0.036 6.68 1.79 12.85
11/26/2022 3:15:00 PM 5.67 42.206 0.036 6.73 1.79 12.84
11/26/2022 3:30:00 PM 5.65 42.17 0.036 6.67 1.75 12.82
11/26/2022 3:45:00 PM 5.63 42.134 0.036 6.67 1.79 12.79
11/26/2022 4:00:00 PM 5.62 42.116 0.037 6.65 1.79 12.76
11/26/2022 4:15:00 PM 5.6 42.08 0.037 6.64 1.71 12.72
11/26/2022 4:30:00 PM 5.58 42.044 0.037 6.67 1.78 12.69
11/26/2022 4:45:00 PM 5.56 42.008 0.037 6.65 1.78 12.65
11/26/2022 5:00:00 PM 5.55 41.99 0.037 6.64 1.79 12.61
11/26/2022 5:15:00 PM 5.53 41.954 0.037 6.64 1.77 12.59
11/26/2022 5:30:00 PM 5.52 41.936 0.037 6.62 1.79 12.57
11/26/2022 5:45:00 PM 5.51 41.918 0.037 6.59 1.81 12.57
11/26/2022 6:00:00 PM 5.49 41.882 0.037 6.61 1.79 12.56
11/26/2022 6:15:00 PM 5.47 41.846 0.037 6.6 1.8 12.56
11/26/2022 6:30:00 PM 5.45 41.81 0.037 6.6 1.73 12.57
11/26/2022 6:45:00 PM 5.42 41.756 0.037 6.61 1.83 12.57
11/26/2022 7:00:00 PM 5.39 41.702 0.037 6.62 1.91 12.58
11/26/2022 7:15:00 PM 5.35 41.63 0.037 6.64 1.79 12.59
11/26/2022 7:30:00 PM 5.32 41.576 0.037 6.6 1.76 12.6
11/26/2022 7:45:00 PM 5.28 41.504 0.037 6.59 1.86 12.61
11/26/2022 8:00:00 PM 5.25 41.45 0.038 6.57 1.86 12.62
11/26/2022 8:15:00 PM 5.22 41.396 0.037 6.58 1.79 12.63
11/26/2022 8:30:00 PM 5.18 41.324 0.037 6.58 1.81 12.64
11/26/2022 8:45:00 PM 5.15 41.27 0.037 6.59 1.8 12.65
11/26/2022 9:00:00 PM 5.12 41.216 0.037 6.58 1.78 12.66
11/26/2022 9:15:00 PM 5.08 41.144 0.037 6.64 1.81 12.67
11/26/2022 9:30:00 PM 5.05 41.09 0.037 6.6 1.82 12.68
11/26/2022 9:45:00 PM 5.02 41.036 0.037 6.59 1.86 12.69
11/26/2022 10:00:00 PM 4.98 40.964 0.037 6.59 1.77 12.71
11/26/2022 10:15:00 PM 4.95 40.91 0.038 6.6 1.74 12.72
11/26/2022 10:30:00 PM 4.91 40.838 0.037 6.58 1.84 12.73
11/26/2022 10:45:00 PM 4.87 40.766 0.038 6.59 1.87 12.74
11/26/2022 11:00:00 PM 4.84 40.712 0.037 6.62 1.86 12.75
11/26/2022 11:15:00 PM 4.79 40.622 0.037 6.6 1.78 12.77
11/26/2022 11:30:00 PM 4.75 40.55 0.038 6.58 1.8 12.78
11/26/2022 11:45:00 PM 4.71 40.478 0.037 6.6 1.84 12.8
11/27/2022 12:00:00 AM 4.67 40.406 0.038 6.57 1.81 12.81
11/27/2022 12:15:00 AM 4.64 40.352 0.038 6.56 1.76 12.83
11/27/2022 12:30:00 AM 4.6 40.28 0.037 6.57 1.86 12.85
11/27/2022 12:45:00 AM 4.56 40.208 0.038 6.6 1.79 12.86
11/27/2022 1:00:00 AM 4.53 40.154 0.037 6.58 1.84 12.86
11/27/2022 1:15:00 AM 4.49 40.082 0.037 6.6 1.77 12.88
11/27/2022 1:30:00 AM 4.46 40.028 0.037 6.57 1.76 12.89
11/27/2022 1:45:00 AM 4.43 39.974 0.037 6.58 1.75 12.9
11/27/2022 2:00:00 AM 4.39 39.902 0.037 6.58 1.79 12.91
11/27/2022 2:15:00 AM 4.37 39.866 0.037 6.62 1.81 12.92
11/27/2022 2:30:00 AM 4.36 39.848 0.037 6.62 1.81 12.93
11/27/2022 2:45:00 AM 4.34 39.812 0.038 6.58 1.83 12.93
11/27/2022 3:00:00 AM 4.32 39.776 0.037 6.61 1.78 12.94
11/27/2022 3:15:00 AM 4.3 39.74 0.038 6.62 1.78 12.95
11/27/2022 3:30:00 AM 4.29 39.722 0.038 6.57 1.83 12.95
11/27/2022 3:45:00 AM 4.27 39.686 0.037 6.64 1.81 12.95
11/27/2022 4:00:00 AM 4.26 39.668 0.037 6.58 1.86 12.96
11/27/2022 4:15:00 AM 4.25 39.65 0.037 6.6 1.79 12.97
11/27/2022 4:30:00 AM 4.25 39.65 0.038 6.64 1.78 12.96
11/27/2022 4:45:00 AM 4.23 39.614 0.037 6.6 1.77 12.96
11/27/2022 5:00:00 AM 4.23 39.614 0.037 6.59 1.75 12.97
11/27/2022 5:15:00 AM 4.22 39.596 0.037 6.64 1.78 12.96
11/27/2022 5:30:00 AM 4.22 39.596 0.037 6.62 1.76 12.97
11/27/2022 5:45:00 AM 4.22 39.596 0.037 6.58 1.8 12.96
11/27/2022 6:00:00 AM 4.22 39.596 0.037 6.58 1.75 12.96
11/27/2022 6:15:00 AM 4.21 39.578 0.037 6.56 1.82 12.96
11/27/2022 6:30:00 AM 4.22 39.596 0.037 6.56 1.91 12.96
11/27/2022 6:45:00 AM 4.22 39.596 0.037 6.56 1.76 12.97
11/27/2022 7:00:00 AM 4.23 39.614 0.038 6.57 1.74 12.95
11/27/2022 7:15:00 AM 4.24 39.632 0.038 6.58 1.8 12.95
11/27/2022 7:30:00 AM 4.24 39.632 0.037 6.6 1.77 12.96
11/27/2022 7:45:00 AM 4.25 39.65 0.038 6.6 1.76 13
11/27/2022 8:00:00 AM 4.27 39.686 0.038 6.59 1.72 13.04
11/27/2022 8:15:00 AM 4.29 39.722 0.038 6.6 1.87 13.05
11/27/2022 8:30:00 AM 4.31 39.758 0.038 6.6 1.75 13.06
11/27/2022 8:45:00 AM 4.34 39.812 0.037 6.58 1.69 13.11
11/27/2022 9:00:00 AM 4.38 39.884 0.037 6.6 1.79 13.14
11/27/2022 9:15:00 AM 4.42 39.956 0.037 6.63 1.78 13.14
11/27/2022 9:30:00 AM 4.46 40.028 0.037 6.66 1.69 13.14
11/27/2022 9:45:00 AM 4.51 40.118 0.037 6.65 1.76 13.14
11/27/2022 10:00:00 AM 4.54 40.172 0.037 6.63 1.76 13.12
11/27/2022 10:15:00 AM 4.59 40.262 0.037 6.64 1.72 13.11
11/27/2022 10:30:00 AM 4.64 40.352 0.037 6.69 1.72 13.09
11/27/2022 10:45:00 AM 4.71 40.478 0.037 6.63 1.69 13.09
11/27/2022 11:00:00 AM 4.76 40.568 0.037 6.64 1.72 13.07
11/27/2022 11:15:00 AM 4.81 40.658 0.037 6.65 1.75 13.05
11/27/2022 11:30:00 AM 4.86 40.748 0.037 6.7 1.74 13.03
11/27/2022 11:45:00 AM 4.9 40.82 0.037 6.72 1.72 13
11/27/2022 12:00:00 PM 4.97 40.946 0.037 6.69 1.75 13
11/27/2022 12:15:00 PM 5.04 41.072 0.037 6.73 1.78 13
11/27/2022 12:30:00 PM 5.1 41.18 0.037 6.67 1.74 12.98
11/27/2022 12:45:00 PM 5.14 41.252 0.037 6.68 1.7 12.93
11/27/2022 1:00:00 PM 5.18 41.324 0.037 6.67 1.75 12.89
11/27/2022 1:15:00 PM 5.21 41.378 0.037 6.73 1.73 12.86
11/27/2022 1:30:00 PM 5.24 41.432 0.037 6.69 1.78 12.84
11/27/2022 1:45:00 PM 5.27 41.486 0.037 6.66 1.78 12.77
11/27/2022 2:00:00 PM 5.29 41.522 0.037 6.67 1.73 12.7
11/27/2022 2:15:00 PM 5.31 41.558 0.037 6.64 1.77 12.68
11/27/2022 2:30:00 PM 5.33 41.594 0.037 6.63 1.83 12.67
11/27/2022 2:45:00 PM 5.34 41.612 0.037 6.7 1.8 12.65
11/27/2022 3:00:00 PM 5.36 41.648 0.037 6.7 1.84 12.63
11/27/2022 3:15:00 PM 5.38 41.684 0.037 6.67 1.85 12.59
11/27/2022 3:30:00 PM 5.39 41.702 0.037 6.65 1.92 12.58
11/27/2022 3:45:00 PM 5.41 41.738 0.037 6.67 2 12.55
11/27/2022 4:00:00 PM 5.43 41.774 0.038 6.65 2.08 12.5
11/27/2022 4:15:00 PM 5.45 41.81 0.038 6.63 2.18 12.48
11/27/2022 4:30:00 PM 5.46 41.828 0.039 6.64 2.2 12.45
11/27/2022 4:45:00 PM 5.48 41.864 0.04 6.7 2.34 12.42
11/27/2022 5:00:00 PM 5.5 41.9 0.041 6.65 2.86 12.41
11/27/2022 5:15:00 PM 5.51 41.918 0.042 6.7 4.67 12.39
11/27/2022 5:30:00 PM 5.52 41.936 0.044 6.7 5.84 12.38
11/27/2022 5:45:00 PM 5.54 41.972 0.045 6.7 6.19 12.38
11/27/2022 6:00:00 PM 5.55 41.99 0.045 6.72 6.27 12.35
11/27/2022 6:15:00 PM 5.57 42.026 0.045 6.76 6.1 12.36
11/27/2022 6:30:00 PM 5.59 42.062 0.045 6.77 6.17 12.35
11/27/2022 6:45:00 PM 5.61 42.098 0.045 6.76 5.19 12.35
11/27/2022 7:00:00 PM 5.62 42.116 0.045 6.68 5.21 12.35
11/27/2022 7:15:00 PM 5.64 42.152 0.045 6.77 5.14 12.34
11/27/2022 7:30:00 PM 5.65 42.17 0.046 6.73 5.92 12.34
11/27/2022 7:45:00 PM 5.66 42.188 0.046 6.76 6.59 12.34
11/27/2022 8:00:00 PM 5.67 42.206 0.046 6.77 6.95 12.34
11/27/2022 8:15:00 PM 5.69 42.242 0.047 6.76 7.98 12.35
11/27/2022 8:30:00 PM 5.69 42.242 0.047 6.78 8.88 12.35
11/27/2022 8:45:00 PM 5.69 42.242 0.047 6.78 9.79 12.35
11/27/2022 9:00:00 PM 5.68 42.224 0.047 6.77 9.62 12.35
11/27/2022 9:15:00 PM 5.67 42.206 0.047 6.77 9.17 12.36
11/27/2022 9:30:00 PM 5.65 42.17 0.046 6.77 8.58 12.36
11/27/2022 9:45:00 PM 5.63 42.134 0.045 6.78 7.41 12.37
11/27/2022 10:00:00 PM 5.61 42.098 0.044 6.8 6.99 12.38
11/27/2022 10:15:00 PM 5.59 42.062 0.044 6.81 6.88 12.39
11/27/2022 10:30:00 PM 5.6 42.08 0.043 6.76 6.03 12.39
11/27/2022 10:45:00 PM 5.6 42.08 0.042 6.75 5.91 12.4
11/27/2022 11:00:00 PM 5.61 42.098 0.041 6.74 6.18 12.4
11/27/2022 11:15:00 PM 5.63 42.134 0.041 6.74 5.87 12.4
11/27/2022 11:30:00 PM 5.64 42.152 0.04 6.74 5.78 12.41
11/27/2022 11:45:00 PM 5.65 42.17 0.039 6.73 5.48 12.41
11/28/2022 12:00:00 AM 5.66 42.188 0.039 6.73 5.6 12.41
11/28/2022 12:15:00 AM 5.67 42.206 0.039 6.74 5.27 12.4
11/28/2022 12:30:00 AM 5.69 42.242 0.038 6.71 5.05 12.4
11/28/2022 12:45:00 AM 5.72 42.296 0.038 6.72 4.88 12.4
11/28/2022 1:00:00 AM 5.74 42.332 0.038 6.73 4.66 12.39
11/28/2022 1:15:00 AM 5.75 42.35 0.037 6.68 4.56 12.39
11/28/2022 1:30:00 AM 5.77 42.386 0.037 6.68 4.62 12.38
11/28/2022 1:45:00 AM 5.79 42.422 0.037 6.67 4.38 12.38
11/28/2022 2:00:00 AM 5.8 42.44 0.037 6.66 4.39 12.37
11/28/2022 2:15:00 AM 5.81 42.458 0.037 6.67 4.26 12.37
11/28/2022 2:30:00 AM 5.81 42.458 0.036 6.67 4.23 12.37
11/28/2022 2:45:00 AM 5.82 42.476 0.036 6.66 4.3 12.37
11/28/2022 3:00:00 AM 5.83 42.494 0.036 6.66 4 12.37
11/28/2022 3:15:00 AM 5.83 42.494 0.036 6.65 3.83 12.36
11/28/2022 3:30:00 AM 5.84 42.512 0.036 6.64 3.81 12.36
11/28/2022 3:45:00 AM 5.86 42.548 0.036 6.65 3.82 12.36
11/28/2022 4:00:00 AM 5.88 42.584 0.036 6.64 3.64 12.36
11/28/2022 4:15:00 AM 5.91 42.638 0.036 6.66 3.77 12.36
11/28/2022 4:30:00 AM 5.95 42.71 0.036 6.65 3.48 12.35
11/28/2022 4:45:00 AM 5.97 42.746 0.036 6.65 3.41 12.34
11/28/2022 5:00:00 AM 5.99 42.782 0.036 6.66 3.38 12.34
11/28/2022 5:15:00 AM 6 42.8 0.036 6.65 3.3 12.34
11/28/2022 5:30:00 AM 6.01 42.818 0.036 6.64 3.5 12.34
11/28/2022 5:45:00 AM 6.02 42.836 0.036 6.66 3.33 12.34
11/28/2022 6:00:00 AM 6.02 42.836 0.036 6.64 3.24 12.34
11/28/2022 6:15:00 AM 6.01 42.818 0.036 6.67 3.11 12.34
11/28/2022 6:30:00 AM 5.99 42.782 0.036 6.65 3.12 12.34
11/28/2022 6:45:00 AM 5.98 42.764 0.036 6.7 3.08 12.35
11/28/2022 7:00:00 AM 5.97 42.746 0.035 6.7 3.11 12.36
11/28/2022 7:15:00 AM 5.95 42.71 0.035 6.65 2.97 12.37
11/28/2022 7:30:00 AM 5.94 42.692 0.036 6.65 2.89 12.4
11/28/2022 7:45:00 AM 5.93 42.674 0.035 6.66 2.89 12.44
11/28/2022 8:00:00 AM 5.94 42.692 0.035 6.66 2.86 12.47
11/28/2022 8:15:00 AM 5.94 42.692 0.035 6.72 2.82 12.5
11/28/2022 8:30:00 AM 5.95 42.71 0.035 6.69 2.77 12.52
11/28/2022 8:45:00 AM 5.96 42.728 0.035 6.68 2.78 12.54
11/28/2022 9:00:00 AM 5.97 42.746 0.035 6.67 2.78 12.55
11/28/2022 9:15:00 AM 5.99 42.782 0.035 6.68 2.72 12.56
11/28/2022 9:30:00 AM 6 42.8 0.035 6.7 2.73 12.57
11/28/2022 9:45:00 AM 6.02 42.836 0.035 6.69 2.69 12.55
11/28/2022 10:00:00 AM 6.02 42.836 0.035 6.68 2.61 12.54
11/28/2022 10:15:00 AM 6.04 42.872 0.034 6.73 2.6 12.54
11/28/2022 10:30:00 AM 6.04 42.872 0.034 6.7 2.62 12.53
11/28/2022 10:45:00 AM 6.05 42.89 0.035 6.67 2.57 12.53
11/28/2022 11:00:00 AM 6.06 42.908 0.034 6.72 2.61 12.56
11/28/2022 11:15:00 AM 6.07 42.926 0.034 6.67 2.61 12.56
11/28/2022 11:30:00 AM 6.07 42.926 0.034 6.67 2.56 12.56
11/28/2022 11:45:00 AM 6.08 42.944 0.034 6.68 2.61 12.58
11/28/2022 12:00:00 PM 6.09 42.962 0.034 6.68 2.6 12.58
11/28/2022 12:15:00 PM 6.1 42.98 0.034 6.7 2.51 12.59
11/28/2022 12:30:00 PM 6.11 42.998 0.034 6.67 2.43 12.58
11/28/2022 12:45:00 PM 6.11 42.998 0.034 6.67 2.48 12.57
11/28/2022 1:00:00 PM 6.1 42.98 0.034 6.65 2.44 12.54
11/28/2022 1:15:00 PM 6.11 42.998 0.034 6.66 2.5 12.54
11/28/2022 1:30:00 PM 6.1 42.98 0.034 6.71 2.5 12.55
11/28/2022 1:45:00 PM 6.1 42.98 0.034 6.66 2.51 12.54
11/28/2022 2:00:00 PM 6.09 42.962 0.034 6.64 2.43 12.55
11/28/2022 2:15:00 PM 6.1 42.98 0.034 6.67 2.43 12.53
11/28/2022 2:30:00 PM 6.09 42.962 0.034 6.67 2.48 12.52
11/28/2022 2:45:00 PM 6.08 42.944 0.034 6.65 2.44 12.52
11/28/2022 3:00:00 PM 6.07 42.926 0.034 6.65 2.45 12.53
11/28/2022 3:15:00 PM 6.07 42.926 0.034 6.66 2.58 12.54
11/28/2022 3:30:00 PM 6.06 42.908 0.034 6.64 2.37 12.53
11/28/2022 3:45:00 PM 6.05 42.89 0.034 6.68 2.45 12.51
11/28/2022 4:00:00 PM 6.04 42.872 0.034 6.69 2.42 12.5
11/28/2022 4:15:00 PM 6.02 42.836 0.034 6.68 2.42 12.49
11/28/2022 4:30:00 PM 6.02 42.836 0.034 6.67 2.45 12.48
11/28/2022 4:45:00 PM 6 42.8 0.034 6.63 2.4 12.47
11/28/2022 5:00:00 PM 6 42.8 0.034 6.64 2.36 12.47
11/28/2022 5:15:00 PM 5.99 42.782 0.034 6.67 2.44 12.47
11/28/2022 5:30:00 PM 5.97 42.746 0.034 6.61 2.39 12.48
11/28/2022 5:45:00 PM 5.95 42.71 0.034 6.63 2.44 12.48
11/28/2022 6:00:00 PM 5.94 42.692 0.034 6.61 2.39 12.49
11/28/2022 6:15:00 PM 5.93 42.674 0.034 6.61 2.39 12.49
11/28/2022 6:30:00 PM 5.92 42.656 0.034 6.63 2.37 12.49
11/28/2022 6:45:00 PM 5.9 42.62 0.034 6.66 2.42 12.5
11/28/2022 7:00:00 PM 5.9 42.62 0.034 6.61 2.42 12.5
11/28/2022 7:15:00 PM 5.89 42.602 0.034 6.61 2.37 12.51
11/28/2022 7:30:00 PM 5.87 42.566 0.034 6.61 2.44 12.52
11/28/2022 7:45:00 PM 5.86 42.548 0.034 6.59 2.41 12.52
11/28/2022 8:00:00 PM 5.85 42.53 0.034 6.61 2.4 12.53
11/28/2022 8:15:00 PM 5.84 42.512 0.034 6.64 2.36 12.53
11/28/2022 8:30:00 PM 5.83 42.494 0.034 6.61 2.43 12.54
11/28/2022 8:45:00 PM 5.82 42.476 0.034 6.59 2.39 12.54
11/28/2022 9:00:00 PM 5.81 42.458 0.034 6.59 2.27 12.55
11/28/2022 9:15:00 PM 5.79 42.422 0.034 6.63 2.4 12.56
11/28/2022 9:30:00 PM 5.78 42.404 0.034 6.6 2.26 12.57
11/28/2022 9:45:00 PM 5.76 42.368 0.034 6.63 2.31 12.57
11/28/2022 10:00:00 PM 5.76 42.368 0.034 6.61 2.27 12.58
11/28/2022 10:15:00 PM 5.74 42.332 0.034 6.61 2.31 12.58
11/28/2022 10:30:00 PM 5.73 42.314 0.034 6.61 2.27 12.59
11/28/2022 10:45:00 PM 5.71 42.278 0.034 6.59 2.27 12.59
11/28/2022 11:00:00 PM 5.7 42.26 0.034 6.58 2.33 12.6
11/28/2022 11:15:00 PM 5.69 42.242 0.034 6.59 2.33 12.61
11/28/2022 11:30:00 PM 5.67 42.206 0.034 6.58 2.26 12.62
11/28/2022 11:45:00 PM 5.65 42.17 0.034 6.58 2.24 12.62
11/29/2022 12:00:00 AM 5.63 42.134 0.034 6.6 2.26 12.62
11/29/2022 12:15:00 AM 5.61 42.098 0.034 6.59 2.24 12.63
11/29/2022 12:30:00 AM 5.59 42.062 0.034 6.58 2.31 12.63
11/29/2022 12:45:00 AM 5.58 42.044 0.034 6.58 2.21 12.64
11/29/2022 1:00:00 AM 5.56 42.008 0.034 6.57 2.26 12.65
11/29/2022 1:15:00 AM 5.55 41.99 0.034 6.58 2.27 12.66
11/29/2022 1:30:00 AM 5.54 41.972 0.034 6.58 2.19 12.66
11/29/2022 1:45:00 AM 5.52 41.936 0.034 6.59 2.18 12.67
11/29/2022 2:00:00 AM 5.51 41.918 0.034 6.62 2.15 12.68
11/29/2022 2:15:00 AM 5.5 41.9 0.034 6.59 2.19 12.69
11/29/2022 2:30:00 AM 5.48 41.864 0.034 6.59 2.21 12.7
11/29/2022 2:45:00 AM 5.47 41.846 0.034 6.59 2.19 12.7
11/29/2022 3:00:00 AM 5.45 41.81 0.034 6.63 2.18 12.7
11/29/2022 3:15:00 AM 5.44 41.792 0.034 6.58 2.2 12.71
11/29/2022 3:30:00 AM 5.42 41.756 0.034 6.57 2.23 12.72
11/29/2022 3:45:00 AM 5.41 41.738 0.034 6.58 2.15 12.72
11/29/2022 4:00:00 AM 5.4 41.72 0.034 6.61 2.14 12.73
11/29/2022 4:15:00 AM 5.38 41.684 0.034 6.62 2.23 12.73
11/29/2022 4:30:00 AM 5.37 41.666 0.034 6.58 2.19 12.74
11/29/2022 4:45:00 AM 5.35 41.63 0.034 6.58 2.16 12.74
11/29/2022 5:00:00 AM 5.33 41.594 0.034 6.58 2.12 12.75
11/29/2022 5:15:00 AM 5.32 41.576 0.034 6.59 2.12 12.75
11/29/2022 5:30:00 AM 5.31 41.558 0.034 6.59 2.15 12.76
11/29/2022 5:45:00 AM 5.29 41.522 0.034 6.63 2.2 12.77
11/29/2022 6:00:00 AM 5.28 41.504 0.034 6.59 2.16 12.78
11/29/2022 6:15:00 AM 5.27 41.486 0.034 6.63 2.09 12.78
11/29/2022 6:30:00 AM 5.25 41.45 0.034 6.58 2.08 12.79
11/29/2022 6:45:00 AM 5.23 41.414 0.034 6.63 2.03 12.8
11/29/2022 7:00:00 AM 5.23 41.414 0.034 6.58 2.13 12.8
11/29/2022 7:15:00 AM 5.21 41.378 0.034 6.57 2.08 12.82
11/29/2022 7:30:00 AM 5.21 41.378 0.034 6.59 2.06 12.84
11/29/2022 7:45:00 AM 5.2 41.36 0.034 6.62 2.07 12.88
11/29/2022 8:00:00 AM 5.19 41.342 0.034 6.61 2.09 12.92
11/29/2022 8:15:00 AM 5.2 41.36 0.034 6.59 2.08 12.96
11/29/2022 8:30:00 AM 5.2 41.36 0.034 6.59 2.03 12.99
11/29/2022 8:45:00 AM 5.21 41.378 0.034 6.6 2.06 13.03
11/29/2022 9:00:00 AM 5.23 41.414 0.034 6.67 2.08 13.07
11/29/2022 9:15:00 AM 5.25 41.45 0.034 6.63 1.98 13.09
11/29/2022 9:30:00 AM 5.28 41.504 0.034 6.67 2.05 13.1
11/29/2022 9:45:00 AM 5.31 41.558 0.034 6.68 2.05 13.12
11/29/2022 10:00:00 AM 5.33 41.594 0.034 6.66 1.96 13.12
11/29/2022 10:15:00 AM 5.37 41.666 0.034 6.66 2 13.12
11/29/2022 10:30:00 AM 5.41 41.738 0.033 6.67 1.97 13.11
11/29/2022 10:45:00 AM 5.45 41.81 0.033 6.65 2 13.11
11/29/2022 11:00:00 AM 5.49 41.882 0.034 6.66 1.96 13.1
11/29/2022 11:15:00 AM 5.53 41.954 0.033 6.66 1.99 13.08
11/29/2022 11:30:00 AM 5.57 42.026 0.033 6.66 2 13.08
11/29/2022 11:45:00 AM 5.63 42.134 0.033 6.68 2.03 13.07
11/29/2022 12:00:00 PM 5.69 42.242 0.034 6.68 1.98 13.05
11/29/2022 12:15:00 PM 5.75 42.35 0.033 6.72 1.97 13.03
11/29/2022 12:30:00 PM 5.83 42.494 0.034 6.73 1.95 13.01
11/29/2022 12:45:00 PM 5.86 42.548 0.033 6.68 1.98 12.99
11/29/2022 1:00:00 PM 5.9 42.62 0.034 6.69 1.97 12.97
11/29/2022 1:15:00 PM 5.92 42.656 0.033 6.69 1.96 12.96
11/29/2022 1:30:00 PM 5.92 42.656 0.033 6.68 1.96 12.94
11/29/2022 1:45:00 PM 5.94 42.692 0.034 6.69 1.94 12.92
11/29/2022 2:00:00 PM 5.96 42.728 0.033 6.7 1.95 12.9
11/29/2022 2:15:00 PM 5.98 42.764 0.033 6.69 1.98 12.9
11/29/2022 2:30:00 PM 5.97 42.746 0.034 6.68 1.94 12.88
11/29/2022 2:45:00 PM 5.96 42.728 0.034 6.67 1.96 12.88
11/29/2022 3:00:00 PM 5.94 42.692 0.034 6.68 1.95 12.86
11/29/2022 3:15:00 PM 5.92 42.656 0.034 6.67 1.99 12.85
11/29/2022 3:30:00 PM 5.92 42.656 0.034 6.68 1.99 12.86
11/29/2022 3:45:00 PM 5.92 42.656 0.034 6.71 2 12.84
11/29/2022 4:00:00 PM 5.92 42.656 0.034 6.68 2.02 12.8
11/29/2022 4:15:00 PM 5.91 42.638 0.034 6.65 2.02 12.76
11/29/2022 4:30:00 PM 5.89 42.602 0.034 6.64 2.04 12.7
11/29/2022 4:45:00 PM 5.87 42.566 0.034 6.63 1.99 12.66
11/29/2022 5:00:00 PM 5.84 42.512 0.034 6.63 2.04 12.63
11/29/2022 5:15:00 PM 5.81 42.458 0.034 6.61 1.98 12.62
11/29/2022 5:30:00 PM 5.77 42.386 0.034 6.64 2 12.61
11/29/2022 5:45:00 PM 5.72 42.296 0.034 6.66 2.11 12.62
11/29/2022 6:00:00 PM 5.68 42.224 0.034 6.61 2 12.62
11/29/2022 6:15:00 PM 5.65 42.17 0.034 6.61 2.03 12.63
11/29/2022 6:30:00 PM 5.61 42.098 0.034 6.59 2.04 12.64
11/29/2022 6:45:00 PM 5.58 42.044 0.034 6.59 2 12.64
11/29/2022 7:00:00 PM 5.53 41.954 0.034 6.56 1.99 12.67
11/29/2022 7:15:00 PM 5.5 41.9 0.034 6.56 2.03 12.67
11/29/2022 7:30:00 PM 5.46 41.828 0.034 6.59 1.94 12.68
11/29/2022 7:45:00 PM 5.41 41.738 0.034 6.61 2 12.7
11/29/2022 8:00:00 PM 5.37 41.666 0.034 6.57 2.02 12.71
11/29/2022 8:15:00 PM 5.33 41.594 0.034 6.58 2.01 12.72
11/29/2022 8:30:00 PM 5.28 41.504 0.034 6.62 2 12.74
11/29/2022 8:45:00 PM 5.24 41.432 0.034 6.56 1.99 12.75
11/29/2022 9:00:00 PM 5.2 41.36 0.034 6.56 2.02 12.76
11/29/2022 9:15:00 PM 5.16 41.288 0.034 6.57 2.1 12.78
11/29/2022 9:30:00 PM 5.14 41.252 0.034 6.55 1.99 12.79
11/29/2022 9:45:00 PM 5.13 41.234 0.034 6.61 1.98 12.8
11/29/2022 10:00:00 PM 5.11 41.198 0.034 6.59 1.95 12.81
11/29/2022 10:15:00 PM 5.1 41.18 0.035 6.58 1.96 12.82
11/29/2022 10:30:00 PM 5.08 41.144 0.034 6.57 1.94 12.82
11/29/2022 10:45:00 PM 5.07 41.126 0.035 6.56 1.98 12.82
11/29/2022 11:00:00 PM 5.05 41.09 0.034 6.57 1.94 12.83
11/29/2022 11:15:00 PM 5.04 41.072 0.035 6.56 1.98 12.83
11/29/2022 11:30:00 PM 5.02 41.036 0.034 6.56 1.98 12.84
11/29/2022 11:45:00 PM 4.99 40.982 0.035 6.6 1.95 12.85
11/30/2022 12:00:00 AM 4.97 40.946 0.034 6.61 2 12.86
11/30/2022 12:15:00 AM 4.97 40.946 0.034 6.56 1.91 12.86
11/30/2022 12:30:00 AM 4.95 40.91 0.035 6.58 1.94 12.86
11/30/2022 12:45:00 AM 4.95 40.91 0.034 6.56 1.97 12.86
11/30/2022 1:00:00 AM 4.94 40.892 0.034 6.61 1.96 12.86
11/30/2022 1:15:00 AM 4.93 40.874 0.034 6.58 1.91 12.86
11/30/2022 1:30:00 AM 4.92 40.856 0.034 6.56 1.97 12.86
11/30/2022 1:45:00 AM 4.92 40.856 0.034 6.57 1.91 12.86
11/30/2022 2:00:00 AM 4.92 40.856 0.034 6.62 2 12.86
11/30/2022 2:15:00 AM 4.92 40.856 0.034 6.57 1.91 12.86
11/30/2022 2:30:00 AM 4.92 40.856 0.034 6.56 1.92 12.86
11/30/2022 2:45:00 AM 4.92 40.856 0.034 6.55 1.93 12.86
11/30/2022 3:00:00 AM 4.93 40.874 0.034 6.58 2.06 12.85
11/30/2022 3:15:00 AM 4.93 40.874 0.034 6.59 1.9 12.85
11/30/2022 3:30:00 AM 4.94 40.892 0.034 6.61 1.93 12.84
11/30/2022 3:45:00 AM 4.96 40.928 0.034 6.58 1.88 12.83
11/30/2022 4:00:00 AM 4.97 40.946 0.034 6.58 1.83 12.83
11/30/2022 4:15:00 AM 4.98 40.964 0.034 6.56 1.87 12.82
11/30/2022 4:30:00 AM 4.99 40.982 0.034 6.62 1.89 12.81
11/30/2022 4:45:00 AM 5.01 41.018 0.034 6.62 1.85 12.8
11/30/2022 5:00:00 AM 5.03 41.054 0.034 6.57 1.91 12.79
11/30/2022 5:15:00 AM 5.04 41.072 0.034 6.56 1.88 12.79
11/30/2022 5:30:00 AM 5.05 41.09 0.034 6.56 1.85 12.79
11/30/2022 5:45:00 AM 5.07 41.126 0.034 6.56 1.86 12.77
11/30/2022 6:00:00 AM 5.09 41.162 0.034 6.58 1.87 12.76
11/30/2022 6:15:00 AM 5.11 41.198 0.034 6.63 1.85 12.75
11/30/2022 6:30:00 AM 5.12 41.216 0.034 6.57 1.88 12.75
11/30/2022 6:45:00 AM 5.14 41.252 0.034 6.55 1.86 12.73
11/30/2022 7:00:00 AM 5.16 41.288 0.034 6.59 1.86 12.72
11/30/2022 7:15:00 AM 5.18 41.324 0.034 6.56 1.9 12.72
11/30/2022 7:30:00 AM 5.2 41.36 0.034 6.62 1.88 12.7
11/30/2022 7:45:00 AM 5.22 41.396 0.034 6.58 1.84 12.7
11/30/2022 8:00:00 AM 5.24 41.432 0.034 6.58 1.85 12.69
11/30/2022 8:15:00 AM 5.26 41.468 0.034 6.57 1.87 12.69
11/30/2022 8:30:00 AM 5.28 41.504 0.034 6.59 1.84 12.69
11/30/2022 8:45:00 AM 5.3 41.54 0.034 6.56 1.9 12.69
11/30/2022 9:00:00 AM 5.33 41.594 0.034 6.57 1.89 12.71
11/30/2022 9:15:00 AM 5.35 41.63 0.034 6.57 1.88 12.71
11/30/2022 9:30:00 AM 5.38 41.684 0.034 6.57 1.89 12.72
11/30/2022 9:45:00 AM 5.41 41.738 0.034 6.59 1.88 12.73
11/30/2022 10:00:00 AM 5.45 41.81 0.034 6.67 1.84 12.73
11/30/2022 10:15:00 AM 5.48 41.864 0.034 6.62 1.91 12.72
11/30/2022 10:30:00 AM 5.52 41.936 0.034 6.65 1.9 12.7
11/30/2022 10:45:00 AM 5.55 41.99 0.034 6.62 1.99 12.68
11/30/2022 11:00:00 AM 5.58 42.044 0.034 6.65 2.05 12.66
11/30/2022 11:15:00 AM 5.63 42.134 0.034 6.62 2.21 12.68
11/30/2022 11:30:00 AM 5.68 42.224 0.034 6.68 2.58 12.67
11/30/2022 11:45:00 AM 5.72 42.296 0.035 6.68 2.96 12.64
11/30/2022 12:00:00 PM 5.76 42.368 0.034 6.69 3.1 12.61
11/30/2022 12:15:00 PM 5.8 42.44 0.034 6.68 3.1 12.6
11/30/2022 12:30:00 PM 5.84 42.512 0.035 6.65 3.17 12.57
11/30/2022 12:45:00 PM 5.88 42.584 0.035 6.65 3.09 12.54
11/30/2022 1:00:00 PM 5.93 42.674 0.035 6.66 3.19 12.54
11/30/2022 1:15:00 PM 5.99 42.782 0.035 6.68 3.45 12.55
11/30/2022 1:30:00 PM 6.04 42.872 0.035 6.68 3.88 12.53
11/30/2022 1:45:00 PM 6.07 42.926 0.036 6.69 4.28 12.48
11/30/2022 2:00:00 PM 6.13 43.034 0.036 6.69 4.42 12.45
11/30/2022 2:15:00 PM 6.19 43.142 0.036 6.7 4.93 12.43
11/30/2022 2:30:00 PM 6.24 43.232 0.037 6.71 5.45 12.4
11/30/2022 2:45:00 PM 6.29 43.322 0.038 6.73 6.43 12.38
11/30/2022 3:00:00 PM 6.35 43.43 0.038 6.74 8.05 12.36
11/30/2022 3:15:00 PM 6.41 43.538 0.039 6.76 10.3 12.35
11/30/2022 3:30:00 PM 6.44 43.592 0.039 6.77 12.44 12.33
11/30/2022 3:45:00 PM 6.46 43.628 0.039 6.79 13.6 12.32
11/30/2022 4:00:00 PM 6.47 43.646 0.039 6.8 14.65 12.31
11/30/2022 4:15:00 PM 6.47 43.646 0.038 6.77 14.69 12.31
11/30/2022 4:30:00 PM 6.46 43.628 0.037 6.77 15.43 12.32
11/30/2022 4:45:00 PM 6.45 43.61 0.035 6.75 15.59 12.32
11/30/2022 5:00:00 PM 6.43 43.574 0.034 6.7 14.82 12.33
11/30/2022 5:15:00 PM 6.41 43.538 0.032 6.7 14.77 12.34
11/30/2022 5:30:00 PM 6.38 43.484 0.031 6.69 15.73 12.36
11/30/2022 5:45:00 PM 6.36 43.448 0.03 6.67 15.82 12.37
11/30/2022 6:00:00 PM 6.33 43.394 0.03 6.68 13.63 12.38
11/30/2022 6:15:00 PM 6.32 43.376 0.029 6.67 14.62 12.4
11/30/2022 6:30:00 PM 6.29 43.322 0.029 6.63 13.95 12.41
11/30/2022 6:45:00 PM 6.25 43.25 0.029 6.49 12.82 12.42
11/30/2022 7:00:00 PM 6.21 43.178 0.028 6.57 11.97 12.43
11/30/2022 7:15:00 PM 6.17 43.106 0.028 6.57 11.2 12.45
11/30/2022 7:30:00 PM 6.14 43.052 0.028 6.6 10.56 12.46
11/30/2022 7:45:00 PM 6.12 43.016 0.028 6.54 10.57 12.48
11/30/2022 8:00:00 PM 6.09 42.962 0.028 6.54 9.51 12.48
11/30/2022 8:15:00 PM 6.07 42.926 0.028 6.54 9.08 12.49
11/30/2022 8:30:00 PM 6.04 42.872 0.028 6.43 8.55 12.5
11/30/2022 8:45:00 PM 6.01 42.818 0.028 6.48 7.99 12.52
11/30/2022 9:00:00 PM 5.99 42.782 0.028 6.5 7.61 12.53
11/30/2022 9:15:00 PM 5.95 42.71 0.028 6.5 7.76 12.54
11/30/2022 9:30:00 PM 5.9 42.62 0.028 6.51 6.96 12.55
11/30/2022 9:45:00 PM 5.86 42.548 0.028 6.49 6.97 12.57
11/30/2022 10:00:00 PM 5.82 42.476 0.028 6.49 6.76 12.59
11/30/2022 10:15:00 PM 5.77 42.386 0.028 6.5 6.38 12.61
11/30/2022 10:30:00 PM 5.72 42.296 0.028 6.49 6.23 12.62
11/30/2022 10:45:00 PM 5.66 42.188 0.028 6.49 6.08 12.65
11/30/2022 11:00:00 PM 5.61 42.098 0.029 6.48 6.1 12.66
11/30/2022 11:15:00 PM 5.55 41.99 0.029 6.53 5.67 12.69
11/30/2022 11:30:00 PM 5.49 41.882 0.029 6.5 5.65 12.71
11/30/2022 11:45:00 PM 5.42 41.756 0.029 6.54 5.63 12.72
12/1/2022 12:00:00 AM 5.36 41.648 0.029 6.51 5.6 12.75
12/1/2022 12:15:00 AM 5.3 41.54 0.029 6.52 5.21 12.76
12/1/2022 12:30:00 AM 5.24 41.432 0.029 6.48 5.08 12.79
12/1/2022 12:45:00 AM 5.18 41.324 0.029 6.49 4.97 12.81
12/1/2022 1:00:00 AM 5.14 41.252 0.029 6.52 5.04 12.82
12/1/2022 1:15:00 AM 5.1 41.18 0.028 6.5 4.85 12.84
12/1/2022 1:30:00 AM 5.06 41.108 0.029 6.48 4.93 12.86
12/1/2022 1:45:00 AM 5.03 41.054 0.028 6.5 4.67 12.88
12/1/2022 2:00:00 AM 4.99 40.982 0.028 6.53 4.68 12.89
12/1/2022 2:15:00 AM 4.94 40.892 0.028 6.47 4.62 12.91
12/1/2022 2:30:00 AM 4.89 40.802 0.028 6.47 4.47 12.93
12/1/2022 2:45:00 AM 4.84 40.712 0.028 6.48 4.5 12.94
12/1/2022 3:00:00 AM 4.8 40.64 0.028 6.51 4.3 12.96
12/1/2022 3:15:00 AM 4.76 40.568 0.028 6.52 4.32 12.97
12/1/2022 3:30:00 AM 4.72 40.496 0.028 6.48 4.29 12.99
12/1/2022 3:45:00 AM 4.7 40.46 0.028 6.49 4.12 13
12/1/2022 4:00:00 AM 4.67 40.406 0.028 6.48 3.89 13.02
12/1/2022 4:15:00 AM 4.64 40.352 0.028 6.49 4.12 13.03
12/1/2022 4:30:00 AM 4.61 40.298 0.028 6.5 4.02 13.05
12/1/2022 4:45:00 AM 4.57 40.226 0.028 6.5 3.94 13.06
12/1/2022 5:00:00 AM 4.55 40.19 0.028 6.49 3.91 13.07
12/1/2022 5:15:00 AM 4.52 40.136 0.028 6.48 3.76 13.08
12/1/2022 5:30:00 AM 4.5 40.1 0.028 6.47 3.89 13.1
12/1/2022 5:45:00 AM 4.48 40.064 0.028 6.45 3.87 13.11
12/1/2022 6:00:00 AM 4.45 40.01 0.028 6.46 3.74 13.12
12/1/2022 6:15:00 AM 4.43 39.974 0.028 6.48 3.7 13.14
12/1/2022 6:30:00 AM 4.41 39.938 0.028 6.49 3.61 13.14
12/1/2022 6:45:00 AM 4.4 39.92 0.028 6.48 3.6 13.15
12/1/2022 7:00:00 AM 4.38 39.884 0.028 6.48 3.61 13.16
12/1/2022 7:15:00 AM 4.36 39.848 0.028 6.47 3.6 13.17
12/1/2022 7:30:00 AM 4.35 39.83 0.028 6.47 3.48 13.19
12/1/2022 7:45:00 AM 4.33 39.794 0.028 6.47 3.5 13.2
12/1/2022 8:00:00 AM 4.33 39.794 0.028 6.47 3.34 13.22
12/1/2022 8:15:00 AM 4.32 39.776 0.028 6.47 3.25 13.24
12/1/2022 8:30:00 AM 4.31 39.758 0.028 6.49 3.31 13.26
12/1/2022 8:45:00 AM 4.31 39.758 0.028 6.53 3.36 13.27
12/1/2022 9:00:00 AM 4.3 39.74 0.028 6.47 3.27 13.28
12/1/2022 9:15:00 AM 4.3 39.74 0.028 6.49 3.27 13.31
12/1/2022 9:30:00 AM 4.3 39.74 0.028 6.52 3.21 13.32
12/1/2022 9:45:00 AM 4.31 39.758 0.027 6.49 3.19 13.34
12/1/2022 10:00:00 AM 4.32 39.776 0.028 6.52 3.08 13.35
12/1/2022 10:15:00 AM 4.32 39.776 0.028 6.51 3.14 13.37
12/1/2022 10:30:00 AM 4.34 39.812 0.027 6.52 3.13 13.37
12/1/2022 10:45:00 AM 4.36 39.848 0.027 6.52 3.05 13.39
12/1/2022 11:00:00 AM 4.39 39.902 0.027 6.54 3.06 13.4
12/1/2022 11:15:00 AM 4.42 39.956 0.027 6.55 3.02 13.4
12/1/2022 11:30:00 AM 4.44 39.992 0.027 6.54 2.97 13.41
12/1/2022 11:45:00 AM 4.46 40.028 0.027 6.54 2.99 13.39
12/1/2022 12:00:00 PM 4.46 40.028 0.027 6.52 3.01 13.39
12/1/2022 12:15:00 PM 4.51 40.118 0.027 6.57 2.94 13.37
12/1/2022 12:30:00 PM 4.52 40.136 0.027 6.54 2.96 13.36
12/1/2022 12:45:00 PM 4.52 40.136 0.027 6.56 2.9 13.36
12/1/2022 1:00:00 PM 4.55 40.19 0.027 6.54 2.96 13.36
12/1/2022 1:15:00 PM 4.57 40.226 0.027 6.55 2.86 13.37
12/1/2022 1:30:00 PM 4.58 40.244 0.027 6.55 2.95 13.37
12/1/2022 1:45:00 PM 4.63 40.334 0.027 6.54 2.87 13.36
12/1/2022 2:00:00 PM 4.68 40.424 0.027 6.54 3.02 13.35
12/1/2022 2:15:00 PM 4.67 40.406 0.028 6.6 2.82 13.33
12/1/2022 2:30:00 PM 4.7 40.46 0.028 6.57 2.83 13.31
12/1/2022 2:45:00 PM 4.7 40.46 0.027 6.56 2.93 13.3
12/1/2022 3:00:00 PM 4.7 40.46 0.027 6.57 2.9 13.29
12/1/2022 3:15:00 PM 4.68 40.424 0.027 6.58 2.86 13.3
12/1/2022 3:30:00 PM 4.64 40.352 0.027 6.55 2.81 13.29
12/1/2022 3:45:00 PM 4.61 40.298 0.027 6.55 2.79 13.28
12/1/2022 4:00:00 PM 4.58 40.244 0.027 6.54 2.82 13.27
12/1/2022 4:15:00 PM 4.56 40.208 0.028 6.49 2.77 13.27
12/1/2022 4:30:00 PM 4.54 40.172 0.027 6.52 2.75 13.25
12/1/2022 4:45:00 PM 4.51 40.118 0.028 6.51 2.8 13.25
12/1/2022 5:00:00 PM 4.48 40.064 0.028 6.5 2.8 13.23
12/1/2022 5:15:00 PM 4.46 40.028 0.028 6.49 2.83 13.23
12/1/2022 5:30:00 PM 4.43 39.974 0.028 6.53 2.84 13.23
12/1/2022 5:45:00 PM 4.39 39.902 0.028 6.5 2.7 13.24
12/1/2022 6:00:00 PM 4.35 39.83 0.028 6.47 2.77 13.25
12/1/2022 6:15:00 PM 4.31 39.758 0.028 6.51 2.73 13.27
12/1/2022 6:30:00 PM 4.28 39.704 0.028 6.46 2.71 13.29
12/1/2022 6:45:00 PM 4.24 39.632 0.028 6.47 2.7 13.29
12/1/2022 7:00:00 PM 4.21 39.578 0.028 6.5 2.69 13.31
12/1/2022 7:15:00 PM 4.17 39.506 0.028 6.5 2.68 13.32
12/1/2022 7:30:00 PM 4.13 39.434 0.028 6.46 2.59 13.34
12/1/2022 7:45:00 PM 4.1 39.38 0.028 6.49 2.67 13.36
12/1/2022 8:00:00 PM 4.06 39.308 0.028 6.48 2.61 13.36
12/1/2022 8:15:00 PM 4.02 39.236 0.028 6.46 2.73 13.38
12/1/2022 8:30:00 PM 3.99 39.182 0.028 6.46 2.7 13.4
12/1/2022 8:45:00 PM 3.95 39.11 0.028 6.45 2.71 13.41
12/1/2022 9:00:00 PM 3.91 39.038 0.028 6.43 2.59 13.43
12/1/2022 9:15:00 PM 3.88 38.984 0.028 6.41 2.63 13.44
12/1/2022 9:30:00 PM 3.85 38.93 0.028 6.45 2.62 13.45
12/1/2022 9:45:00 PM 3.81 38.858 0.028 6.44 2.61 13.47
12/1/2022 10:00:00 PM 3.78 38.804 0.028 6.43 2.54 13.48
12/1/2022 10:15:00 PM 3.75 38.75 0.028 6.43 2.5 13.48
12/1/2022 10:30:00 PM 3.72 38.696 0.028 6.46 2.53 13.5
12/1/2022 10:45:00 PM 3.69 38.642 0.028 6.49 2.47 13.51
12/1/2022 11:00:00 PM 3.66 38.588 0.028 6.48 2.46 13.52
12/1/2022 11:15:00 PM 3.64 38.552 0.028 6.46 2.47 13.53
12/1/2022 11:30:00 PM 3.61 38.498 0.028 6.48 2.48 13.54
12/1/2022 11:45:00 PM 3.58 38.444 0.028 6.45 2.49 13.56
12/2/2022 12:00:00 AM 3.56 38.408 0.028 6.42 2.43 13.56
12/2/2022 12:15:00 AM 3.53 38.354 0.028 6.48 2.43 13.58
12/2/2022 12:30:00 AM 3.5 38.3 0.028 6.45 2.43 13.58
12/2/2022 12:45:00 AM 3.48 38.264 0.028 6.45 2.44 13.6
12/2/2022 1:00:00 AM 3.45 38.21 0.028 6.47 2.4 13.6
12/2/2022 1:15:00 AM 3.42 38.156 0.028 6.46 2.44 13.61
12/2/2022 1:30:00 AM 3.4 38.12 0.028 6.45 2.4 13.62
12/2/2022 1:45:00 AM 3.38 38.084 0.028 6.45 2.39 13.63
12/2/2022 2:00:00 AM 3.35 38.03 0.028 6.49 2.44 13.64
12/2/2022 2:15:00 AM 3.33 37.994 0.028 6.46 2.35 13.65
12/2/2022 2:30:00 AM 3.3 37.94 0.028 6.49 2.37 13.66
12/2/2022 2:45:00 AM 3.27 37.886 0.028 6.46 2.33 13.67
12/2/2022 3:00:00 AM 3.25 37.85 0.028 6.46 2.31 13.68
12/2/2022 3:15:00 AM 3.22 37.796 0.028 6.47 2.35 13.69
12/2/2022 3:30:00 AM 3.19 37.742 0.028 6.46 2.36 13.7
12/2/2022 3:45:00 AM 3.16 37.688 0.028 6.43 2.35 13.71
12/2/2022 4:00:00 AM 3.14 37.652 0.028 6.42 2.39 13.72
12/2/2022 4:15:00 AM 3.12 37.616 0.028 6.44 2.32 13.73
12/2/2022 4:30:00 AM 3.08 37.544 0.028 6.44 2.3 13.75
12/2/2022 4:45:00 AM 3.06 37.508 0.028 6.44 2.34 13.75
12/2/2022 5:00:00 AM 3.03 37.454 0.028 6.44 2.39 13.77
12/2/2022 5:15:00 AM 3 37.4 0.028 6.45 2.28 13.78
12/2/2022 5:30:00 AM 2.98 37.364 0.028 6.44 2.29 13.79
12/2/2022 5:45:00 AM 2.96 37.328 0.028 6.43 2.27 13.79
12/2/2022 6:00:00 AM 2.93 37.274 0.028 6.44 2.31 13.82
12/2/2022 6:15:00 AM 2.9 37.22 0.028 6.44 2.29 13.82
12/2/2022 6:30:00 AM 2.88 37.184 0.028 6.45 2.28 13.84
12/2/2022 6:45:00 AM 2.85 37.13 0.028 6.45 2.23 13.84
12/2/2022 7:00:00 AM 2.83 37.094 0.029 6.44 2.24 13.85
12/2/2022 7:15:00 AM 2.8 37.04 0.028 6.44 2.2 13.87
12/2/2022 7:30:00 AM 2.78 37.004 0.028 6.48 2.23 13.89
12/2/2022 7:45:00 AM 2.76 36.968 0.028 6.44 2.2 13.91
12/2/2022 8:00:00 AM 2.75 36.95 0.028 6.45 2.21 13.94
12/2/2022 8:15:00 AM 2.73 36.914 0.028 6.47 2.18 13.97
12/2/2022 8:30:00 AM 2.73 36.914 0.028 6.5 2.24 14
12/2/2022 8:45:00 AM 2.72 36.896 0.028 6.5 2.2 14.01
12/2/2022 9:00:00 AM 2.73 36.914 0.028 6.53 2.27 14.03
12/2/2022 9:15:00 AM 2.74 36.932 0.028 6.48 2.15 14.04
12/2/2022 9:30:00 AM 2.77 36.986 0.028 6.47 2.14 14.05
12/2/2022 9:45:00 AM 2.8 37.04 0.028 6.49 2.14 14.04
12/2/2022 10:00:00 AM 2.85 37.13 0.028 6.52 2.09 14.04
12/2/2022 10:15:00 AM 2.9 37.22 0.028 6.5 2.17 14.04
12/2/2022 10:30:00 AM 2.96 37.328 0.028 6.5 2.12 14.03
12/2/2022 10:45:00 AM 3.03 37.454 0.028 6.56 2.2 14.01
12/2/2022 11:00:00 AM 3.1 37.58 0.028 6.55 2.11 13.99
12/2/2022 11:15:00 AM 3.2 37.76 0.029 6.51 2.1 13.99
12/2/2022 11:30:00 AM 3.27 37.886 0.028 6.55 2.12 13.97
12/2/2022 11:45:00 AM 3.35 38.03 0.028 6.53 2.12 13.94
12/2/2022 12:00:00 PM 3.42 38.156 0.028 6.52 2.1 13.91
12/2/2022 12:15:00 PM 3.46 38.228 0.028 6.53 2.15 13.9
12/2/2022 12:30:00 PM 3.5 38.3 0.028 6.6 2.14 13.89
12/2/2022 12:45:00 PM 3.57 38.426 0.028 6.54 2.1 13.86
12/2/2022 1:00:00 PM 3.59 38.462 0.028 6.54 2.11 13.84
12/2/2022 1:15:00 PM 3.65 38.57 0.028 6.55 2.06 13.81
12/2/2022 1:30:00 PM 3.7 38.66 0.028 6.55 2.08 13.78
12/2/2022 1:45:00 PM 3.76 38.768 0.028 6.58 2.15 13.76
12/2/2022 2:00:00 PM 3.84 38.912 0.028 6.58 2.09 13.73
12/2/2022 2:15:00 PM 3.89 39.002 0.028 6.55 2.14 13.69
12/2/2022 2:30:00 PM 3.95 39.11 0.029 6.58 2.17 13.67

These are provisional data and have not been subject to a quality assurance process, but rather are the raw data reported by the instrument.
H: value is above sensor operating range
L: value is below sensor operating range
Offline: station is not reporting data
NC: parameter is not collected at site

Data Availability & Limitations

Uncertainty and potential for error can be associated with environmental monitoring data. Provisional data have not been subject to a quality assurance process, but rather are the raw data reported by the instrument. Data users are cautioned to consider carefully the provisional nature of the information before using it for decisions that concern personal or public safety or the conduct of business that involves substantial monetary or operational consequences.

Approved data are currently available by request by emailing: [email protected]. Approved data have been subject to a quality assurance process to correct for equipment or fouling drift. Data recorded during equipment malfunctions have been removed.

View Historical Stations that have been discontinued.